<?xml version="1.0" encoding="UTF-8" standalone="no" ?>
<gpx xmlns="http://www.topografix.com/GPX/1/1" xmlns:xsi="http://www.w3.org/2001/XMLSchema-instance" xsi:schemaLocation="http://www.topografix.com/GPX/1/1 http://www.topografix.com/GPX/1/1/gpx.xsd" version="1.1" creator="VisuGPX - https://www.visugpx.com">
  <metadata>
    <name>Trail des Reculées 2023- L'Ermitage </name>
    <desc><![CDATA[proposition TDR 2023]]></desc>
  </metadata>
  <trk>
    <name><![CDATA[Trail des Reculées 2022 - L'Ermitage sur TraceDeTrail.fr]]></name>
    <extensions>
      <line xmlns="http://www.topografix.com/GPX/gpx_style/0/2">
        <color>0000FF</color>
        <width>4</width>
      </line>
    </extensions>
    <trkseg>
      <trkpt lat="46.67441" lon="5.55318">
        <ele>254</ele>
        <time>2000-01-01T02:11:59.000Z</time>
        <extensions>
          <visugpx:TrkExtension xmlns:visugpx="https://www.visugpx.com/editgpx/">
            <visugpx:node>5</visugpx:node>
            </visugpx:TrkExtension>
        </extensions>
      </trkpt>
      <trkpt lat="46.67443" lon="5.5532">
        <ele>254</ele>
        <time>2000-01-01T02:12:09.000Z</time>
      </trkpt>
      <trkpt lat="46.67452" lon="5.55334">
        <ele>254.3</ele>
        <time>2000-01-01T02:12:19.000Z</time>
      </trkpt>
      <trkpt lat="46.67463" lon="5.55345">
        <ele>254</ele>
        <time>2000-01-01T02:12:29.000Z</time>
      </trkpt>
      <trkpt lat="46.67471" lon="5.55351">
        <ele>255</ele>
        <time>2000-01-01T02:12:39.000Z</time>
      </trkpt>
      <trkpt lat="46.67483" lon="5.55362">
        <ele>254</ele>
        <time>2018-08-08T12:47:40.000Z</time>
      </trkpt>
      <trkpt lat="46.67521" lon="5.55385">
        <ele>254</ele>
        <time>2018-08-08T12:47:50.000Z</time>
      </trkpt>
      <trkpt lat="46.67533" lon="5.55391">
        <ele>255.2</ele>
        <time>2018-08-08T12:48:00.000Z</time>
      </trkpt>
      <trkpt lat="46.67533" lon="5.554">
        <ele>255</ele>
        <time>2018-08-08T12:48:10.000Z</time>
      </trkpt>
      <trkpt lat="46.67521" lon="5.5544">
        <ele>255</ele>
        <time>2018-08-08T12:48:20.000Z</time>
      </trkpt>
      <trkpt lat="46.67515" lon="5.55456">
        <ele>256</ele>
        <time>2018-08-08T12:48:30.000Z</time>
      </trkpt>
      <trkpt lat="46.67508" lon="5.55497">
        <ele>256</ele>
        <time>2018-08-08T12:49:00.000Z</time>
      </trkpt>
      <trkpt lat="46.67492" lon="5.55547">
        <ele>256</ele>
        <time>2018-08-08T12:49:20.000Z</time>
      </trkpt>
      <trkpt lat="46.67455" lon="5.55523">
        <ele>256</ele>
        <time>2018-08-08T12:48:48.000Z</time>
      </trkpt>
      <trkpt lat="46.67423" lon="5.55498">
        <ele>256</ele>
        <time>2018-08-08T12:48:58.000Z</time>
      </trkpt>
      <trkpt lat="46.67404" lon="5.55492">
        <ele>256</ele>
        <time>2018-08-08T12:49:08.000Z</time>
      </trkpt>
      <trkpt lat="46.67377" lon="5.55482">
        <ele>256</ele>
        <time>2018-08-08T12:49:18.000Z</time>
      </trkpt>
      <trkpt lat="46.67359" lon="5.55478">
        <ele>256.2</ele>
        <time>2018-08-08T12:49:28.000Z</time>
      </trkpt>
      <trkpt lat="46.67344" lon="5.55488">
        <ele>256</ele>
        <time>2018-08-08T12:49:38.000Z</time>
      </trkpt>
      <trkpt lat="46.67326" lon="5.55479">
        <ele>256</ele>
        <time>2018-08-08T12:49:48.000Z</time>
      </trkpt>
      <trkpt lat="46.67314" lon="5.55474">
        <ele>256</ele>
        <time>2018-08-08T12:49:58.000Z</time>
      </trkpt>
      <trkpt lat="46.67305" lon="5.55469">
        <ele>256</ele>
        <time>2018-08-08T12:50:08.000Z</time>
      </trkpt>
      <trkpt lat="46.67295" lon="5.55469">
        <ele>256</ele>
        <time>2018-08-08T12:50:18.000Z</time>
      </trkpt>
      <trkpt lat="46.67283" lon="5.55468">
        <ele>256</ele>
        <time>2018-08-08T12:50:28.000Z</time>
      </trkpt>
      <trkpt lat="46.67277" lon="5.55467">
        <ele>256</ele>
        <time>2018-08-08T12:50:38.000Z</time>
      </trkpt>
      <trkpt lat="46.67275" lon="5.55465">
        <ele>256.1</ele>
        <time>2018-08-08T12:50:48.000Z</time>
      </trkpt>
      <trkpt lat="46.67259" lon="5.55465">
        <ele>256</ele>
        <time>2018-08-08T12:50:58.000Z</time>
      </trkpt>
      <trkpt lat="46.67254" lon="5.55488">
        <ele>256.5</ele>
        <time>2018-08-08T12:51:08.000Z</time>
      </trkpt>
      <trkpt lat="46.67254" lon="5.55504">
        <ele>256</ele>
        <time>2018-08-08T12:51:18.000Z</time>
      </trkpt>
      <trkpt lat="46.67251" lon="5.55554">
        <ele>255</ele>
        <time>2018-08-08T12:51:38.000Z</time>
      </trkpt>
      <trkpt lat="46.67255" lon="5.5557">
        <ele>256</ele>
        <time>2018-08-08T12:51:48.000Z</time>
      </trkpt>
      <trkpt lat="46.67258" lon="5.55588">
        <ele>255</ele>
        <time>2018-08-08T12:51:58.000Z</time>
      </trkpt>
      <trkpt lat="46.67265" lon="5.55612">
        <ele>256</ele>
        <time>2018-08-08T12:52:08.000Z</time>
      </trkpt>
      <trkpt lat="46.6727" lon="5.5564">
        <ele>256</ele>
        <time>2018-08-08T12:51:00.000Z</time>
      </trkpt>
      <trkpt lat="46.67275" lon="5.55672">
        <ele>256</ele>
        <time>2018-08-08T12:51:06.000Z</time>
      </trkpt>
      <trkpt lat="46.67277" lon="5.55706">
        <ele>256</ele>
        <time>2018-08-08T12:51:15.000Z</time>
      </trkpt>
      <trkpt lat="46.67277" lon="5.55734">
        <ele>257</ele>
        <time>2018-08-08T12:51:25.000Z</time>
      </trkpt>
      <trkpt lat="46.67276" lon="5.55757">
        <ele>257.3</ele>
        <time>2018-08-08T12:51:35.000Z</time>
      </trkpt>
      <trkpt lat="46.67278" lon="5.55795">
        <ele>257</ele>
        <time>2018-08-08T12:51:45.000Z</time>
      </trkpt>
      <trkpt lat="46.67276" lon="5.55832">
        <ele>258</ele>
        <time>2018-08-08T12:51:55.000Z</time>
      </trkpt>
      <trkpt lat="46.67276" lon="5.55863">
        <ele>258</ele>
        <time>2018-08-08T12:52:05.000Z</time>
      </trkpt>
      <trkpt lat="46.67267" lon="5.5589">
        <ele>259</ele>
        <time>2018-08-08T12:52:00.000Z</time>
      </trkpt>
      <trkpt lat="46.67258" lon="5.55915">
        <ele>259</ele>
        <time>2018-08-08T12:52:06.000Z</time>
      </trkpt>
      <trkpt lat="46.67255" lon="5.55952">
        <ele>259</ele>
        <time>2018-08-08T12:52:16.000Z</time>
      </trkpt>
      <trkpt lat="46.6725" lon="5.5598">
        <ele>259</ele>
        <time>2018-08-08T12:52:22.000Z</time>
      </trkpt>
      <trkpt lat="46.67242" lon="5.56007">
        <ele>259</ele>
        <time>2018-08-08T12:52:29.000Z</time>
      </trkpt>
      <trkpt lat="46.6724" lon="5.56011">
        <ele>260.1</ele>
        <time>2018-08-08T12:52:39.000Z</time>
      </trkpt>
      <trkpt lat="46.67235" lon="5.56037">
        <ele>260</ele>
        <time>2018-08-08T12:52:39.000Z</time>
      </trkpt>
      <trkpt lat="46.67234" lon="5.56054">
        <ele>260.6</ele>
        <time>2018-08-08T12:52:49.000Z</time>
      </trkpt>
      <trkpt lat="46.6723" lon="5.56083">
        <ele>261</ele>
        <time>2018-08-08T12:52:48.000Z</time>
      </trkpt>
      <trkpt lat="46.67224" lon="5.56096">
        <ele>261</ele>
        <time>2018-08-08T12:52:58.000Z</time>
      </trkpt>
      <trkpt lat="46.67218" lon="5.56098">
        <ele>261.2</ele>
        <time>2018-08-08T12:53:08.000Z</time>
      </trkpt>
      <trkpt lat="46.67205" lon="5.56108">
        <ele>261</ele>
        <time>2018-08-08T12:52:58.000Z</time>
      </trkpt>
      <trkpt lat="46.67198" lon="5.56118">
        <ele>261.9</ele>
        <time>2018-08-08T12:53:08.000Z</time>
      </trkpt>
      <trkpt lat="46.67195" lon="5.56176">
        <ele>261</ele>
        <time>2018-08-08T12:53:20.000Z</time>
      </trkpt>
      <trkpt lat="46.67197" lon="5.56187">
        <ele>261.7</ele>
        <time>2018-08-08T12:53:30.000Z</time>
      </trkpt>
      <trkpt lat="46.67168" lon="5.56213">
        <ele>261</ele>
        <time>2018-08-08T12:53:39.000Z</time>
      </trkpt>
      <trkpt lat="46.67154" lon="5.56234">
        <ele>261</ele>
        <time>2018-08-08T12:53:45.000Z</time>
      </trkpt>
      <trkpt lat="46.67146" lon="5.56258">
        <ele>262.6</ele>
        <time>2018-08-08T12:53:55.000Z</time>
      </trkpt>
      <trkpt lat="46.6714" lon="5.56285">
        <ele>262</ele>
        <time>2018-08-08T12:53:56.000Z</time>
      </trkpt>
      <trkpt lat="46.67123" lon="5.5634">
        <ele>263</ele>
        <time>2018-08-08T12:54:09.000Z</time>
      </trkpt>
      <trkpt lat="46.67115" lon="5.56393">
        <ele>263</ele>
        <time>2018-08-08T12:54:19.000Z</time>
      </trkpt>
      <trkpt lat="46.67114" lon="5.56428">
        <ele>264</ele>
        <time>2018-08-08T12:54:29.000Z</time>
      </trkpt>
      <trkpt lat="46.67112" lon="5.56468">
        <ele>264</ele>
        <time>2018-08-08T12:54:37.000Z</time>
      </trkpt>
      <trkpt lat="46.67109" lon="5.56495">
        <ele>265</ele>
        <time>2018-08-08T12:54:47.000Z</time>
      </trkpt>
      <trkpt lat="46.67106" lon="5.56506">
        <ele>265</ele>
        <time>2018-08-08T12:54:57.000Z</time>
      </trkpt>
      <trkpt lat="46.67071" lon="5.56571">
        <ele>265</ele>
        <time>2018-08-08T12:55:10.000Z</time>
      </trkpt>
      <trkpt lat="46.6706" lon="5.56598">
        <ele>265</ele>
        <time>2018-08-08T12:55:10.000Z</time>
      </trkpt>
      <trkpt lat="46.67053" lon="5.56628">
        <ele>265</ele>
        <time>2018-08-08T12:55:18.000Z</time>
      </trkpt>
      <trkpt lat="46.67043" lon="5.56659">
        <ele>266</ele>
        <time>2018-08-08T12:55:25.000Z</time>
      </trkpt>
      <trkpt lat="46.67036" lon="5.56674">
        <ele>266.8</ele>
        <time>2018-08-08T12:55:35.000Z</time>
      </trkpt>
      <trkpt lat="46.67027" lon="5.56703">
        <ele>266</ele>
        <time>2018-08-08T12:55:36.000Z</time>
      </trkpt>
      <trkpt lat="46.67022" lon="5.56731">
        <ele>266</ele>
        <time>2018-08-08T12:55:42.000Z</time>
      </trkpt>
      <trkpt lat="46.67031" lon="5.56756">
        <ele>267</ele>
        <time>2018-08-08T12:55:49.000Z</time>
      </trkpt>
      <trkpt lat="46.67036" lon="5.56774">
        <ele>267.6</ele>
        <time>2018-08-08T12:55:59.000Z</time>
      </trkpt>
      <trkpt lat="46.67024" lon="5.5679">
        <ele>267</ele>
        <time>2018-08-08T12:56:09.000Z</time>
      </trkpt>
      <trkpt lat="46.67017" lon="5.56796">
        <ele>267.9</ele>
        <time>2018-08-08T12:56:19.000Z</time>
      </trkpt>
      <trkpt lat="46.67007" lon="5.56808">
        <ele>268</ele>
        <time>2018-08-08T12:56:29.000Z</time>
      </trkpt>
      <trkpt lat="46.66997" lon="5.56793">
        <ele>268.6</ele>
        <time>2018-08-08T12:56:39.000Z</time>
      </trkpt>
      <trkpt lat="46.66979" lon="5.56774">
        <ele>268</ele>
        <time>2018-08-08T12:56:22.000Z</time>
      </trkpt>
      <trkpt lat="46.66969" lon="5.56748">
        <ele>268</ele>
        <time>2018-08-08T12:56:32.000Z</time>
      </trkpt>
      <trkpt lat="46.66952" lon="5.56741">
        <ele>268.7</ele>
        <time>2018-08-08T12:56:42.000Z</time>
      </trkpt>
      <trkpt lat="46.66907" lon="5.56739">
        <ele>270</ele>
        <time>2018-08-08T12:56:49.000Z</time>
      </trkpt>
      <trkpt lat="46.66891" lon="5.56728">
        <ele>271.3</ele>
        <time>2018-08-08T12:56:59.000Z</time>
      </trkpt>
      <trkpt lat="46.66878" lon="5.56706">
        <ele>270</ele>
        <time>2018-08-08T12:57:02.000Z</time>
      </trkpt>
      <trkpt lat="46.66857" lon="5.567">
        <ele>270</ele>
        <time>2018-08-08T12:57:12.000Z</time>
      </trkpt>
      <trkpt lat="46.6684" lon="5.56708">
        <ele>272.9</ele>
        <time>2018-08-08T12:57:22.000Z</time>
      </trkpt>
      <trkpt lat="46.6682" lon="5.56715">
        <ele>271</ele>
        <time>2018-08-08T12:57:22.000Z</time>
      </trkpt>
      <trkpt lat="46.66814" lon="5.56719">
        <ele>272.3</ele>
        <time>2018-08-08T12:57:32.000Z</time>
      </trkpt>
      <trkpt lat="46.66795" lon="5.56723">
        <ele>272</ele>
        <time>2018-08-08T12:57:34.000Z</time>
      </trkpt>
      <trkpt lat="46.66776" lon="5.56724">
        <ele>272</ele>
        <time>2018-08-08T12:57:41.000Z</time>
      </trkpt>
      <trkpt lat="46.66769" lon="5.56721">
        <ele>273</ele>
        <time>2018-08-08T12:57:51.000Z</time>
      </trkpt>
      <trkpt lat="46.66765" lon="5.56722">
        <ele>273</ele>
        <time>2018-08-08T12:58:01.000Z</time>
      </trkpt>
      <trkpt lat="46.66747" lon="5.56718">
        <ele>274</ele>
        <time>2018-08-08T12:58:11.000Z</time>
      </trkpt>
      <trkpt lat="46.66743" lon="5.56699">
        <ele>274.3</ele>
        <time>2018-08-08T12:58:21.000Z</time>
      </trkpt>
      <trkpt lat="46.66729" lon="5.56681">
        <ele>274</ele>
        <time>2018-08-08T12:58:05.000Z</time>
      </trkpt>
      <trkpt lat="46.66722" lon="5.56676">
        <ele>276</ele>
        <time>2018-08-08T12:58:15.000Z</time>
      </trkpt>
      <trkpt lat="46.66715" lon="5.56673">
        <ele>276.8</ele>
        <time>2018-08-08T12:58:25.000Z</time>
      </trkpt>
      <trkpt lat="46.66707" lon="5.56665">
        <ele>275</ele>
        <time>2018-08-08T12:58:35.000Z</time>
      </trkpt>
      <trkpt lat="46.66707" lon="5.56639">
        <ele>278.2</ele>
        <time>2018-08-08T12:58:45.000Z</time>
      </trkpt>
      <trkpt lat="46.66704" lon="5.56613">
        <ele>277</ele>
        <time>2018-08-08T12:58:26.000Z</time>
      </trkpt>
      <trkpt lat="46.66694" lon="5.56606">
        <ele>277.9</ele>
        <time>2018-08-08T12:58:36.000Z</time>
      </trkpt>
      <trkpt lat="46.66677" lon="5.56601">
        <ele>279</ele>
        <time>2018-08-08T12:58:37.000Z</time>
      </trkpt>
      <trkpt lat="46.6664" lon="5.56593">
        <ele>280</ele>
        <time>2018-08-08T12:58:55.000Z</time>
      </trkpt>
      <trkpt lat="46.66622" lon="5.56581">
        <ele>281</ele>
        <time>2018-08-08T12:59:01.000Z</time>
      </trkpt>
      <trkpt lat="46.66619" lon="5.5658">
        <ele>281.8</ele>
        <time>2018-08-08T12:59:11.000Z</time>
      </trkpt>
      <trkpt lat="46.66604" lon="5.56565">
        <ele>282</ele>
        <time>2018-08-08T12:59:08.000Z</time>
      </trkpt>
      <trkpt lat="46.66593" lon="5.56542">
        <ele>283</ele>
        <time>2018-08-08T12:59:14.000Z</time>
      </trkpt>
      <trkpt lat="46.66583" lon="5.56526">
        <ele>284.2</ele>
        <time>2018-08-08T12:59:24.000Z</time>
      </trkpt>
      <trkpt lat="46.66571" lon="5.56539">
        <ele>286</ele>
        <time>2018-08-08T12:59:22.000Z</time>
      </trkpt>
      <trkpt lat="46.66554" lon="5.56559">
        <ele>287</ele>
        <time>2018-08-08T12:59:29.000Z</time>
      </trkpt>
      <trkpt lat="46.66541" lon="5.56578">
        <ele>287.8</ele>
        <time>2018-08-08T12:59:39.000Z</time>
      </trkpt>
      <trkpt lat="46.66532" lon="5.56596">
        <ele>287</ele>
        <time>2018-08-08T12:59:46.000Z</time>
      </trkpt>
      <trkpt lat="46.66526" lon="5.56636">
        <ele>288</ele>
        <time>2018-08-08T12:59:53.000Z</time>
      </trkpt>
      <trkpt lat="46.66525" lon="5.56663">
        <ele>289</ele>
        <time>2018-08-08T13:00:01.000Z</time>
      </trkpt>
      <trkpt lat="46.66521" lon="5.56679">
        <ele>290.7</ele>
        <time>2018-08-08T13:00:11.000Z</time>
      </trkpt>
      <trkpt lat="46.66505" lon="5.56717">
        <ele>291</ele>
        <time>2018-08-08T13:00:17.000Z</time>
      </trkpt>
      <trkpt lat="46.66495" lon="5.5675">
        <ele>292</ele>
        <time>2018-08-08T13:00:26.000Z</time>
      </trkpt>
      <trkpt lat="46.66489" lon="5.56774">
        <ele>294.4</ele>
        <time>2018-08-08T13:00:36.000Z</time>
      </trkpt>
      <trkpt lat="46.66484" lon="5.56799">
        <ele>294</ele>
        <time>2018-08-08T13:00:40.000Z</time>
      </trkpt>
      <trkpt lat="46.66476" lon="5.56849">
        <ele>297</ele>
        <time>2018-08-08T13:00:53.000Z</time>
      </trkpt>
      <trkpt lat="46.66479" lon="5.56893">
        <ele>299</ele>
        <time>2018-08-08T13:01:03.000Z</time>
      </trkpt>
      <trkpt lat="46.66464" lon="5.56904">
        <ele>301.1</ele>
        <time>2018-08-08T13:01:13.000Z</time>
      </trkpt>
      <trkpt lat="46.66445" lon="5.56908">
        <ele>300</ele>
        <time>2018-08-08T13:01:33.000Z</time>
      </trkpt>
      <trkpt lat="46.66431" lon="5.56909">
        <ele>301.9</ele>
        <time>2018-08-08T13:01:43.000Z</time>
      </trkpt>
      <trkpt lat="46.66411" lon="5.56889">
        <ele>302</ele>
        <time>2018-08-08T13:01:53.000Z</time>
      </trkpt>
      <trkpt lat="46.6641" lon="5.56884">
        <ele>302.3</ele>
        <time>2018-08-08T13:02:03.000Z</time>
      </trkpt>
      <trkpt lat="46.66401" lon="5.56873">
        <ele>303.8</ele>
        <time>2018-08-08T13:02:13.000Z</time>
      </trkpt>
      <trkpt lat="46.66391" lon="5.56856">
        <ele>304</ele>
        <time>2018-08-08T13:02:23.000Z</time>
      </trkpt>
      <trkpt lat="46.6638" lon="5.56844">
        <ele>306.1</ele>
        <time>2018-08-08T13:02:33.000Z</time>
      </trkpt>
      <trkpt lat="46.66371" lon="5.5684">
        <ele>307</ele>
        <time>2018-08-08T13:02:43.000Z</time>
      </trkpt>
      <trkpt lat="46.66347" lon="5.56842">
        <ele>313</ele>
        <time>2018-08-08T13:02:10.000Z</time>
      </trkpt>
      <trkpt lat="46.66343" lon="5.56841">
        <ele>312.9</ele>
        <time>2018-08-08T13:02:20.000Z</time>
      </trkpt>
      <trkpt lat="46.6633" lon="5.56843">
        <ele>315.2</ele>
        <time>2018-08-08T13:02:30.000Z</time>
      </trkpt>
      <trkpt lat="46.66322" lon="5.56843">
        <ele>315</ele>
        <time>2018-08-08T13:02:21.000Z</time>
      </trkpt>
      <trkpt lat="46.66317" lon="5.56842">
        <ele>317</ele>
        <time>2018-08-08T13:02:31.000Z</time>
      </trkpt>
      <trkpt lat="46.66289" lon="5.56821">
        <ele>321</ele>
        <time>2018-08-08T13:02:40.000Z</time>
      </trkpt>
      <trkpt lat="46.66281" lon="5.56814">
        <ele>321.8</ele>
        <time>2018-08-08T13:02:50.000Z</time>
      </trkpt>
      <trkpt lat="46.6628" lon="5.56812">
        <ele>321.9</ele>
        <time>2018-08-08T13:03:00.000Z</time>
      </trkpt>
      <trkpt lat="46.66275" lon="5.56808">
        <ele>322.7</ele>
        <time>2018-08-08T13:03:10.000Z</time>
      </trkpt>
      <trkpt lat="46.6627" lon="5.56806">
        <ele>325</ele>
        <time>2018-08-08T13:02:51.000Z</time>
      </trkpt>
      <trkpt lat="46.66264" lon="5.56801">
        <ele>324.9</ele>
        <time>2018-08-08T13:03:01.000Z</time>
      </trkpt>
      <trkpt lat="46.66256" lon="5.56799">
        <ele>326.5</ele>
        <time>2018-08-08T13:03:11.000Z</time>
      </trkpt>
      <trkpt lat="46.66252" lon="5.56795">
        <ele>326</ele>
        <time>2018-08-08T13:03:02.000Z</time>
      </trkpt>
      <trkpt lat="46.66247" lon="5.56793">
        <ele>328.3</ele>
        <time>2018-08-08T13:03:12.000Z</time>
      </trkpt>
      <trkpt lat="46.66244" lon="5.56793">
        <ele>329.1</ele>
        <time>2018-08-08T13:03:22.000Z</time>
      </trkpt>
      <trkpt lat="46.6623" lon="5.56784">
        <ele>334</ele>
        <time>2018-08-08T13:03:12.000Z</time>
      </trkpt>
      <trkpt lat="46.66221" lon="5.56769">
        <ele>334.3</ele>
        <time>2018-08-08T13:03:22.000Z</time>
      </trkpt>
      <trkpt lat="46.66216" lon="5.56752">
        <ele>334</ele>
        <time>2018-08-08T13:03:26.000Z</time>
      </trkpt>
      <trkpt lat="46.66216" lon="5.56746">
        <ele>335.4</ele>
        <time>2018-08-08T13:03:36.000Z</time>
      </trkpt>
      <trkpt lat="46.66223" lon="5.56734">
        <ele>333.8</ele>
        <time>2018-08-08T13:03:46.000Z</time>
      </trkpt>
      <trkpt lat="46.66224" lon="5.56728">
        <ele>334</ele>
        <time>2018-08-08T13:03:34.000Z</time>
      </trkpt>
      <trkpt lat="46.66223" lon="5.56716">
        <ele>335</ele>
        <time>2018-08-08T13:03:44.000Z</time>
      </trkpt>
      <trkpt lat="46.66225" lon="5.56715">
        <ele>334.7</ele>
        <time>2018-08-08T13:03:54.000Z</time>
      </trkpt>
      <trkpt lat="46.66224" lon="5.56709">
        <ele>336</ele>
        <time>2018-08-08T13:04:04.000Z</time>
      </trkpt>
      <trkpt lat="46.66224" lon="5.56703">
        <ele>338</ele>
        <time>2018-08-08T13:03:48.000Z</time>
      </trkpt>
      <trkpt lat="46.66223" lon="5.5669">
        <ele>339.6</ele>
        <time>2018-08-08T13:03:58.000Z</time>
      </trkpt>
      <trkpt lat="46.66218" lon="5.56678">
        <ele>346</ele>
        <time>2018-08-08T13:04:05.000Z</time>
      </trkpt>
      <trkpt lat="46.66216" lon="5.56676">
        <ele>343.9</ele>
        <time>2018-08-08T13:04:15.000Z</time>
      </trkpt>
      <trkpt lat="46.66215" lon="5.56674">
        <ele>344.5</ele>
        <time>2018-08-08T13:04:25.000Z</time>
      </trkpt>
      <trkpt lat="46.66215" lon="5.56672">
        <ele>344.9</ele>
        <time>2018-08-08T13:04:35.000Z</time>
      </trkpt>
      <trkpt lat="46.66216" lon="5.5667">
        <ele>345</ele>
        <time>2018-08-08T13:04:45.000Z</time>
      </trkpt>
      <trkpt lat="46.66215" lon="5.56663">
        <ele>346.1</ele>
        <time>2018-08-08T13:04:55.000Z</time>
      </trkpt>
      <trkpt lat="46.66218" lon="5.5666">
        <ele>345.7</ele>
        <time>2018-08-08T13:05:05.000Z</time>
      </trkpt>
      <trkpt lat="46.66217" lon="5.56658">
        <ele>346.1</ele>
        <time>2018-08-08T13:05:15.000Z</time>
      </trkpt>
      <trkpt lat="46.66212" lon="5.56652">
        <ele>347</ele>
        <time>2018-08-08T13:04:27.000Z</time>
      </trkpt>
      <trkpt lat="46.66207" lon="5.56647">
        <ele>349.2</ele>
        <time>2018-08-08T13:04:37.000Z</time>
      </trkpt>
      <trkpt lat="46.66208" lon="5.56647">
        <ele>349</ele>
        <time>2018-08-08T13:04:47.000Z</time>
      </trkpt>
      <trkpt lat="46.66205" lon="5.56648">
        <ele>349.5</ele>
        <time>2018-08-08T13:04:57.000Z</time>
      </trkpt>
      <trkpt lat="46.66199" lon="5.56646">
        <ele>350.8</ele>
        <time>2018-08-08T13:05:07.000Z</time>
      </trkpt>
      <trkpt lat="46.66196" lon="5.56647">
        <ele>353</ele>
        <time>2018-08-08T13:04:43.000Z</time>
      </trkpt>
      <trkpt lat="46.66189" lon="5.56644">
        <ele>353.1</ele>
        <time>2018-08-08T13:04:53.000Z</time>
      </trkpt>
      <trkpt lat="46.66184" lon="5.56639">
        <ele>354.6</ele>
        <time>2018-08-08T13:05:03.000Z</time>
      </trkpt>
      <trkpt lat="46.66176" lon="5.56642">
        <ele>357</ele>
        <time>2018-08-08T13:05:11.000Z</time>
      </trkpt>
      <trkpt lat="46.66168" lon="5.56641">
        <ele>358.4</ele>
        <time>2018-08-08T13:05:21.000Z</time>
      </trkpt>
      <trkpt lat="46.66161" lon="5.56642">
        <ele>359.7</ele>
        <time>2018-08-08T13:05:31.000Z</time>
      </trkpt>
      <trkpt lat="46.66148" lon="5.56642">
        <ele>363</ele>
        <time>2018-08-08T13:05:41.000Z</time>
      </trkpt>
      <trkpt lat="46.66142" lon="5.5664">
        <ele>363.4</ele>
        <time>2018-08-08T13:05:51.000Z</time>
      </trkpt>
      <trkpt lat="46.66131" lon="5.56633">
        <ele>367</ele>
        <time>2018-08-08T13:06:01.000Z</time>
      </trkpt>
      <trkpt lat="46.66121" lon="5.56629">
        <ele>371</ele>
        <time>2018-08-08T13:05:56.000Z</time>
      </trkpt>
      <trkpt lat="46.66115" lon="5.56618">
        <ele>372.6</ele>
        <time>2018-08-08T13:06:06.000Z</time>
      </trkpt>
      <trkpt lat="46.66109" lon="5.56612">
        <ele>374.5</ele>
        <time>2018-08-08T13:06:16.000Z</time>
      </trkpt>
      <trkpt lat="46.66105" lon="5.56609">
        <ele>377</ele>
        <time>2018-08-08T13:06:18.000Z</time>
      </trkpt>
      <trkpt lat="46.66102" lon="5.56605">
        <ele>377.1</ele>
        <time>2018-08-08T13:06:28.000Z</time>
      </trkpt>
      <trkpt lat="46.66101" lon="5.56599">
        <ele>377.8</ele>
        <time>2018-08-08T13:06:38.000Z</time>
      </trkpt>
      <trkpt lat="46.66102" lon="5.56587">
        <ele>378.4</ele>
        <time>2018-08-08T13:06:48.000Z</time>
      </trkpt>
      <trkpt lat="46.66112" lon="5.56562">
        <ele>378</ele>
        <time>2018-08-08T13:06:35.000Z</time>
      </trkpt>
      <trkpt lat="46.66118" lon="5.56536">
        <ele>380</ele>
        <time>2018-08-08T13:06:43.000Z</time>
      </trkpt>
      <trkpt lat="46.66117" lon="5.56529">
        <ele>378.2</ele>
        <time>2018-08-08T13:06:53.000Z</time>
      </trkpt>
      <trkpt lat="46.66112" lon="5.56525">
        <ele>380.1</ele>
        <time>2018-08-08T13:07:03.000Z</time>
      </trkpt>
      <trkpt lat="46.66107" lon="5.56523">
        <ele>382.1</ele>
        <time>2018-08-08T13:07:13.000Z</time>
      </trkpt>
      <trkpt lat="46.66093" lon="5.56529">
        <ele>387</ele>
        <time>2018-08-08T13:06:59.000Z</time>
      </trkpt>
      <trkpt lat="46.66084" lon="5.5654">
        <ele>388.5</ele>
        <time>2018-08-08T13:07:09.000Z</time>
      </trkpt>
      <trkpt lat="46.6608" lon="5.56548">
        <ele>392</ele>
        <time>2018-08-08T13:07:29.000Z</time>
      </trkpt>
      <trkpt lat="46.66065" lon="5.56573">
        <ele>392</ele>
        <time>2018-08-08T13:07:24.000Z</time>
      </trkpt>
      <trkpt lat="46.66058" lon="5.56605">
        <ele>393</ele>
        <time>2018-08-08T13:07:40.000Z</time>
      </trkpt>
      <trkpt lat="46.66041" lon="5.56629">
        <ele>393</ele>
        <time>2018-08-08T13:07:44.000Z</time>
      </trkpt>
      <trkpt lat="46.66027" lon="5.56647">
        <ele>396</ele>
        <time>2018-08-08T13:07:54.000Z</time>
      </trkpt>
      <trkpt lat="46.66021" lon="5.56658">
        <ele>397.2</ele>
        <time>2018-08-08T13:08:04.000Z</time>
      </trkpt>
      <trkpt lat="46.66016" lon="5.5668">
        <ele>398</ele>
        <time>2018-08-08T13:08:07.000Z</time>
      </trkpt>
      <trkpt lat="46.66016" lon="5.56686">
        <ele>398.1</ele>
        <time>2018-08-08T13:08:17.000Z</time>
      </trkpt>
      <trkpt lat="46.66018" lon="5.56696">
        <ele>397.1</ele>
        <time>2018-08-08T13:08:27.000Z</time>
      </trkpt>
      <trkpt lat="46.66017" lon="5.5671">
        <ele>402</ele>
        <time>2018-08-08T13:08:20.000Z</time>
      </trkpt>
      <trkpt lat="46.66013" lon="5.56724">
        <ele>403.1</ele>
        <time>2018-08-08T13:08:30.000Z</time>
      </trkpt>
      <trkpt lat="46.6601" lon="5.56732">
        <ele>405.1</ele>
        <time>2018-08-08T13:08:40.000Z</time>
      </trkpt>
      <trkpt lat="46.66008" lon="5.56742">
        <ele>411</ele>
        <time>2018-08-08T13:08:35.000Z</time>
      </trkpt>
      <trkpt lat="46.66003" lon="5.56762">
        <ele>408.6</ele>
        <time>2018-08-08T13:08:45.000Z</time>
      </trkpt>
      <trkpt lat="46.65992" lon="5.56779">
        <ele>413</ele>
        <time>2018-08-08T13:08:55.000Z</time>
      </trkpt>
      <trkpt lat="46.65986" lon="5.56783">
        <ele>412.8</ele>
        <time>2018-08-08T13:09:05.000Z</time>
      </trkpt>
      <trkpt lat="46.65981" lon="5.56792">
        <ele>414</ele>
        <time>2018-08-08T13:09:15.000Z</time>
      </trkpt>
      <trkpt lat="46.65983" lon="5.56812">
        <ele>413</ele>
        <time>2018-08-08T13:09:11.000Z</time>
      </trkpt>
      <trkpt lat="46.65995" lon="5.5684">
        <ele>415</ele>
        <time>2018-08-08T13:09:17.000Z</time>
      </trkpt>
      <trkpt lat="46.66004" lon="5.56858">
        <ele>414.6</ele>
        <time>2018-08-08T13:09:27.000Z</time>
      </trkpt>
      <trkpt lat="46.66001" lon="5.56872">
        <ele>417</ele>
        <time>2018-08-08T13:09:30.000Z</time>
      </trkpt>
      <trkpt lat="46.66001" lon="5.5688">
        <ele>418.6</ele>
        <time>2018-08-08T13:09:40.000Z</time>
      </trkpt>
      <trkpt lat="46.66003" lon="5.56895">
        <ele>419.8</ele>
        <time>2018-08-08T13:09:50.000Z</time>
      </trkpt>
      <trkpt lat="46.65999" lon="5.56909">
        <ele>421</ele>
        <time>2018-08-08T13:09:43.000Z</time>
      </trkpt>
      <trkpt lat="46.65995" lon="5.56911">
        <ele>421</ele>
        <time>2018-08-08T13:09:53.000Z</time>
      </trkpt>
      <trkpt lat="46.65985" lon="5.5691">
        <ele>421.4</ele>
        <time>2018-08-08T13:10:03.000Z</time>
      </trkpt>
      <trkpt lat="46.65964" lon="5.56932">
        <ele>422</ele>
        <time>2018-08-08T13:10:13.000Z</time>
      </trkpt>
      <trkpt lat="46.6594" lon="5.56893">
        <ele>423</ele>
        <time>2018-08-08T13:10:10.000Z</time>
      </trkpt>
      <trkpt lat="46.65925" lon="5.56883">
        <ele>423.6</ele>
        <time>2018-08-08T13:10:20.000Z</time>
      </trkpt>
      <trkpt lat="46.65905" lon="5.56894">
        <ele>423</ele>
        <time>2018-08-08T13:10:35.000Z</time>
      </trkpt>
      <trkpt lat="46.6591" lon="5.56914">
        <ele>424.2</ele>
        <time>2018-08-08T13:10:45.000Z</time>
      </trkpt>
      <trkpt lat="46.65933" lon="5.56959">
        <ele>423</ele>
        <time>2018-08-08T13:10:45.000Z</time>
      </trkpt>
      <trkpt lat="46.65932" lon="5.5698">
        <ele>424.2</ele>
        <time>2018-08-08T13:10:55.000Z</time>
      </trkpt>
      <trkpt lat="46.65931" lon="5.56988">
        <ele>425</ele>
        <time>2018-08-08T13:10:54.000Z</time>
      </trkpt>
      <trkpt lat="46.65936" lon="5.57006">
        <ele>424.2</ele>
        <time>2018-08-08T13:11:04.000Z</time>
      </trkpt>
      <trkpt lat="46.65921" lon="5.57011">
        <ele>426</ele>
        <time>2018-08-08T13:11:05.000Z</time>
      </trkpt>
      <trkpt lat="46.65906" lon="5.56996">
        <ele>426.2</ele>
        <time>2018-08-08T13:11:15.000Z</time>
      </trkpt>
      <trkpt lat="46.65898" lon="5.57">
        <ele>426</ele>
        <time>2018-08-08T13:11:22.000Z</time>
      </trkpt>
      <trkpt lat="46.65896" lon="5.57003">
        <ele>426.6</ele>
        <time>2018-08-08T13:11:32.000Z</time>
      </trkpt>
      <trkpt lat="46.65896" lon="5.57007">
        <ele>426.5</ele>
        <time>2018-08-08T13:11:42.000Z</time>
      </trkpt>
      <trkpt lat="46.65891" lon="5.57024">
        <ele>426.1</ele>
        <time>2018-08-08T13:11:52.000Z</time>
      </trkpt>
      <trkpt lat="46.65887" lon="5.57042">
        <ele>425</ele>
        <time>2018-08-08T13:11:39.000Z</time>
      </trkpt>
      <trkpt lat="46.65874" lon="5.57061">
        <ele>423.1</ele>
        <time>2018-08-08T13:11:49.000Z</time>
      </trkpt>
      <trkpt lat="46.65854" lon="5.57062">
        <ele>425</ele>
        <time>2018-08-08T13:11:45.000Z</time>
      </trkpt>
      <trkpt lat="46.65834" lon="5.5707">
        <ele>425</ele>
        <time>2018-08-08T13:11:52.000Z</time>
      </trkpt>
      <trkpt lat="46.65812" lon="5.57083">
        <ele>425</ele>
        <time>2018-08-08T13:12:00.000Z</time>
      </trkpt>
      <trkpt lat="46.65802" lon="5.5709">
        <ele>425.6</ele>
        <time>2018-08-08T13:12:10.000Z</time>
      </trkpt>
      <trkpt lat="46.65778" lon="5.57101">
        <ele>427</ele>
        <time>2018-08-08T13:12:13.000Z</time>
      </trkpt>
      <trkpt lat="46.6577" lon="5.57104">
        <ele>427.5</ele>
        <time>2018-08-08T13:12:23.000Z</time>
      </trkpt>
      <trkpt lat="46.65723" lon="5.57133">
        <ele>427</ele>
        <time>2018-08-08T13:12:41.000Z</time>
      </trkpt>
      <trkpt lat="46.65703" lon="5.5713">
        <ele>427</ele>
        <time>2018-08-08T13:12:42.000Z</time>
      </trkpt>
      <trkpt lat="46.65686" lon="5.57131">
        <ele>426.8</ele>
        <time>2018-08-08T13:12:52.000Z</time>
      </trkpt>
      <trkpt lat="46.65685" lon="5.57138">
        <ele>427</ele>
        <time>2018-08-08T13:12:50.000Z</time>
      </trkpt>
      <trkpt lat="46.65686" lon="5.57168">
        <ele>427</ele>
        <time>2018-08-08T13:12:57.000Z</time>
      </trkpt>
      <trkpt lat="46.65685" lon="5.57221">
        <ele>424</ele>
        <time>2018-08-08T13:13:09.000Z</time>
      </trkpt>
      <trkpt lat="46.65683" lon="5.5725">
        <ele>425</ele>
        <time>2018-08-08T13:13:16.000Z</time>
      </trkpt>
      <trkpt lat="46.65678" lon="5.57275">
        <ele>423.6</ele>
        <time>2018-08-08T13:13:26.000Z</time>
      </trkpt>
      <trkpt lat="46.65665" lon="5.57295">
        <ele>427</ele>
        <time>2018-08-08T13:13:29.000Z</time>
      </trkpt>
      <trkpt lat="46.65644" lon="5.57304">
        <ele>428</ele>
        <time>2018-08-08T13:13:38.000Z</time>
      </trkpt>
      <trkpt lat="46.65637" lon="5.57303">
        <ele>428.9</ele>
        <time>2018-08-08T13:13:48.000Z</time>
      </trkpt>
      <trkpt lat="46.65642" lon="5.57345">
        <ele>432</ele>
        <time>2018-08-08T13:13:52.000Z</time>
      </trkpt>
      <trkpt lat="46.65646" lon="5.57354">
        <ele>434.2</ele>
        <time>2018-08-08T13:14:02.000Z</time>
      </trkpt>
      <trkpt lat="46.65656" lon="5.57367">
        <ele>434</ele>
        <time>2018-08-08T13:14:02.000Z</time>
      </trkpt>
      <trkpt lat="46.65667" lon="5.57384">
        <ele>434.4</ele>
        <time>2018-08-08T13:14:12.000Z</time>
      </trkpt>
      <trkpt lat="46.65672" lon="5.57406">
        <ele>435</ele>
        <time>2018-08-08T13:14:18.000Z</time>
      </trkpt>
      <trkpt lat="46.65674" lon="5.57435">
        <ele>435</ele>
        <time>2018-08-08T13:14:27.000Z</time>
      </trkpt>
      <trkpt lat="46.65676" lon="5.57447">
        <ele>433.6</ele>
        <time>2018-08-08T13:14:37.000Z</time>
      </trkpt>
      <trkpt lat="46.65677" lon="5.57467">
        <ele>436</ele>
        <time>2018-08-08T13:14:37.000Z</time>
      </trkpt>
      <trkpt lat="46.65674" lon="5.57482">
        <ele>434</ele>
        <time>2018-08-08T13:14:47.000Z</time>
      </trkpt>
      <trkpt lat="46.65666" lon="5.57498">
        <ele>436</ele>
        <time>2018-08-08T13:14:49.000Z</time>
      </trkpt>
      <trkpt lat="46.65662" lon="5.57527">
        <ele>437</ele>
        <time>2018-08-08T13:14:57.000Z</time>
      </trkpt>
      <trkpt lat="46.65653" lon="5.57541">
        <ele>438.5</ele>
        <time>2018-08-08T13:15:07.000Z</time>
      </trkpt>
      <trkpt lat="46.65633" lon="5.5758">
        <ele>444</ele>
        <time>2018-08-08T13:15:17.000Z</time>
      </trkpt>
      <trkpt lat="46.65617" lon="5.576">
        <ele>443</ele>
        <time>2018-08-08T13:15:24.000Z</time>
      </trkpt>
      <trkpt lat="46.65609" lon="5.57621">
        <ele>445.4</ele>
        <time>2018-08-08T13:15:34.000Z</time>
      </trkpt>
      <trkpt lat="46.65603" lon="5.57642">
        <ele>443</ele>
        <time>2018-08-08T13:15:33.000Z</time>
      </trkpt>
      <trkpt lat="46.65597" lon="5.57693">
        <ele>440</ele>
        <time>2018-08-08T13:15:44.000Z</time>
      </trkpt>
      <trkpt lat="46.65584" lon="5.57724">
        <ele>440</ele>
        <time>2018-08-08T13:15:54.000Z</time>
      </trkpt>
      <trkpt lat="46.6557" lon="5.57758">
        <ele>440</ele>
        <time>2018-08-08T13:16:04.000Z</time>
      </trkpt>
      <trkpt lat="46.65542" lon="5.57797">
        <ele>442</ele>
        <time>2018-08-08T13:16:18.000Z</time>
      </trkpt>
      <trkpt lat="46.65541" lon="5.57801">
        <ele>442.9</ele>
        <time>2018-08-08T13:16:28.000Z</time>
      </trkpt>
      <trkpt lat="46.65538" lon="5.57804">
        <ele>443.5</ele>
        <time>2018-08-08T13:16:38.000Z</time>
      </trkpt>
      <trkpt lat="46.65531" lon="5.57816">
        <ele>444.1</ele>
        <time>2018-08-08T13:16:48.000Z</time>
      </trkpt>
      <trkpt lat="46.65517" lon="5.57844">
        <ele>447</ele>
        <time>2018-08-08T13:16:36.000Z</time>
      </trkpt>
      <trkpt lat="46.65508" lon="5.5787">
        <ele>448</ele>
        <time>2018-08-08T13:16:46.000Z</time>
      </trkpt>
      <trkpt lat="46.65505" lon="5.57875">
        <ele>447</ele>
        <time>2018-08-08T13:16:56.000Z</time>
      </trkpt>
      <trkpt lat="46.65491" lon="5.57887">
        <ele>450</ele>
        <time>2018-08-08T13:16:56.000Z</time>
      </trkpt>
      <trkpt lat="46.65485" lon="5.57903">
        <ele>451.3</ele>
        <time>2018-08-08T13:17:06.000Z</time>
      </trkpt>
      <trkpt lat="46.65472" lon="5.57925">
        <ele>453</ele>
        <time>2018-08-08T13:17:08.000Z</time>
      </trkpt>
      <trkpt lat="46.65454" lon="5.57946">
        <ele>457</ele>
        <time>2018-08-08T13:17:17.000Z</time>
      </trkpt>
      <trkpt lat="46.65447" lon="5.57952">
        <ele>457.6</ele>
        <time>2018-08-08T13:17:27.000Z</time>
      </trkpt>
      <trkpt lat="46.65433" lon="5.57971">
        <ele>459</ele>
        <time>2018-08-08T13:17:26.000Z</time>
      </trkpt>
      <trkpt lat="46.65429" lon="5.57978">
        <ele>459.3</ele>
        <time>2018-08-08T13:17:36.000Z</time>
      </trkpt>
      <trkpt lat="46.65422" lon="5.57986">
        <ele>459.7</ele>
        <time>2018-08-08T13:17:46.000Z</time>
      </trkpt>
      <trkpt lat="46.65419" lon="5.57987">
        <ele>460.4</ele>
        <time>2018-08-08T13:17:56.000Z</time>
      </trkpt>
      <trkpt lat="46.65412" lon="5.57999">
        <ele>461</ele>
        <time>2018-08-08T13:18:04.000Z</time>
      </trkpt>
      <trkpt lat="46.65407" lon="5.58002">
        <ele>461.9</ele>
        <time>2018-08-08T13:18:14.000Z</time>
      </trkpt>
      <trkpt lat="46.65405" lon="5.58002">
        <ele>463</ele>
        <time>2018-08-08T13:18:24.000Z</time>
      </trkpt>
      <trkpt lat="46.65403" lon="5.58009">
        <ele>461.3</ele>
        <time>2018-08-08T13:18:34.000Z</time>
      </trkpt>
      <trkpt lat="46.65402" lon="5.58015">
        <ele>459.4</ele>
        <time>2018-08-08T13:18:44.000Z</time>
      </trkpt>
      <trkpt lat="46.654" lon="5.58018">
        <ele>467</ele>
        <time>2018-08-08T13:18:34.000Z</time>
      </trkpt>
      <trkpt lat="46.65399" lon="5.58019">
        <ele>458.7</ele>
        <time>2018-08-08T13:18:44.000Z</time>
      </trkpt>
      <trkpt lat="46.65393" lon="5.58019">
        <ele>460.7</ele>
        <time>2018-08-08T13:18:54.000Z</time>
      </trkpt>
      <trkpt lat="46.65392" lon="5.58017">
        <ele>462.1</ele>
        <time>2018-08-08T13:19:04.000Z</time>
      </trkpt>
      <trkpt lat="46.65389" lon="5.58006">
        <ele>469.5</ele>
        <time>2018-08-08T13:19:14.000Z</time>
      </trkpt>
      <trkpt lat="46.65389" lon="5.57996">
        <ele>480</ele>
        <time>2018-08-08T13:19:00.000Z</time>
      </trkpt>
      <trkpt lat="46.6539" lon="5.57996">
        <ele>473.9</ele>
        <time>2018-08-08T13:19:10.000Z</time>
      </trkpt>
      <trkpt lat="46.65393" lon="5.57989">
        <ele>474.9</ele>
        <time>2018-08-08T13:19:20.000Z</time>
      </trkpt>
      <trkpt lat="46.6539" lon="5.57987">
        <ele>477.5</ele>
        <time>2018-08-08T13:19:30.000Z</time>
      </trkpt>
      <trkpt lat="46.65385" lon="5.57992">
        <ele>477.6</ele>
        <time>2018-08-08T13:19:40.000Z</time>
      </trkpt>
      <trkpt lat="46.65361" lon="5.57997">
        <ele>487</ele>
        <time>2018-08-08T13:19:17.000Z</time>
      </trkpt>
      <trkpt lat="46.65349" lon="5.58006">
        <ele>486.6</ele>
        <time>2018-08-08T13:19:27.000Z</time>
      </trkpt>
      <trkpt lat="46.65336" lon="5.58018">
        <ele>490</ele>
        <time>2018-08-08T13:19:34.000Z</time>
      </trkpt>
      <trkpt lat="46.65325" lon="5.5803">
        <ele>488.8</ele>
        <time>2018-08-08T13:19:44.000Z</time>
      </trkpt>
      <trkpt lat="46.65318" lon="5.58045">
        <ele>493</ele>
        <time>2018-08-08T13:19:51.000Z</time>
      </trkpt>
      <trkpt lat="46.65316" lon="5.58055">
        <ele>488.1</ele>
        <time>2018-08-08T13:20:01.000Z</time>
      </trkpt>
      <trkpt lat="46.65313" lon="5.58063">
        <ele>488.5</ele>
        <time>2018-08-08T13:20:11.000Z</time>
      </trkpt>
      <trkpt lat="46.65304" lon="5.58067">
        <ele>495</ele>
        <time>2018-08-08T13:20:06.000Z</time>
      </trkpt>
      <trkpt lat="46.653" lon="5.58073">
        <ele>493.3</ele>
        <time>2018-08-08T13:20:16.000Z</time>
      </trkpt>
      <trkpt lat="46.65295" lon="5.58084">
        <ele>493.6</ele>
        <time>2018-08-08T13:20:26.000Z</time>
      </trkpt>
      <trkpt lat="46.65289" lon="5.58109">
        <ele>497</ele>
        <time>2018-08-08T13:20:17.000Z</time>
      </trkpt>
      <trkpt lat="46.65277" lon="5.58148">
        <ele>499</ele>
        <time>2018-08-08T13:20:37.000Z</time>
      </trkpt>
      <trkpt lat="46.6527" lon="5.5816">
        <ele>497.4</ele>
        <time>2018-08-08T13:20:47.000Z</time>
      </trkpt>
      <trkpt lat="46.65264" lon="5.5818">
        <ele>500</ele>
        <time>2018-08-08T13:20:48.000Z</time>
      </trkpt>
      <trkpt lat="46.6526" lon="5.5819">
        <ele>498.5</ele>
        <time>2018-08-08T13:20:58.000Z</time>
      </trkpt>
      <trkpt lat="46.65256" lon="5.58206">
        <ele>502</ele>
        <time>2018-08-08T13:20:59.000Z</time>
      </trkpt>
      <trkpt lat="46.65249" lon="5.58216">
        <ele>502.4</ele>
        <time>2018-08-08T13:21:09.000Z</time>
      </trkpt>
      <trkpt lat="46.65239" lon="5.58226">
        <ele>505</ele>
        <time>2018-08-08T13:21:10.000Z</time>
      </trkpt>
      <trkpt lat="46.65226" lon="5.58243">
        <ele>505.6</ele>
        <time>2018-08-08T13:21:20.000Z</time>
      </trkpt>
      <trkpt lat="46.65193" lon="5.58302">
        <ele>508</ele>
        <time>2018-08-08T13:21:33.000Z</time>
      </trkpt>
      <trkpt lat="46.65185" lon="5.58327">
        <ele>509</ele>
        <time>2018-08-08T13:21:40.000Z</time>
      </trkpt>
      <trkpt lat="46.65181" lon="5.5835">
        <ele>503.3</ele>
        <time>2018-08-08T13:21:50.000Z</time>
      </trkpt>
      <trkpt lat="46.65169" lon="5.58373">
        <ele>509</ele>
        <time>2018-08-08T13:21:54.000Z</time>
      </trkpt>
      <trkpt lat="46.65159" lon="5.58397">
        <ele>510</ele>
        <time>2018-08-08T13:22:01.000Z</time>
      </trkpt>
      <trkpt lat="46.65148" lon="5.58421">
        <ele>510</ele>
        <time>2018-08-08T13:22:09.000Z</time>
      </trkpt>
      <trkpt lat="46.65121" lon="5.58463">
        <ele>510</ele>
        <time>2018-08-08T13:22:25.000Z</time>
      </trkpt>
      <trkpt lat="46.65099" lon="5.5851">
        <ele>508</ele>
        <time>2018-08-08T13:22:39.000Z</time>
      </trkpt>
      <trkpt lat="46.65098" lon="5.5853">
        <ele>502.5</ele>
        <time>2018-08-08T13:22:49.000Z</time>
      </trkpt>
      <trkpt lat="46.65086" lon="5.58578">
        <ele>506</ele>
        <time>2018-08-08T13:22:56.000Z</time>
      </trkpt>
      <trkpt lat="46.65085" lon="5.58586">
        <ele>500.8</ele>
        <time>2018-08-08T13:23:06.000Z</time>
      </trkpt>
      <trkpt lat="46.65088" lon="5.58616">
        <ele>498</ele>
        <time>2018-08-08T13:23:10.000Z</time>
      </trkpt>
      <trkpt lat="46.65089" lon="5.58622">
        <ele>491</ele>
        <time>2018-08-08T13:23:20.000Z</time>
      </trkpt>
      <trkpt lat="46.65088" lon="5.58641">
        <ele>490</ele>
        <time>2018-08-08T13:23:30.000Z</time>
      </trkpt>
      <trkpt lat="46.65083" lon="5.58664">
        <ele>492</ele>
        <time>2018-08-08T13:23:23.000Z</time>
      </trkpt>
      <trkpt lat="46.65086" lon="5.58686">
        <ele>488.2</ele>
        <time>2018-08-08T13:23:33.000Z</time>
      </trkpt>
      <trkpt lat="46.65086" lon="5.587">
        <ele>488</ele>
        <time>2018-08-08T13:23:34.000Z</time>
      </trkpt>
      <trkpt lat="46.65091" lon="5.58729">
        <ele>488</ele>
        <time>2018-08-08T13:23:42.000Z</time>
      </trkpt>
      <trkpt lat="46.65108" lon="5.58773">
        <ele>490</ele>
        <time>2018-08-08T13:23:55.000Z</time>
      </trkpt>
      <trkpt lat="46.65115" lon="5.58788">
        <ele>490.5</ele>
        <time>2018-08-08T13:24:05.000Z</time>
      </trkpt>
      <trkpt lat="46.65122" lon="5.58796">
        <ele>490</ele>
        <time>2018-08-08T13:24:03.000Z</time>
      </trkpt>
      <trkpt lat="46.65124" lon="5.58801">
        <ele>491.1</ele>
        <time>2018-08-08T13:24:13.000Z</time>
      </trkpt>
      <trkpt lat="46.65133" lon="5.58831">
        <ele>494</ele>
        <time>2018-08-08T13:24:15.000Z</time>
      </trkpt>
      <trkpt lat="46.65133" lon="5.58841">
        <ele>494</ele>
        <time>2018-08-08T13:24:25.000Z</time>
      </trkpt>
      <trkpt lat="46.65119" lon="5.58864">
        <ele>495</ele>
        <time>2018-08-08T13:24:29.000Z</time>
      </trkpt>
      <trkpt lat="46.65118" lon="5.58873">
        <ele>493.3</ele>
        <time>2018-08-08T13:24:39.000Z</time>
      </trkpt>
      <trkpt lat="46.65103" lon="5.58907">
        <ele>495</ele>
        <time>2018-08-08T13:24:42.000Z</time>
      </trkpt>
      <trkpt lat="46.651" lon="5.58916">
        <ele>492.5</ele>
        <time>2018-08-08T13:24:52.000Z</time>
      </trkpt>
      <trkpt lat="46.65092" lon="5.58935">
        <ele>495</ele>
        <time>2018-08-08T13:24:48.000Z</time>
      </trkpt>
      <trkpt lat="46.65086" lon="5.58954">
        <ele>494.2</ele>
        <time>2018-08-08T13:24:58.000Z</time>
      </trkpt>
      <trkpt lat="46.65084" lon="5.58969">
        <ele>495</ele>
        <time>2018-08-08T13:24:57.000Z</time>
      </trkpt>
      <trkpt lat="46.65082" lon="5.58976">
        <ele>496.1</ele>
        <time>2018-08-08T13:25:07.000Z</time>
      </trkpt>
      <trkpt lat="46.65083" lon="5.59004">
        <ele>494</ele>
        <time>2018-08-08T13:25:08.000Z</time>
      </trkpt>
      <trkpt lat="46.65091" lon="5.59026">
        <ele>494.4</ele>
        <time>2018-08-08T13:25:18.000Z</time>
      </trkpt>
      <trkpt lat="46.65103" lon="5.59046">
        <ele>497</ele>
        <time>2018-08-08T13:25:22.000Z</time>
      </trkpt>
      <trkpt lat="46.6512" lon="5.59092">
        <ele>501</ele>
        <time>2018-08-08T13:25:42.000Z</time>
      </trkpt>
      <trkpt lat="46.65127" lon="5.59109">
        <ele>500.8</ele>
        <time>2018-08-08T13:25:52.000Z</time>
      </trkpt>
      <trkpt lat="46.65134" lon="5.59128">
        <ele>502</ele>
        <time>2018-08-08T13:25:55.000Z</time>
      </trkpt>
      <trkpt lat="46.65142" lon="5.59155">
        <ele>503</ele>
        <time>2018-08-08T13:25:59.000Z</time>
      </trkpt>
      <trkpt lat="46.65136" lon="5.59182">
        <ele>504</ele>
        <time>2018-08-08T13:26:09.000Z</time>
      </trkpt>
      <trkpt lat="46.65134" lon="5.59187">
        <ele>503.3</ele>
        <time>2018-08-08T13:26:19.000Z</time>
      </trkpt>
      <trkpt lat="46.65133" lon="5.59193">
        <ele>503.1</ele>
        <time>2018-08-08T13:26:29.000Z</time>
      </trkpt>
      <trkpt lat="46.65133" lon="5.59205">
        <ele>500.7</ele>
        <time>2018-08-08T13:26:39.000Z</time>
      </trkpt>
      <trkpt lat="46.65122" lon="5.59225">
        <ele>505</ele>
        <time>2018-08-08T13:26:29.000Z</time>
      </trkpt>
      <trkpt lat="46.6511" lon="5.59241">
        <ele>508.1</ele>
        <time>2018-08-08T13:26:39.000Z</time>
      </trkpt>
      <trkpt lat="46.65093" lon="5.59255">
        <ele>511</ele>
        <time>2018-08-08T13:26:39.000Z</time>
      </trkpt>
      <trkpt lat="46.65077" lon="5.59263">
        <ele>511.6</ele>
        <time>2018-08-08T13:26:49.000Z</time>
      </trkpt>
      <trkpt lat="46.6506" lon="5.59281">
        <ele>511</ele>
        <time>2018-08-08T13:26:55.000Z</time>
      </trkpt>
      <trkpt lat="46.65045" lon="5.59306">
        <ele>512</ele>
        <time>2018-08-08T13:27:02.000Z</time>
      </trkpt>
      <trkpt lat="46.6503" lon="5.59328">
        <ele>513</ele>
        <time>2018-08-08T13:27:09.000Z</time>
      </trkpt>
      <trkpt lat="46.65007" lon="5.59345">
        <ele>513</ele>
        <time>2018-08-08T13:27:19.000Z</time>
      </trkpt>
      <trkpt lat="46.64977" lon="5.59368">
        <ele>513</ele>
        <time>2018-08-08T13:27:31.000Z</time>
      </trkpt>
      <trkpt lat="46.64942" lon="5.59379">
        <ele>514</ele>
        <time>2018-08-08T13:27:44.000Z</time>
      </trkpt>
      <trkpt lat="46.64921" lon="5.59389">
        <ele>514</ele>
        <time>2018-08-08T13:27:52.000Z</time>
      </trkpt>
      <trkpt lat="46.6488" lon="5.5939">
        <ele>516</ele>
        <time>2018-08-08T13:28:18.000Z</time>
      </trkpt>
      <trkpt lat="46.6487" lon="5.59393">
        <ele>517.9</ele>
        <time>2018-08-08T13:28:28.000Z</time>
      </trkpt>
      <trkpt lat="46.64853" lon="5.59412">
        <ele>519</ele>
        <time>2018-08-08T13:28:23.000Z</time>
      </trkpt>
      <trkpt lat="46.64839" lon="5.59426">
        <ele>517.3</ele>
        <time>2018-08-08T13:28:33.000Z</time>
      </trkpt>
      <trkpt lat="46.64823" lon="5.59439">
        <ele>519</ele>
        <time>2018-08-08T13:28:39.000Z</time>
      </trkpt>
      <trkpt lat="46.64798" lon="5.59453">
        <ele>519</ele>
        <time>2018-08-08T13:28:49.000Z</time>
      </trkpt>
      <trkpt lat="46.64779" lon="5.59457">
        <ele>520</ele>
        <time>2018-08-08T13:28:57.000Z</time>
      </trkpt>
      <trkpt lat="46.64766" lon="5.59457">
        <ele>519</ele>
        <time>2018-08-08T13:29:07.000Z</time>
      </trkpt>
      <trkpt lat="46.64755" lon="5.59462">
        <ele>520</ele>
        <time>2018-08-08T13:29:09.000Z</time>
      </trkpt>
      <trkpt lat="46.64736" lon="5.59465">
        <ele>521</ele>
        <time>2018-08-08T13:29:17.000Z</time>
      </trkpt>
      <trkpt lat="46.64716" lon="5.5947">
        <ele>521</ele>
        <time>2018-08-08T13:29:24.000Z</time>
      </trkpt>
      <trkpt lat="46.64708" lon="5.59479">
        <ele>519.3</ele>
        <time>2018-08-08T13:29:34.000Z</time>
      </trkpt>
      <trkpt lat="46.64695" lon="5.59484">
        <ele>521</ele>
        <time>2018-08-08T13:29:35.000Z</time>
      </trkpt>
      <trkpt lat="46.64682" lon="5.59485">
        <ele>519.1</ele>
        <time>2018-08-08T13:29:45.000Z</time>
      </trkpt>
      <trkpt lat="46.6467" lon="5.59482">
        <ele>523</ele>
        <time>2018-08-08T13:29:46.000Z</time>
      </trkpt>
      <trkpt lat="46.64667" lon="5.5948">
        <ele>521.3</ele>
        <time>2018-08-08T13:29:56.000Z</time>
      </trkpt>
      <trkpt lat="46.64631" lon="5.59474">
        <ele>528</ele>
        <time>2018-08-08T13:30:03.000Z</time>
      </trkpt>
      <trkpt lat="46.64618" lon="5.59475">
        <ele>528</ele>
        <time>2018-08-08T13:30:13.000Z</time>
      </trkpt>
      <trkpt lat="46.64607" lon="5.59478">
        <ele>529</ele>
        <time>2018-08-08T13:30:13.000Z</time>
      </trkpt>
      <trkpt lat="46.64588" lon="5.59491">
        <ele>530</ele>
        <time>2018-08-08T13:30:21.000Z</time>
      </trkpt>
      <trkpt lat="46.6457" lon="5.59501">
        <ele>530</ele>
        <time>2018-08-08T13:30:28.000Z</time>
      </trkpt>
      <trkpt lat="46.64552" lon="5.59508">
        <ele>530</ele>
        <time>2018-08-08T13:30:36.000Z</time>
      </trkpt>
      <trkpt lat="46.64532" lon="5.59518">
        <ele>531</ele>
        <time>2018-08-08T13:30:45.000Z</time>
      </trkpt>
      <trkpt lat="46.64529" lon="5.59523">
        <ele>529.4</ele>
        <time>2018-08-08T13:30:55.000Z</time>
      </trkpt>
      <trkpt lat="46.6452" lon="5.59529">
        <ele>528.9</ele>
        <time>2018-08-08T13:31:05.000Z</time>
      </trkpt>
      <trkpt lat="46.64508" lon="5.59527">
        <ele>533</ele>
        <time>2018-08-08T13:30:56.000Z</time>
      </trkpt>
      <trkpt lat="46.6449" lon="5.59517">
        <ele>534</ele>
        <time>2018-08-08T13:31:04.000Z</time>
      </trkpt>
      <trkpt lat="46.64489" lon="5.59514">
        <ele>533</ele>
        <time>2018-08-08T13:31:14.000Z</time>
      </trkpt>
      <trkpt lat="46.64479" lon="5.5951">
        <ele>533.8</ele>
        <time>2018-08-08T13:31:24.000Z</time>
      </trkpt>
      <trkpt lat="46.64466" lon="5.59508">
        <ele>536</ele>
        <time>2018-08-08T13:31:17.000Z</time>
      </trkpt>
      <trkpt lat="46.64451" lon="5.59502">
        <ele>536.3</ele>
        <time>2018-08-08T13:31:27.000Z</time>
      </trkpt>
      <trkpt lat="46.64437" lon="5.59493">
        <ele>538</ele>
        <time>2018-08-08T13:31:38.000Z</time>
      </trkpt>
      <trkpt lat="46.64416" lon="5.59485">
        <ele>539</ele>
        <time>2018-08-08T13:31:42.000Z</time>
      </trkpt>
      <trkpt lat="46.64406" lon="5.59484">
        <ele>537.7</ele>
        <time>2018-08-08T13:31:52.000Z</time>
      </trkpt>
      <trkpt lat="46.64396" lon="5.59481">
        <ele>539</ele>
        <time>2018-08-08T13:31:53.000Z</time>
      </trkpt>
      <trkpt lat="46.64375" lon="5.59486">
        <ele>540</ele>
        <time>2018-08-08T13:31:59.000Z</time>
      </trkpt>
      <trkpt lat="46.64362" lon="5.59488">
        <ele>539.2</ele>
        <time>2018-08-08T13:32:09.000Z</time>
      </trkpt>
      <trkpt lat="46.64347" lon="5.59484">
        <ele>541</ele>
        <time>2018-08-08T13:32:09.000Z</time>
      </trkpt>
      <trkpt lat="46.64316" lon="5.59486">
        <ele>542</ele>
        <time>2018-08-08T13:32:22.000Z</time>
      </trkpt>
      <trkpt lat="46.64295" lon="5.59489">
        <ele>542</ele>
        <time>2018-08-08T13:32:30.000Z</time>
      </trkpt>
      <trkpt lat="46.64275" lon="5.59487">
        <ele>541</ele>
        <time>2018-08-08T13:32:38.000Z</time>
      </trkpt>
      <trkpt lat="46.64248" lon="5.5948">
        <ele>540</ele>
        <time>2018-08-08T13:32:49.000Z</time>
      </trkpt>
      <trkpt lat="46.64227" lon="5.5947">
        <ele>540</ele>
        <time>2018-08-08T13:32:58.000Z</time>
      </trkpt>
      <trkpt lat="46.64212" lon="5.59464">
        <ele>538.3</ele>
        <time>2018-08-08T13:33:08.000Z</time>
      </trkpt>
      <trkpt lat="46.64194" lon="5.59466">
        <ele>539</ele>
        <time>2018-08-08T13:33:12.000Z</time>
      </trkpt>
      <trkpt lat="46.64175" lon="5.59459">
        <ele>539</ele>
        <time>2018-08-08T13:33:19.000Z</time>
      </trkpt>
      <trkpt lat="46.64132" lon="5.59452">
        <ele>537</ele>
        <time>2018-08-08T13:33:36.000Z</time>
      </trkpt>
      <trkpt lat="46.64098" lon="5.59447">
        <ele>534</ele>
        <time>2018-08-08T13:33:47.000Z</time>
      </trkpt>
      <trkpt lat="46.64078" lon="5.59446">
        <ele>533</ele>
        <time>2018-08-08T13:33:53.000Z</time>
      </trkpt>
      <trkpt lat="46.64075" lon="5.59447">
        <ele>532.9</ele>
        <time>2018-08-08T13:34:03.000Z</time>
      </trkpt>
      <trkpt lat="46.64064" lon="5.59444">
        <ele>533.3</ele>
        <time>2018-08-08T13:34:13.000Z</time>
      </trkpt>
      <trkpt lat="46.64048" lon="5.59426">
        <ele>533</ele>
        <time>2018-08-08T13:34:08.000Z</time>
      </trkpt>
      <trkpt lat="46.64033" lon="5.59402">
        <ele>533</ele>
        <time>2018-08-08T13:34:18.000Z</time>
      </trkpt>
      <trkpt lat="46.64017" lon="5.59381">
        <ele>532</ele>
        <time>2018-08-08T13:34:26.000Z</time>
      </trkpt>
      <trkpt lat="46.64013" lon="5.5937">
        <ele>531</ele>
        <time>2018-08-08T13:34:36.000Z</time>
      </trkpt>
      <trkpt lat="46.63997" lon="5.59341">
        <ele>530</ele>
        <time>2018-08-08T13:34:39.000Z</time>
      </trkpt>
      <trkpt lat="46.63992" lon="5.59336">
        <ele>530.1</ele>
        <time>2018-08-08T13:34:49.000Z</time>
      </trkpt>
      <trkpt lat="46.63973" lon="5.59321">
        <ele>528</ele>
        <time>2018-08-08T13:34:50.000Z</time>
      </trkpt>
      <trkpt lat="46.63966" lon="5.59311">
        <ele>527.1</ele>
        <time>2018-08-08T13:35:00.000Z</time>
      </trkpt>
      <trkpt lat="46.63962" lon="5.593">
        <ele>526.4</ele>
        <time>2018-08-08T13:35:10.000Z</time>
      </trkpt>
      <trkpt lat="46.63958" lon="5.59286">
        <ele>526</ele>
        <time>2018-08-08T13:35:07.000Z</time>
      </trkpt>
      <trkpt lat="46.63956" lon="5.5927">
        <ele>525.1</ele>
        <time>2018-08-08T13:35:17.000Z</time>
      </trkpt>
      <trkpt lat="46.63951" lon="5.59256">
        <ele>522</ele>
        <time>2018-08-08T13:35:17.000Z</time>
      </trkpt>
      <trkpt lat="46.63945" lon="5.59247">
        <ele>520.9</ele>
        <time>2018-08-08T13:35:27.000Z</time>
      </trkpt>
      <trkpt lat="46.6394" lon="5.59242">
        <ele>517.3</ele>
        <time>2018-08-08T13:35:37.000Z</time>
      </trkpt>
      <trkpt lat="46.63937" lon="5.5924">
        <ele>515.4</ele>
        <time>2018-08-08T13:35:47.000Z</time>
      </trkpt>
      <trkpt lat="46.63935" lon="5.59235">
        <ele>516</ele>
        <time>2018-08-08T13:35:46.000Z</time>
      </trkpt>
      <trkpt lat="46.63928" lon="5.59205">
        <ele>514</ele>
        <time>2018-08-08T13:35:35.000Z</time>
      </trkpt>
      <trkpt lat="46.63926" lon="5.59185">
        <ele>513.2</ele>
        <time>2018-08-08T13:35:45.000Z</time>
      </trkpt>
      <trkpt lat="46.63923" lon="5.59182">
        <ele>512.7</ele>
        <time>2018-08-08T13:35:55.000Z</time>
      </trkpt>
      <trkpt lat="46.63906" lon="5.59174">
        <ele>513</ele>
        <time>2018-08-08T13:35:43.000Z</time>
      </trkpt>
      <trkpt lat="46.63899" lon="5.59169">
        <ele>511.1</ele>
        <time>2018-08-08T13:35:53.000Z</time>
      </trkpt>
      <trkpt lat="46.63866" lon="5.59158">
        <ele>513</ele>
        <time>2018-08-08T13:35:58.000Z</time>
      </trkpt>
      <trkpt lat="46.63842" lon="5.59152">
        <ele>514</ele>
        <time>2018-08-08T13:36:06.000Z</time>
      </trkpt>
      <trkpt lat="46.63829" lon="5.59146">
        <ele>516.2</ele>
        <time>2018-08-08T13:36:16.000Z</time>
      </trkpt>
      <trkpt lat="46.638" lon="5.59131">
        <ele>519</ele>
        <time>2018-08-08T13:36:22.000Z</time>
      </trkpt>
      <trkpt lat="46.63793" lon="5.59129">
        <ele>518.6</ele>
        <time>2018-08-08T13:36:32.000Z</time>
      </trkpt>
      <trkpt lat="46.63785" lon="5.59123">
        <ele>519.8</ele>
        <time>2018-08-08T13:36:42.000Z</time>
      </trkpt>
      <trkpt lat="46.63781" lon="5.59119">
        <ele>522</ele>
        <time>2018-08-08T13:36:34.000Z</time>
      </trkpt>
      <trkpt lat="46.63763" lon="5.59104">
        <ele>522</ele>
        <time>2018-08-08T13:36:43.000Z</time>
      </trkpt>
      <trkpt lat="46.63746" lon="5.59093">
        <ele>523</ele>
        <time>2018-08-08T13:36:53.000Z</time>
      </trkpt>
      <trkpt lat="46.63724" lon="5.59078">
        <ele>524</ele>
        <time>2018-08-08T13:37:03.000Z</time>
      </trkpt>
      <trkpt lat="46.63698" lon="5.5906">
        <ele>524</ele>
        <time>2018-08-08T13:37:20.000Z</time>
      </trkpt>
      <trkpt lat="46.63658" lon="5.59041">
        <ele>524</ele>
        <time>2018-08-08T13:37:31.000Z</time>
      </trkpt>
      <trkpt lat="46.63637" lon="5.59038">
        <ele>524</ele>
        <time>2018-08-08T13:37:38.000Z</time>
      </trkpt>
      <trkpt lat="46.63619" lon="5.59032">
        <ele>524.5</ele>
        <time>2018-08-08T13:37:48.000Z</time>
      </trkpt>
      <trkpt lat="46.636" lon="5.5903">
        <ele>524</ele>
        <time>2018-08-08T13:37:49.000Z</time>
      </trkpt>
      <trkpt lat="46.63576" lon="5.59025">
        <ele>524</ele>
        <time>2018-08-08T13:37:58.000Z</time>
      </trkpt>
      <trkpt lat="46.63555" lon="5.59024">
        <ele>524</ele>
        <time>2018-08-08T13:38:06.000Z</time>
      </trkpt>
      <trkpt lat="46.63538" lon="5.59015">
        <ele>524.4</ele>
        <time>2018-08-08T13:38:16.000Z</time>
      </trkpt>
      <trkpt lat="46.63524" lon="5.59005">
        <ele>526</ele>
        <time>2018-08-08T13:38:17.000Z</time>
      </trkpt>
      <trkpt lat="46.63512" lon="5.59">
        <ele>526.6</ele>
        <time>2018-08-08T13:38:27.000Z</time>
      </trkpt>
      <trkpt lat="46.635" lon="5.58998">
        <ele>526</ele>
        <time>2018-08-08T13:38:25.000Z</time>
      </trkpt>
      <trkpt lat="46.63492" lon="5.59">
        <ele>526.7</ele>
        <time>2018-08-08T13:38:35.000Z</time>
      </trkpt>
      <trkpt lat="46.63483" lon="5.59">
        <ele>526.4</ele>
        <time>2018-08-08T13:38:45.000Z</time>
      </trkpt>
      <trkpt lat="46.63476" lon="5.59005">
        <ele>525</ele>
        <time>2018-08-08T13:41:38.000Z</time>
      </trkpt>
      <trkpt lat="46.63464" lon="5.59024">
        <ele>524.3</ele>
        <time>2018-08-08T13:41:48.000Z</time>
      </trkpt>
      <trkpt lat="46.63453" lon="5.5904">
        <ele>523</ele>
        <time>2018-08-08T13:41:49.000Z</time>
      </trkpt>
      <trkpt lat="46.6344" lon="5.5905">
        <ele>522.6</ele>
        <time>2018-08-08T13:41:59.000Z</time>
      </trkpt>
      <trkpt lat="46.63391" lon="5.59077">
        <ele>523</ele>
        <time>2018-08-08T13:42:18.000Z</time>
      </trkpt>
      <trkpt lat="46.63383" lon="5.59089">
        <ele>522.9</ele>
        <time>2018-08-08T13:42:28.000Z</time>
      </trkpt>
      <trkpt lat="46.63368" lon="5.59095">
        <ele>524</ele>
        <time>2018-08-08T13:42:28.000Z</time>
      </trkpt>
      <trkpt lat="46.6335" lon="5.59108">
        <ele>525</ele>
        <time>2018-08-08T13:42:31.000Z</time>
      </trkpt>
      <trkpt lat="46.63339" lon="5.59133">
        <ele>525</ele>
        <time>2018-08-08T13:42:36.000Z</time>
      </trkpt>
      <trkpt lat="46.63325" lon="5.59151">
        <ele>525</ele>
        <time>2018-08-08T13:42:41.000Z</time>
      </trkpt>
      <trkpt lat="46.63306" lon="5.59154">
        <ele>525</ele>
        <time>2018-08-08T13:42:49.000Z</time>
      </trkpt>
      <trkpt lat="46.63288" lon="5.59164">
        <ele>525</ele>
        <time>2018-08-08T13:42:58.000Z</time>
      </trkpt>
      <trkpt lat="46.63276" lon="5.59174">
        <ele>525.4</ele>
        <time>2018-08-08T13:43:08.000Z</time>
      </trkpt>
      <trkpt lat="46.63263" lon="5.59186">
        <ele>526</ele>
        <time>2018-08-08T13:43:10.000Z</time>
      </trkpt>
      <trkpt lat="46.63244" lon="5.5921">
        <ele>528</ele>
        <time>2018-08-08T13:43:20.000Z</time>
      </trkpt>
      <trkpt lat="46.63221" lon="5.5924">
        <ele>531</ele>
        <time>2018-08-08T13:43:31.000Z</time>
      </trkpt>
      <trkpt lat="46.63214" lon="5.5925">
        <ele>531.9</ele>
        <time>2018-08-08T13:43:41.000Z</time>
      </trkpt>
      <trkpt lat="46.63202" lon="5.59269">
        <ele>530</ele>
        <time>2018-08-08T13:43:45.000Z</time>
      </trkpt>
      <trkpt lat="46.63196" lon="5.59288">
        <ele>531.5</ele>
        <time>2018-08-08T13:43:55.000Z</time>
      </trkpt>
      <trkpt lat="46.6319" lon="5.59303">
        <ele>530</ele>
        <time>2018-08-08T13:43:55.000Z</time>
      </trkpt>
      <trkpt lat="46.63187" lon="5.59322">
        <ele>529.3</ele>
        <time>2018-08-08T13:44:05.000Z</time>
      </trkpt>
      <trkpt lat="46.63182" lon="5.59338">
        <ele>528</ele>
        <time>2018-08-08T13:44:03.000Z</time>
      </trkpt>
      <trkpt lat="46.63163" lon="5.59375">
        <ele>525</ele>
        <time>2018-08-08T13:44:13.000Z</time>
      </trkpt>
      <trkpt lat="46.63157" lon="5.59384">
        <ele>524.3</ele>
        <time>2018-08-08T13:44:23.000Z</time>
      </trkpt>
      <trkpt lat="46.63148" lon="5.59401">
        <ele>521</ele>
        <time>2018-08-08T13:44:22.000Z</time>
      </trkpt>
      <trkpt lat="46.63143" lon="5.59414">
        <ele>520.6</ele>
        <time>2018-08-08T13:44:32.000Z</time>
      </trkpt>
      <trkpt lat="46.63138" lon="5.5943">
        <ele>520</ele>
        <time>2018-08-08T13:44:29.000Z</time>
      </trkpt>
      <trkpt lat="46.63138" lon="5.59438">
        <ele>518.5</ele>
        <time>2018-08-08T13:44:39.000Z</time>
      </trkpt>
      <trkpt lat="46.63141" lon="5.59454">
        <ele>516.3</ele>
        <time>2018-08-08T13:44:49.000Z</time>
      </trkpt>
      <trkpt lat="46.63141" lon="5.59472">
        <ele>515</ele>
        <time>2018-08-08T13:44:41.000Z</time>
      </trkpt>
      <trkpt lat="46.63147" lon="5.59482">
        <ele>512.4</ele>
        <time>2018-08-08T13:44:51.000Z</time>
      </trkpt>
      <trkpt lat="46.63152" lon="5.59485">
        <ele>511.3</ele>
        <time>2018-08-08T13:45:01.000Z</time>
      </trkpt>
      <trkpt lat="46.63157" lon="5.5949">
        <ele>513</ele>
        <time>2018-08-08T13:44:49.000Z</time>
      </trkpt>
      <trkpt lat="46.63162" lon="5.59491">
        <ele>507.9</ele>
        <time>2018-08-08T13:44:59.000Z</time>
      </trkpt>
      <trkpt lat="46.63187" lon="5.59491">
        <ele>500</ele>
        <time>2018-08-08T13:44:59.000Z</time>
      </trkpt>
      <trkpt lat="46.63194" lon="5.59495">
        <ele>493.6</ele>
        <time>2018-08-08T13:45:09.000Z</time>
      </trkpt>
      <trkpt lat="46.63201" lon="5.59508">
        <ele>495</ele>
        <time>2018-08-08T13:45:05.000Z</time>
      </trkpt>
      <trkpt lat="46.63204" lon="5.59524">
        <ele>485.1</ele>
        <time>2018-08-08T13:45:15.000Z</time>
      </trkpt>
      <trkpt lat="46.63196" lon="5.59554">
        <ele>490</ele>
        <time>2018-08-08T13:45:16.000Z</time>
      </trkpt>
      <trkpt lat="46.63195" lon="5.59562">
        <ele>486.3</ele>
        <time>2018-08-08T13:45:26.000Z</time>
      </trkpt>
      <trkpt lat="46.63197" lon="5.59581">
        <ele>483</ele>
        <time>2018-08-08T13:45:56.000Z</time>
      </trkpt>
      <trkpt lat="46.63198" lon="5.59584">
        <ele>480.4</ele>
        <time>2018-08-08T13:46:06.000Z</time>
      </trkpt>
      <trkpt lat="46.63202" lon="5.59591">
        <ele>478.3</ele>
        <time>2018-08-08T13:46:16.000Z</time>
      </trkpt>
      <trkpt lat="46.63211" lon="5.59605">
        <ele>475</ele>
        <time>2018-08-08T13:45:29.000Z</time>
      </trkpt>
      <trkpt lat="46.63218" lon="5.59613">
        <ele>473.1</ele>
        <time>2018-08-08T13:45:39.000Z</time>
      </trkpt>
      <trkpt lat="46.63226" lon="5.5962">
        <ele>470.8</ele>
        <time>2018-08-08T13:45:49.000Z</time>
      </trkpt>
      <trkpt lat="46.63229" lon="5.59621">
        <ele>471</ele>
        <time>2018-08-08T13:45:36.000Z</time>
      </trkpt>
      <trkpt lat="46.63233" lon="5.5962">
        <ele>468.5</ele>
        <time>2018-08-08T13:45:46.000Z</time>
      </trkpt>
      <trkpt lat="46.63255" lon="5.59604">
        <ele>462</ele>
        <time>2018-08-08T13:45:51.000Z</time>
      </trkpt>
      <trkpt lat="46.63264" lon="5.59601">
        <ele>458.7</ele>
        <time>2018-08-08T13:46:01.000Z</time>
      </trkpt>
      <trkpt lat="46.63266" lon="5.59602">
        <ele>458.3</ele>
        <time>2018-08-08T13:46:11.000Z</time>
      </trkpt>
      <trkpt lat="46.63274" lon="5.596">
        <ele>456</ele>
        <time>2018-08-08T13:46:02.000Z</time>
      </trkpt>
      <trkpt lat="46.63277" lon="5.596">
        <ele>455.4</ele>
        <time>2018-08-08T13:46:12.000Z</time>
      </trkpt>
      <trkpt lat="46.6328" lon="5.59601">
        <ele>454.6</ele>
        <time>2018-08-08T13:46:22.000Z</time>
      </trkpt>
      <trkpt lat="46.63293" lon="5.59609">
        <ele>451</ele>
        <time>2018-08-08T13:46:13.000Z</time>
      </trkpt>
      <trkpt lat="46.63298" lon="5.59617">
        <ele>448.8</ele>
        <time>2018-08-08T13:46:23.000Z</time>
      </trkpt>
      <trkpt lat="46.633" lon="5.59622">
        <ele>447.6</ele>
        <time>2018-08-08T13:46:33.000Z</time>
      </trkpt>
      <trkpt lat="46.63311" lon="5.59636">
        <ele>443</ele>
        <time>2018-08-08T13:46:32.000Z</time>
      </trkpt>
      <trkpt lat="46.63313" lon="5.5964">
        <ele>441.7</ele>
        <time>2018-08-08T13:46:42.000Z</time>
      </trkpt>
      <trkpt lat="46.63318" lon="5.59646">
        <ele>439.6</ele>
        <time>2018-08-08T13:46:52.000Z</time>
      </trkpt>
      <trkpt lat="46.63329" lon="5.59666">
        <ele>437</ele>
        <time>2018-08-08T13:46:35.000Z</time>
      </trkpt>
      <trkpt lat="46.63339" lon="5.59676">
        <ele>432.8</ele>
        <time>2018-08-08T13:46:45.000Z</time>
      </trkpt>
      <trkpt lat="46.6335" lon="5.59681">
        <ele>433</ele>
        <time>2018-08-08T13:46:46.000Z</time>
      </trkpt>
      <trkpt lat="46.63357" lon="5.59683">
        <ele>428.9</ele>
        <time>2018-08-08T13:46:56.000Z</time>
      </trkpt>
      <trkpt lat="46.6338" lon="5.59695">
        <ele>427</ele>
        <time>2018-08-08T13:46:56.000Z</time>
      </trkpt>
      <trkpt lat="46.63392" lon="5.59697">
        <ele>422.6</ele>
        <time>2018-08-08T13:47:06.000Z</time>
      </trkpt>
      <trkpt lat="46.63398" lon="5.597">
        <ele>421.8</ele>
        <time>2018-08-08T13:47:16.000Z</time>
      </trkpt>
      <trkpt lat="46.63407" lon="5.59707">
        <ele>422</ele>
        <time>2018-08-08T13:47:09.000Z</time>
      </trkpt>
      <trkpt lat="46.63416" lon="5.59711">
        <ele>418.5</ele>
        <time>2018-08-08T13:47:19.000Z</time>
      </trkpt>
      <trkpt lat="46.63422" lon="5.59722">
        <ele>416</ele>
        <time>2018-08-08T13:47:20.000Z</time>
      </trkpt>
      <trkpt lat="46.63425" lon="5.59725">
        <ele>416.4</ele>
        <time>2018-08-08T13:47:30.000Z</time>
      </trkpt>
      <trkpt lat="46.63429" lon="5.59727">
        <ele>415.6</ele>
        <time>2018-08-08T13:47:40.000Z</time>
      </trkpt>
      <trkpt lat="46.63432" lon="5.59731">
        <ele>415.1</ele>
        <time>2018-08-08T13:47:50.000Z</time>
      </trkpt>
      <trkpt lat="46.63443" lon="5.59734">
        <ele>412</ele>
        <time>2018-08-08T13:47:32.000Z</time>
      </trkpt>
      <trkpt lat="46.63454" lon="5.59735">
        <ele>409.7</ele>
        <time>2018-08-08T13:47:42.000Z</time>
      </trkpt>
      <trkpt lat="46.63461" lon="5.59734">
        <ele>407.7</ele>
        <time>2018-08-08T13:47:52.000Z</time>
      </trkpt>
      <trkpt lat="46.6348" lon="5.59735">
        <ele>404</ele>
        <time>2018-08-08T13:47:48.000Z</time>
      </trkpt>
      <trkpt lat="46.63492" lon="5.59739">
        <ele>399.5</ele>
        <time>2018-08-08T13:47:58.000Z</time>
      </trkpt>
      <trkpt lat="46.63498" lon="5.59739">
        <ele>397.9</ele>
        <time>2018-08-08T13:48:08.000Z</time>
      </trkpt>
      <trkpt lat="46.63506" lon="5.59741">
        <ele>397</ele>
        <time>2018-08-08T13:48:05.000Z</time>
      </trkpt>
      <trkpt lat="46.63515" lon="5.59746">
        <ele>394.6</ele>
        <time>2018-08-08T13:48:15.000Z</time>
      </trkpt>
      <trkpt lat="46.63525" lon="5.5976">
        <ele>393</ele>
        <time>2018-08-08T13:48:07.000Z</time>
      </trkpt>
      <trkpt lat="46.63539" lon="5.59769">
        <ele>389.3</ele>
        <time>2018-08-08T13:48:17.000Z</time>
      </trkpt>
      <trkpt lat="46.63544" lon="5.59773">
        <ele>388</ele>
        <time>2018-08-08T13:48:15.000Z</time>
      </trkpt>
      <trkpt lat="46.63548" lon="5.5978">
        <ele>386.6</ele>
        <time>2018-08-08T13:48:25.000Z</time>
      </trkpt>
      <trkpt lat="46.63575" lon="5.59822">
        <ele>378</ele>
        <time>2018-08-08T13:48:31.000Z</time>
      </trkpt>
      <trkpt lat="46.63581" lon="5.59836">
        <ele>375.5</ele>
        <time>2018-08-08T13:48:41.000Z</time>
      </trkpt>
      <trkpt lat="46.63604" lon="5.59865">
        <ele>370</ele>
        <time>2018-08-08T13:48:47.000Z</time>
      </trkpt>
      <trkpt lat="46.63616" lon="5.59899">
        <ele>367</ele>
        <time>2018-08-08T13:48:58.000Z</time>
      </trkpt>
      <trkpt lat="46.63616" lon="5.59907">
        <ele>363.9</ele>
        <time>2018-08-08T13:49:08.000Z</time>
      </trkpt>
      <trkpt lat="46.63614" lon="5.59915">
        <ele>363</ele>
        <time>2018-08-08T13:49:18.000Z</time>
      </trkpt>
      <trkpt lat="46.63618" lon="5.59934">
        <ele>360</ele>
        <time>2018-08-08T13:49:07.000Z</time>
      </trkpt>
      <trkpt lat="46.63625" lon="5.59949">
        <ele>358.8</ele>
        <time>2018-08-08T13:49:17.000Z</time>
      </trkpt>
      <trkpt lat="46.63626" lon="5.59956">
        <ele>358.5</ele>
        <time>2018-08-08T13:49:27.000Z</time>
      </trkpt>
      <trkpt lat="46.63633" lon="5.59969">
        <ele>357</ele>
        <time>2018-08-08T13:49:39.000Z</time>
      </trkpt>
      <trkpt lat="46.63645" lon="5.59984">
        <ele>355</ele>
        <time>2018-08-08T13:49:49.000Z</time>
      </trkpt>
      <trkpt lat="46.63649" lon="5.5999">
        <ele>354</ele>
        <time>2018-08-08T13:50:09.000Z</time>
      </trkpt>
      <trkpt lat="46.63657" lon="5.59995">
        <ele>354.1</ele>
        <time>2018-08-08T13:50:19.000Z</time>
      </trkpt>
      <trkpt lat="46.6366" lon="5.59998">
        <ele>353.8</ele>
        <time>2018-08-08T13:50:29.000Z</time>
      </trkpt>
      <trkpt lat="46.63665" lon="5.60006">
        <ele>352</ele>
        <time>2018-08-08T13:51:38.000Z</time>
      </trkpt>
      <trkpt lat="46.63665" lon="5.60005">
        <ele>353.1</ele>
        <time>2018-08-08T13:51:48.000Z</time>
      </trkpt>
      <trkpt lat="46.63665" lon="5.60007">
        <ele>353</ele>
        <time>2018-08-08T13:51:58.000Z</time>
      </trkpt>
      <trkpt lat="46.63669" lon="5.6001">
        <ele>352.7</ele>
        <time>2018-08-08T13:52:08.000Z</time>
      </trkpt>
      <trkpt lat="46.63677" lon="5.60014">
        <ele>352.7</ele>
        <time>2018-08-08T13:52:18.000Z</time>
      </trkpt>
      <trkpt lat="46.63684" lon="5.60016">
        <ele>352</ele>
        <time>2018-08-08T13:51:59.000Z</time>
      </trkpt>
      <trkpt lat="46.6369" lon="5.60019">
        <ele>352.6</ele>
        <time>2018-08-08T13:52:09.000Z</time>
      </trkpt>
      <trkpt lat="46.63692" lon="5.60025">
        <ele>352.2</ele>
        <time>2018-08-08T13:52:19.000Z</time>
      </trkpt>
      <trkpt lat="46.63694" lon="5.60026">
        <ele>352.1</ele>
        <time>2018-08-08T13:52:29.000Z</time>
      </trkpt>
      <trkpt lat="46.637" lon="5.60037">
        <ele>351</ele>
        <time>2018-08-08T13:52:14.000Z</time>
      </trkpt>
      <trkpt lat="46.63705" lon="5.60052">
        <ele>350.3</ele>
        <time>2018-08-08T13:52:24.000Z</time>
      </trkpt>
      <trkpt lat="46.63709" lon="5.60062">
        <ele>349</ele>
        <time>2018-08-08T13:52:44.000Z</time>
      </trkpt>
      <trkpt lat="46.63712" lon="5.60073">
        <ele>350.5</ele>
        <time>2018-08-08T13:52:54.000Z</time>
      </trkpt>
      <trkpt lat="46.63718" lon="5.60109">
        <ele>348</ele>
        <time>2018-08-08T13:53:04.000Z</time>
      </trkpt>
      <trkpt lat="46.63714" lon="5.60145">
        <ele>346</ele>
        <time>2018-08-08T13:53:14.000Z</time>
      </trkpt>
      <trkpt lat="46.63718" lon="5.60163">
        <ele>345.2</ele>
        <time>2018-08-08T13:53:24.000Z</time>
      </trkpt>
      <trkpt lat="46.6372" lon="5.60169">
        <ele>345.2</ele>
        <time>2018-08-08T13:53:34.000Z</time>
      </trkpt>
      <trkpt lat="46.63724" lon="5.60177">
        <ele>346</ele>
        <time>2018-08-08T13:53:44.000Z</time>
      </trkpt>
      <trkpt lat="46.63724" lon="5.60182">
        <ele>345.6</ele>
        <time>2018-08-08T13:53:54.000Z</time>
      </trkpt>
      <trkpt lat="46.63723" lon="5.60193">
        <ele>345.9</ele>
        <time>2018-08-08T13:54:04.000Z</time>
      </trkpt>
      <trkpt lat="46.63724" lon="5.60196">
        <ele>346.1</ele>
        <time>2018-08-08T13:54:14.000Z</time>
      </trkpt>
      <trkpt lat="46.63721" lon="5.60202">
        <ele>346</ele>
        <time>2018-08-08T13:54:24.000Z</time>
      </trkpt>
      <trkpt lat="46.63716" lon="5.60207">
        <ele>346.6</ele>
        <time>2018-08-08T13:54:34.000Z</time>
      </trkpt>
      <trkpt lat="46.63707" lon="5.60207">
        <ele>346.8</ele>
        <time>2018-08-08T13:54:44.000Z</time>
      </trkpt>
      <trkpt lat="46.63683" lon="5.60214">
        <ele>347</ele>
        <time>2018-08-08T13:55:46.000Z</time>
      </trkpt>
      <trkpt lat="46.63677" lon="5.60217">
        <ele>347</ele>
        <time>2018-08-08T13:55:56.000Z</time>
      </trkpt>
      <trkpt lat="46.6366" lon="5.60229">
        <ele>347</ele>
        <time>2018-08-08T13:56:03.000Z</time>
      </trkpt>
      <trkpt lat="46.63646" lon="5.60251">
        <ele>348</ele>
        <time>2018-08-08T13:56:15.000Z</time>
      </trkpt>
      <trkpt lat="46.63642" lon="5.6026">
        <ele>348.4</ele>
        <time>2018-08-08T13:56:25.000Z</time>
      </trkpt>
      <trkpt lat="46.63622" lon="5.60292">
        <ele>348</ele>
        <time>2018-08-08T13:56:46.000Z</time>
      </trkpt>
      <trkpt lat="46.6362" lon="5.60299">
        <ele>349.2</ele>
        <time>2018-08-08T13:56:56.000Z</time>
      </trkpt>
      <trkpt lat="46.63614" lon="5.60308">
        <ele>349</ele>
        <time>2018-08-08T13:57:06.000Z</time>
      </trkpt>
      <trkpt lat="46.63601" lon="5.60335">
        <ele>348</ele>
        <time>2018-08-08T13:57:26.000Z</time>
      </trkpt>
      <trkpt lat="46.63597" lon="5.60339">
        <ele>349.5</ele>
        <time>2018-08-08T13:57:36.000Z</time>
      </trkpt>
      <trkpt lat="46.63594" lon="5.60353">
        <ele>349.5</ele>
        <time>2018-08-08T13:57:46.000Z</time>
      </trkpt>
      <trkpt lat="46.63589" lon="5.60363">
        <ele>349</ele>
        <time>2018-08-08T13:57:56.000Z</time>
      </trkpt>
      <trkpt lat="46.63587" lon="5.60369">
        <ele>349.4</ele>
        <time>2018-08-08T13:58:06.000Z</time>
      </trkpt>
      <trkpt lat="46.6358" lon="5.60406">
        <ele>349</ele>
        <time>2018-08-08T13:58:36.000Z</time>
      </trkpt>
      <trkpt lat="46.63579" lon="5.60432">
        <ele>352.1</ele>
        <time>2018-08-08T13:58:46.000Z</time>
      </trkpt>
      <trkpt lat="46.63584" lon="5.60439">
        <ele>351</ele>
        <time>2018-08-08T13:58:56.000Z</time>
      </trkpt>
      <trkpt lat="46.63594" lon="5.60442">
        <ele>353.2</ele>
        <time>2018-08-08T13:59:06.000Z</time>
      </trkpt>
      <trkpt lat="46.63599" lon="5.60445">
        <ele>353.6</ele>
        <time>2018-08-08T13:59:16.000Z</time>
      </trkpt>
      <trkpt lat="46.63601" lon="5.60448">
        <ele>354.2</ele>
        <time>2018-08-08T13:59:26.000Z</time>
      </trkpt>
      <trkpt lat="46.63603" lon="5.60457">
        <ele>354</ele>
        <time>2018-08-08T13:59:36.000Z</time>
      </trkpt>
      <trkpt lat="46.63607" lon="5.60471">
        <ele>359</ele>
        <time>2018-08-08T13:59:46.000Z</time>
      </trkpt>
      <trkpt lat="46.6361" lon="5.60478">
        <ele>360.8</ele>
        <time>2018-08-08T13:59:56.000Z</time>
      </trkpt>
      <trkpt lat="46.6361" lon="5.60484">
        <ele>360</ele>
        <time>2018-08-08T14:02:39.000Z</time>
      </trkpt>
      <trkpt lat="46.63611" lon="5.60489">
        <ele>363</ele>
        <time>2018-08-08T14:02:49.000Z</time>
      </trkpt>
      <trkpt lat="46.63615" lon="5.605">
        <ele>365.3</ele>
        <time>2018-08-08T14:02:59.000Z</time>
      </trkpt>
      <trkpt lat="46.63616" lon="5.6051">
        <ele>363</ele>
        <time>2018-08-08T14:02:38.000Z</time>
      </trkpt>
      <trkpt lat="46.6362" lon="5.60526">
        <ele>368.7</ele>
        <time>2018-08-08T14:02:48.000Z</time>
      </trkpt>
      <trkpt lat="46.63623" lon="5.60533">
        <ele>370.1</ele>
        <time>2018-08-08T14:02:58.000Z</time>
      </trkpt>
      <trkpt lat="46.63627" lon="5.60548">
        <ele>371</ele>
        <time>2018-08-08T14:03:12.000Z</time>
      </trkpt>
      <trkpt lat="46.63634" lon="5.60554">
        <ele>374.4</ele>
        <time>2018-08-08T14:03:22.000Z</time>
      </trkpt>
      <trkpt lat="46.63636" lon="5.60557">
        <ele>375</ele>
        <time>2018-08-08T14:03:32.000Z</time>
      </trkpt>
      <trkpt lat="46.63637" lon="5.60566">
        <ele>376.7</ele>
        <time>2018-08-08T14:03:42.000Z</time>
      </trkpt>
      <trkpt lat="46.63639" lon="5.60569">
        <ele>374</ele>
        <time>2018-08-08T14:03:31.000Z</time>
      </trkpt>
      <trkpt lat="46.63642" lon="5.60571">
        <ele>378</ele>
        <time>2018-08-08T14:03:41.000Z</time>
      </trkpt>
      <trkpt lat="46.63659" lon="5.60575">
        <ele>379</ele>
        <time>2018-08-08T14:03:27.000Z</time>
      </trkpt>
      <trkpt lat="46.63665" lon="5.60583">
        <ele>380.9</ele>
        <time>2018-08-08T14:03:37.000Z</time>
      </trkpt>
      <trkpt lat="46.63668" lon="5.60584">
        <ele>381.4</ele>
        <time>2018-08-08T14:03:47.000Z</time>
      </trkpt>
      <trkpt lat="46.63697" lon="5.60572">
        <ele>379</ele>
        <time>2018-08-08T14:03:50.000Z</time>
      </trkpt>
      <trkpt lat="46.63709" lon="5.60565">
        <ele>383.8</ele>
        <time>2018-08-08T14:04:00.000Z</time>
      </trkpt>
      <trkpt lat="46.63726" lon="5.60551">
        <ele>378</ele>
        <time>2018-08-08T14:04:02.000Z</time>
      </trkpt>
      <trkpt lat="46.6374" lon="5.60533">
        <ele>377</ele>
        <time>2018-08-08T14:04:12.000Z</time>
      </trkpt>
      <trkpt lat="46.6375" lon="5.60518">
        <ele>378.5</ele>
        <time>2018-08-08T14:04:22.000Z</time>
      </trkpt>
      <trkpt lat="46.63753" lon="5.60515">
        <ele>378.2</ele>
        <time>2018-08-08T14:04:32.000Z</time>
      </trkpt>
      <trkpt lat="46.63759" lon="5.60505">
        <ele>375</ele>
        <time>2018-08-08T14:04:34.000Z</time>
      </trkpt>
      <trkpt lat="46.63779" lon="5.60496">
        <ele>375</ele>
        <time>2018-08-08T14:04:41.000Z</time>
      </trkpt>
      <trkpt lat="46.63802" lon="5.6049">
        <ele>375</ele>
        <time>2018-08-08T14:04:49.000Z</time>
      </trkpt>
      <trkpt lat="46.63821" lon="5.60489">
        <ele>375</ele>
        <time>2018-08-08T14:04:59.000Z</time>
      </trkpt>
      <trkpt lat="46.63838" lon="5.60484">
        <ele>378.9</ele>
        <time>2018-08-08T14:05:09.000Z</time>
      </trkpt>
      <trkpt lat="46.63856" lon="5.60475">
        <ele>374</ele>
        <time>2018-08-08T14:05:12.000Z</time>
      </trkpt>
      <trkpt lat="46.6387" lon="5.60467">
        <ele>376.4</ele>
        <time>2018-08-08T14:05:22.000Z</time>
      </trkpt>
      <trkpt lat="46.6391" lon="5.60459">
        <ele>374</ele>
        <time>2018-08-08T14:05:27.000Z</time>
      </trkpt>
      <trkpt lat="46.63929" lon="5.60451">
        <ele>374</ele>
        <time>2018-08-08T14:05:34.000Z</time>
      </trkpt>
      <trkpt lat="46.63958" lon="5.60436">
        <ele>374</ele>
        <time>2018-08-08T14:05:45.000Z</time>
      </trkpt>
      <trkpt lat="46.63975" lon="5.60422">
        <ele>374</ele>
        <time>2018-08-08T14:05:52.000Z</time>
      </trkpt>
      <trkpt lat="46.64005" lon="5.60401">
        <ele>369</ele>
        <time>2018-08-08T14:06:03.000Z</time>
      </trkpt>
      <trkpt lat="46.64008" lon="5.60396">
        <ele>371.1</ele>
        <time>2018-08-08T14:06:13.000Z</time>
      </trkpt>
      <trkpt lat="46.64018" lon="5.60384">
        <ele>369.6</ele>
        <time>2018-08-08T14:06:23.000Z</time>
      </trkpt>
      <trkpt lat="46.64038" lon="5.60364">
        <ele>366</ele>
        <time>2018-08-08T14:06:16.000Z</time>
      </trkpt>
      <trkpt lat="46.64055" lon="5.60344">
        <ele>365</ele>
        <time>2018-08-08T14:06:23.000Z</time>
      </trkpt>
      <trkpt lat="46.64074" lon="5.60331">
        <ele>365</ele>
        <time>2018-08-08T14:06:30.000Z</time>
      </trkpt>
      <trkpt lat="46.6408" lon="5.60329">
        <ele>364.7</ele>
        <time>2018-08-08T14:06:40.000Z</time>
      </trkpt>
      <trkpt lat="46.641" lon="5.60325">
        <ele>363</ele>
        <time>2018-08-08T14:06:39.000Z</time>
      </trkpt>
      <trkpt lat="46.6411" lon="5.60325">
        <ele>364.5</ele>
        <time>2018-08-08T14:06:49.000Z</time>
      </trkpt>
      <trkpt lat="46.64164" lon="5.60319">
        <ele>359</ele>
        <time>2018-08-08T14:07:03.000Z</time>
      </trkpt>
      <trkpt lat="46.64206" lon="5.60326">
        <ele>358</ele>
        <time>2018-08-08T14:07:19.000Z</time>
      </trkpt>
      <trkpt lat="46.64246" lon="5.6033">
        <ele>357</ele>
        <time>2018-08-08T14:07:35.000Z</time>
      </trkpt>
      <trkpt lat="46.64262" lon="5.60328">
        <ele>358.4</ele>
        <time>2018-08-08T14:07:45.000Z</time>
      </trkpt>
      <trkpt lat="46.64281" lon="5.60328">
        <ele>357</ele>
        <time>2018-08-08T14:07:48.000Z</time>
      </trkpt>
      <trkpt lat="46.64289" lon="5.60326">
        <ele>357</ele>
        <time>2018-08-08T14:07:58.000Z</time>
      </trkpt>
      <trkpt lat="46.64289" lon="5.60334">
        <ele>357.7</ele>
        <time>2018-08-08T14:08:08.000Z</time>
      </trkpt>
      <trkpt lat="46.64288" lon="5.60334">
        <ele>357.8</ele>
        <time>2018-08-08T14:08:18.000Z</time>
      </trkpt>
      <trkpt lat="46.64288" lon="5.6034">
        <ele>357</ele>
        <time>2018-08-08T14:08:31.000Z</time>
      </trkpt>
      <trkpt lat="46.64288" lon="5.60339">
        <ele>358.7</ele>
        <time>2018-08-08T14:08:41.000Z</time>
      </trkpt>
      <trkpt lat="46.64289" lon="5.60341">
        <ele>359.1</ele>
        <time>2018-08-08T14:08:51.000Z</time>
      </trkpt>
      <trkpt lat="46.6429" lon="5.60341">
        <ele>359.1</ele>
        <time>2018-08-08T14:09:01.000Z</time>
      </trkpt>
      <trkpt lat="46.64292" lon="5.60343">
        <ele>359.4</ele>
        <time>2018-08-08T14:09:11.000Z</time>
      </trkpt>
      <trkpt lat="46.64292" lon="5.60346">
        <ele>360</ele>
        <time>2018-08-08T14:09:21.000Z</time>
      </trkpt>
      <trkpt lat="46.64294" lon="5.60349">
        <ele>360.6</ele>
        <time>2018-08-08T14:09:31.000Z</time>
      </trkpt>
      <trkpt lat="46.64291" lon="5.60353">
        <ele>361.4</ele>
        <time>2018-08-08T14:09:41.000Z</time>
      </trkpt>
      <trkpt lat="46.64291" lon="5.60355">
        <ele>361.8</ele>
        <time>2018-08-08T14:09:51.000Z</time>
      </trkpt>
      <trkpt lat="46.64288" lon="5.60356">
        <ele>361</ele>
        <time>2018-08-08T14:10:03.000Z</time>
      </trkpt>
      <trkpt lat="46.64287" lon="5.60358">
        <ele>362.4</ele>
        <time>2018-08-08T14:10:13.000Z</time>
      </trkpt>
      <trkpt lat="46.64287" lon="5.60364">
        <ele>363.7</ele>
        <time>2018-08-08T14:10:23.000Z</time>
      </trkpt>
      <trkpt lat="46.64288" lon="5.6037">
        <ele>365.1</ele>
        <time>2018-08-08T14:10:33.000Z</time>
      </trkpt>
      <trkpt lat="46.64288" lon="5.60378">
        <ele>367</ele>
        <time>2018-08-08T14:10:43.000Z</time>
      </trkpt>
      <trkpt lat="46.64288" lon="5.60374">
        <ele>366.1</ele>
        <time>2018-08-08T14:10:53.000Z</time>
      </trkpt>
      <trkpt lat="46.64287" lon="5.60373">
        <ele>364</ele>
        <time>2018-08-08T14:10:44.000Z</time>
      </trkpt>
      <trkpt lat="46.64291" lon="5.60379">
        <ele>367.2</ele>
        <time>2018-08-08T14:10:54.000Z</time>
      </trkpt>
      <trkpt lat="46.64291" lon="5.60378">
        <ele>367</ele>
        <time>2018-08-08T14:11:04.000Z</time>
      </trkpt>
      <trkpt lat="46.64293" lon="5.6038">
        <ele>367.4</ele>
        <time>2018-08-08T14:11:14.000Z</time>
      </trkpt>
      <trkpt lat="46.64294" lon="5.60387">
        <ele>369</ele>
        <time>2018-08-08T14:11:24.000Z</time>
      </trkpt>
      <trkpt lat="46.64295" lon="5.60389">
        <ele>369.4</ele>
        <time>2018-08-08T14:11:34.000Z</time>
      </trkpt>
      <trkpt lat="46.64296" lon="5.60394">
        <ele>369</ele>
        <time>2018-08-08T14:11:29.000Z</time>
      </trkpt>
      <trkpt lat="46.64293" lon="5.60402">
        <ele>372.8</ele>
        <time>2018-08-08T14:11:39.000Z</time>
      </trkpt>
      <trkpt lat="46.64285" lon="5.60416">
        <ele>375</ele>
        <time>2018-08-08T14:11:49.000Z</time>
      </trkpt>
      <trkpt lat="46.64284" lon="5.6042">
        <ele>378</ele>
        <time>2018-08-08T14:11:59.000Z</time>
      </trkpt>
      <trkpt lat="46.64282" lon="5.60424">
        <ele>379.5</ele>
        <time>2018-08-08T14:12:09.000Z</time>
      </trkpt>
      <trkpt lat="46.64278" lon="5.60425">
        <ele>380</ele>
        <time>2018-08-08T14:12:19.000Z</time>
      </trkpt>
      <trkpt lat="46.64277" lon="5.60426">
        <ele>380.4</ele>
        <time>2018-08-08T14:12:29.000Z</time>
      </trkpt>
      <trkpt lat="46.64279" lon="5.60432">
        <ele>382.5</ele>
        <time>2018-08-08T14:12:39.000Z</time>
      </trkpt>
      <trkpt lat="46.64283" lon="5.60434">
        <ele>380</ele>
        <time>2018-08-08T14:13:13.000Z</time>
      </trkpt>
      <trkpt lat="46.64285" lon="5.60439">
        <ele>385</ele>
        <time>2018-08-08T14:13:23.000Z</time>
      </trkpt>
      <trkpt lat="46.64284" lon="5.6044">
        <ele>385.4</ele>
        <time>2018-08-08T14:13:33.000Z</time>
      </trkpt>
      <trkpt lat="46.64282" lon="5.60438">
        <ele>384.6</ele>
        <time>2018-08-08T14:13:43.000Z</time>
      </trkpt>
      <trkpt lat="46.64283" lon="5.6044">
        <ele>385.4</ele>
        <time>2018-08-08T14:13:53.000Z</time>
      </trkpt>
      <trkpt lat="46.64284" lon="5.60458">
        <ele>389</ele>
        <time>2018-08-08T14:13:15.000Z</time>
      </trkpt>
      <trkpt lat="46.64289" lon="5.60472">
        <ele>394.1</ele>
        <time>2018-08-08T14:13:25.000Z</time>
      </trkpt>
      <trkpt lat="46.64292" lon="5.60483">
        <ele>395</ele>
        <time>2018-08-08T14:13:10.000Z</time>
      </trkpt>
      <trkpt lat="46.64292" lon="5.60487">
        <ele>398</ele>
        <time>2018-08-08T14:13:20.000Z</time>
      </trkpt>
      <trkpt lat="46.64291" lon="5.60491">
        <ele>399.1</ele>
        <time>2018-08-08T14:13:30.000Z</time>
      </trkpt>
      <trkpt lat="46.64292" lon="5.60493">
        <ele>399.6</ele>
        <time>2018-08-08T14:13:40.000Z</time>
      </trkpt>
      <trkpt lat="46.64292" lon="5.60496">
        <ele>400.4</ele>
        <time>2018-08-08T14:13:50.000Z</time>
      </trkpt>
      <trkpt lat="46.64285" lon="5.605">
        <ele>401.7</ele>
        <time>2018-08-08T14:14:00.000Z</time>
      </trkpt>
      <trkpt lat="46.64283" lon="5.60503">
        <ele>400</ele>
        <time>2018-08-08T14:13:49.000Z</time>
      </trkpt>
      <trkpt lat="46.64282" lon="5.60506">
        <ele>404</ele>
        <time>2018-08-08T14:13:59.000Z</time>
      </trkpt>
      <trkpt lat="46.64282" lon="5.60509">
        <ele>405</ele>
        <time>2018-08-08T14:14:09.000Z</time>
      </trkpt>
      <trkpt lat="46.64284" lon="5.6051">
        <ele>405.3</ele>
        <time>2018-08-08T14:14:19.000Z</time>
      </trkpt>
      <trkpt lat="46.64284" lon="5.60512">
        <ele>406</ele>
        <time>2018-08-08T14:14:29.000Z</time>
      </trkpt>
      <trkpt lat="46.64282" lon="5.60514">
        <ele>406.8</ele>
        <time>2018-08-08T14:14:39.000Z</time>
      </trkpt>
      <trkpt lat="46.64284" lon="5.60519">
        <ele>408.5</ele>
        <time>2018-08-08T14:14:49.000Z</time>
      </trkpt>
      <trkpt lat="46.64284" lon="5.60528">
        <ele>409</ele>
        <time>2018-08-08T14:14:21.000Z</time>
      </trkpt>
      <trkpt lat="46.64285" lon="5.60538">
        <ele>414.1</ele>
        <time>2018-08-08T14:14:31.000Z</time>
      </trkpt>
      <trkpt lat="46.64287" lon="5.60543">
        <ele>415.2</ele>
        <time>2018-08-08T14:14:41.000Z</time>
      </trkpt>
      <trkpt lat="46.64289" lon="5.60545">
        <ele>415.5</ele>
        <time>2018-08-08T14:14:51.000Z</time>
      </trkpt>
      <trkpt lat="46.64288" lon="5.60549">
        <ele>416.6</ele>
        <time>2018-08-08T14:15:01.000Z</time>
      </trkpt>
      <trkpt lat="46.64285" lon="5.60553">
        <ele>417</ele>
        <time>2018-08-08T14:14:52.000Z</time>
      </trkpt>
      <trkpt lat="46.64285" lon="5.60564">
        <ele>420.1</ele>
        <time>2018-08-08T14:15:02.000Z</time>
      </trkpt>
      <trkpt lat="46.64284" lon="5.60565">
        <ele>420.3</ele>
        <time>2018-08-08T14:15:12.000Z</time>
      </trkpt>
      <trkpt lat="46.64285" lon="5.60569">
        <ele>421</ele>
        <time>2018-08-08T14:15:22.000Z</time>
      </trkpt>
      <trkpt lat="46.64285" lon="5.60574">
        <ele>422</ele>
        <time>2018-08-08T14:15:32.000Z</time>
      </trkpt>
      <trkpt lat="46.64283" lon="5.60578">
        <ele>421</ele>
        <time>2018-08-08T14:15:10.000Z</time>
      </trkpt>
      <trkpt lat="46.64283" lon="5.60585">
        <ele>424.2</ele>
        <time>2018-08-08T14:15:20.000Z</time>
      </trkpt>
      <trkpt lat="46.64282" lon="5.60587">
        <ele>424.8</ele>
        <time>2018-08-08T14:15:30.000Z</time>
      </trkpt>
      <trkpt lat="46.64283" lon="5.60592">
        <ele>426</ele>
        <time>2018-08-08T14:15:40.000Z</time>
      </trkpt>
      <trkpt lat="46.64281" lon="5.60596">
        <ele>427.1</ele>
        <time>2018-08-08T14:15:50.000Z</time>
      </trkpt>
      <trkpt lat="46.64281" lon="5.60601">
        <ele>428.3</ele>
        <time>2018-08-08T14:16:00.000Z</time>
      </trkpt>
      <trkpt lat="46.64276" lon="5.60612">
        <ele>431</ele>
        <time>2018-08-08T14:15:37.000Z</time>
      </trkpt>
      <trkpt lat="46.64274" lon="5.60619">
        <ele>433.2</ele>
        <time>2018-08-08T14:15:47.000Z</time>
      </trkpt>
      <trkpt lat="46.64275" lon="5.6062">
        <ele>433.4</ele>
        <time>2018-08-08T14:15:57.000Z</time>
      </trkpt>
      <trkpt lat="46.64275" lon="5.60631">
        <ele>436.2</ele>
        <time>2018-08-08T14:16:07.000Z</time>
      </trkpt>
      <trkpt lat="46.64276" lon="5.60636">
        <ele>437.4</ele>
        <time>2018-08-08T14:16:17.000Z</time>
      </trkpt>
      <trkpt lat="46.64279" lon="5.60641">
        <ele>434</ele>
        <time>2018-08-08T14:16:27.000Z</time>
      </trkpt>
      <trkpt lat="46.64283" lon="5.60642">
        <ele>438.9</ele>
        <time>2018-08-08T14:16:37.000Z</time>
      </trkpt>
      <trkpt lat="46.64284" lon="5.60643">
        <ele>439.3</ele>
        <time>2018-08-08T14:16:47.000Z</time>
      </trkpt>
      <trkpt lat="46.64285" lon="5.60639">
        <ele>437.5</ele>
        <time>2018-08-08T14:16:57.000Z</time>
      </trkpt>
      <trkpt lat="46.64291" lon="5.60641">
        <ele>437.9</ele>
        <time>2018-08-08T14:17:07.000Z</time>
      </trkpt>
      <trkpt lat="46.64294" lon="5.60639">
        <ele>436.9</ele>
        <time>2018-08-08T14:17:17.000Z</time>
      </trkpt>
      <trkpt lat="46.64295" lon="5.60641">
        <ele>433</ele>
        <time>2018-08-08T14:17:47.000Z</time>
      </trkpt>
      <trkpt lat="46.64301" lon="5.60641">
        <ele>437.2</ele>
        <time>2018-08-08T14:17:57.000Z</time>
      </trkpt>
      <trkpt lat="46.64304" lon="5.60643">
        <ele>437.7</ele>
        <time>2018-08-08T14:18:07.000Z</time>
      </trkpt>
      <trkpt lat="46.64306" lon="5.60637">
        <ele>435.6</ele>
        <time>2018-08-08T14:18:17.000Z</time>
      </trkpt>
      <trkpt lat="46.64307" lon="5.60637">
        <ele>435.5</ele>
        <time>2018-08-08T14:18:27.000Z</time>
      </trkpt>
      <trkpt lat="46.6431" lon="5.60635">
        <ele>435</ele>
        <time>2018-08-08T14:18:37.000Z</time>
      </trkpt>
      <trkpt lat="46.64311" lon="5.60631">
        <ele>433</ele>
        <time>2018-08-08T14:18:10.000Z</time>
      </trkpt>
      <trkpt lat="46.64313" lon="5.60631">
        <ele>434</ele>
        <time>2018-08-08T14:18:20.000Z</time>
      </trkpt>
      <trkpt lat="46.64315" lon="5.60629">
        <ele>433.4</ele>
        <time>2018-08-08T14:18:30.000Z</time>
      </trkpt>
      <trkpt lat="46.64319" lon="5.60635">
        <ele>434.6</ele>
        <time>2018-08-08T14:18:40.000Z</time>
      </trkpt>
      <trkpt lat="46.64322" lon="5.60642">
        <ele>436.5</ele>
        <time>2018-08-08T14:18:50.000Z</time>
      </trkpt>
      <trkpt lat="46.64327" lon="5.60638">
        <ele>433</ele>
        <time>2018-08-08T14:18:12.000Z</time>
      </trkpt>
      <trkpt lat="46.6433" lon="5.60654">
        <ele>440.1</ele>
        <time>2018-08-08T14:18:22.000Z</time>
      </trkpt>
      <trkpt lat="46.64329" lon="5.60651">
        <ele>439.2</ele>
        <time>2018-08-08T14:18:32.000Z</time>
      </trkpt>
      <trkpt lat="46.64329" lon="5.60653">
        <ele>439.9</ele>
        <time>2018-08-08T14:18:42.000Z</time>
      </trkpt>
      <trkpt lat="46.64326" lon="5.60643">
        <ele>435</ele>
        <time>2018-08-08T14:18:29.000Z</time>
      </trkpt>
      <trkpt lat="46.64331" lon="5.60651">
        <ele>439.1</ele>
        <time>2018-08-08T14:18:39.000Z</time>
      </trkpt>
      <trkpt lat="46.64332" lon="5.60652">
        <ele>439.3</ele>
        <time>2018-08-08T14:18:49.000Z</time>
      </trkpt>
      <trkpt lat="46.64332" lon="5.6065">
        <ele>438.7</ele>
        <time>2018-08-08T14:18:59.000Z</time>
      </trkpt>
      <trkpt lat="46.6434" lon="5.60659">
        <ele>434</ele>
        <time>2018-08-08T14:18:46.000Z</time>
      </trkpt>
      <trkpt lat="46.64348" lon="5.60655">
        <ele>439.4</ele>
        <time>2018-08-08T14:18:56.000Z</time>
      </trkpt>
      <trkpt lat="46.64351" lon="5.60655">
        <ele>439.2</ele>
        <time>2018-08-08T14:19:06.000Z</time>
      </trkpt>
      <trkpt lat="46.64353" lon="5.60654">
        <ele>438.8</ele>
        <time>2018-08-08T14:19:16.000Z</time>
      </trkpt>
      <trkpt lat="46.64353" lon="5.60649">
        <ele>437.3</ele>
        <time>2018-08-08T14:19:26.000Z</time>
      </trkpt>
      <trkpt lat="46.64354" lon="5.60649">
        <ele>437.3</ele>
        <time>2018-08-08T14:19:36.000Z</time>
      </trkpt>
      <trkpt lat="46.64356" lon="5.60647">
        <ele>434</ele>
        <time>2018-08-08T14:19:12.000Z</time>
      </trkpt>
      <trkpt lat="46.6436" lon="5.60638">
        <ele>433.8</ele>
        <time>2018-08-08T14:19:22.000Z</time>
      </trkpt>
      <trkpt lat="46.64367" lon="5.60637">
        <ele>433</ele>
        <time>2018-08-08T14:19:32.000Z</time>
      </trkpt>
      <trkpt lat="46.64373" lon="5.60634">
        <ele>431</ele>
        <time>2018-08-08T14:19:31.000Z</time>
      </trkpt>
      <trkpt lat="46.64377" lon="5.60637">
        <ele>432.4</ele>
        <time>2018-08-08T14:19:41.000Z</time>
      </trkpt>
      <trkpt lat="46.64378" lon="5.60633">
        <ele>431.2</ele>
        <time>2018-08-08T14:19:51.000Z</time>
      </trkpt>
      <trkpt lat="46.64384" lon="5.6063">
        <ele>430.1</ele>
        <time>2018-08-08T14:20:01.000Z</time>
      </trkpt>
      <trkpt lat="46.64385" lon="5.60631">
        <ele>430.3</ele>
        <time>2018-08-08T14:20:11.000Z</time>
      </trkpt>
      <trkpt lat="46.64386" lon="5.60628">
        <ele>429.4</ele>
        <time>2018-08-08T14:20:21.000Z</time>
      </trkpt>
      <trkpt lat="46.64398" lon="5.60631">
        <ele>431</ele>
        <time>2018-08-08T14:20:17.000Z</time>
      </trkpt>
      <trkpt lat="46.64401" lon="5.60633">
        <ele>430</ele>
        <time>2018-08-08T14:20:27.000Z</time>
      </trkpt>
      <trkpt lat="46.64403" lon="5.6063">
        <ele>429.1</ele>
        <time>2018-08-08T14:20:37.000Z</time>
      </trkpt>
      <trkpt lat="46.64406" lon="5.60631">
        <ele>429.2</ele>
        <time>2018-08-08T14:20:47.000Z</time>
      </trkpt>
      <trkpt lat="46.6441" lon="5.60634">
        <ele>429.9</ele>
        <time>2018-08-08T14:20:57.000Z</time>
      </trkpt>
      <trkpt lat="46.64414" lon="5.60643">
        <ele>431</ele>
        <time>2018-08-08T14:20:46.000Z</time>
      </trkpt>
      <trkpt lat="46.64416" lon="5.60646">
        <ele>432.8</ele>
        <time>2018-08-08T14:20:56.000Z</time>
      </trkpt>
      <trkpt lat="46.64417" lon="5.60646">
        <ele>432.8</ele>
        <time>2018-08-08T14:21:06.000Z</time>
      </trkpt>
      <trkpt lat="46.64422" lon="5.60637">
        <ele>430.1</ele>
        <time>2018-08-08T14:21:16.000Z</time>
      </trkpt>
      <trkpt lat="46.64428" lon="5.60639">
        <ele>430.2</ele>
        <time>2018-08-08T14:21:26.000Z</time>
      </trkpt>
      <trkpt lat="46.64431" lon="5.60645">
        <ele>430</ele>
        <time>2018-08-08T14:20:45.000Z</time>
      </trkpt>
      <trkpt lat="46.64436" lon="5.6065">
        <ele>432.4</ele>
        <time>2018-08-08T14:20:55.000Z</time>
      </trkpt>
      <trkpt lat="46.64438" lon="5.60651">
        <ele>432.5</ele>
        <time>2018-08-08T14:21:05.000Z</time>
      </trkpt>
      <trkpt lat="46.64439" lon="5.60651">
        <ele>432.4</ele>
        <time>2018-08-08T14:21:15.000Z</time>
      </trkpt>
      <trkpt lat="46.6444" lon="5.60639">
        <ele>429.3</ele>
        <time>2018-08-08T14:21:25.000Z</time>
      </trkpt>
      <trkpt lat="46.64442" lon="5.60635">
        <ele>427</ele>
        <time>2018-08-08T14:20:57.000Z</time>
      </trkpt>
      <trkpt lat="46.64444" lon="5.60633">
        <ele>427.5</ele>
        <time>2018-08-08T14:21:07.000Z</time>
      </trkpt>
      <trkpt lat="46.64447" lon="5.60633">
        <ele>427.4</ele>
        <time>2018-08-08T14:21:17.000Z</time>
      </trkpt>
      <trkpt lat="46.64448" lon="5.60632">
        <ele>427.1</ele>
        <time>2018-08-08T14:21:27.000Z</time>
      </trkpt>
      <trkpt lat="46.64455" lon="5.60631">
        <ele>426.6</ele>
        <time>2018-08-08T14:21:37.000Z</time>
      </trkpt>
      <trkpt lat="46.64456" lon="5.6063">
        <ele>426.3</ele>
        <time>2018-08-08T14:21:47.000Z</time>
      </trkpt>
      <trkpt lat="46.6446" lon="5.60631">
        <ele>427</ele>
        <time>2018-08-08T14:21:12.000Z</time>
      </trkpt>
      <trkpt lat="46.64465" lon="5.60629">
        <ele>425.8</ele>
        <time>2018-08-08T14:21:22.000Z</time>
      </trkpt>
      <trkpt lat="46.64474" lon="5.60628">
        <ele>425.2</ele>
        <time>2018-08-08T14:21:32.000Z</time>
      </trkpt>
      <trkpt lat="46.64474" lon="5.60627">
        <ele>424.9</ele>
        <time>2018-08-08T14:21:42.000Z</time>
      </trkpt>
      <trkpt lat="46.64478" lon="5.60627">
        <ele>426</ele>
        <time>2018-08-08T14:21:52.000Z</time>
      </trkpt>
      <trkpt lat="46.64484" lon="5.60632">
        <ele>425.8</ele>
        <time>2018-08-08T14:22:02.000Z</time>
      </trkpt>
      <trkpt lat="46.64488" lon="5.60634">
        <ele>426.2</ele>
        <time>2018-08-08T14:22:12.000Z</time>
      </trkpt>
      <trkpt lat="46.64491" lon="5.60637">
        <ele>426.8</ele>
        <time>2018-08-08T14:22:22.000Z</time>
      </trkpt>
      <trkpt lat="46.64495" lon="5.60636">
        <ele>426</ele>
        <time>2018-08-08T14:22:14.000Z</time>
      </trkpt>
      <trkpt lat="46.64496" lon="5.60637">
        <ele>426.7</ele>
        <time>2018-08-08T14:22:24.000Z</time>
      </trkpt>
      <trkpt lat="46.64501" lon="5.60639">
        <ele>427</ele>
        <time>2018-08-08T14:22:34.000Z</time>
      </trkpt>
      <trkpt lat="46.64502" lon="5.60638">
        <ele>426.7</ele>
        <time>2018-08-08T14:22:44.000Z</time>
      </trkpt>
      <trkpt lat="46.64509" lon="5.60646">
        <ele>428.3</ele>
        <time>2018-08-08T14:22:54.000Z</time>
      </trkpt>
      <trkpt lat="46.64511" lon="5.60645">
        <ele>426</ele>
        <time>2018-08-08T14:22:12.000Z</time>
      </trkpt>
      <trkpt lat="46.64515" lon="5.60648">
        <ele>428.6</ele>
        <time>2018-08-08T14:22:22.000Z</time>
      </trkpt>
      <trkpt lat="46.6452" lon="5.60653">
        <ele>429.7</ele>
        <time>2018-08-08T14:22:32.000Z</time>
      </trkpt>
      <trkpt lat="46.64523" lon="5.60653">
        <ele>429.6</ele>
        <time>2018-08-08T14:22:42.000Z</time>
      </trkpt>
      <trkpt lat="46.64524" lon="5.60649">
        <ele>428.6</ele>
        <time>2018-08-08T14:22:52.000Z</time>
      </trkpt>
      <trkpt lat="46.64524" lon="5.60647">
        <ele>428.1</ele>
        <time>2018-08-08T14:23:02.000Z</time>
      </trkpt>
      <trkpt lat="46.64525" lon="5.60645">
        <ele>426</ele>
        <time>2018-08-08T14:22:53.000Z</time>
      </trkpt>
      <trkpt lat="46.64529" lon="5.60643">
        <ele>427</ele>
        <time>2018-08-08T14:23:03.000Z</time>
      </trkpt>
      <trkpt lat="46.64531" lon="5.60641">
        <ele>426.4</ele>
        <time>2018-08-08T14:23:13.000Z</time>
      </trkpt>
      <trkpt lat="46.64533" lon="5.60641">
        <ele>426.3</ele>
        <time>2018-08-08T14:23:23.000Z</time>
      </trkpt>
      <trkpt lat="46.64535" lon="5.60643">
        <ele>426.8</ele>
        <time>2018-08-08T14:23:33.000Z</time>
      </trkpt>
      <trkpt lat="46.64543" lon="5.6064">
        <ele>423</ele>
        <time>2018-08-08T14:22:48.000Z</time>
      </trkpt>
      <trkpt lat="46.64549" lon="5.6064">
        <ele>425.5</ele>
        <time>2018-08-08T14:22:58.000Z</time>
      </trkpt>
      <trkpt lat="46.64552" lon="5.60642">
        <ele>425.9</ele>
        <time>2018-08-08T14:23:08.000Z</time>
      </trkpt>
      <trkpt lat="46.64553" lon="5.60642">
        <ele>425.9</ele>
        <time>2018-08-08T14:23:18.000Z</time>
      </trkpt>
      <trkpt lat="46.64561" lon="5.60634">
        <ele>423</ele>
        <time>2018-08-08T14:23:10.000Z</time>
      </trkpt>
      <trkpt lat="46.64565" lon="5.60632">
        <ele>424.3</ele>
        <time>2018-08-08T14:23:20.000Z</time>
      </trkpt>
      <trkpt lat="46.64574" lon="5.60638">
        <ele>426.7</ele>
        <time>2018-08-08T14:23:30.000Z</time>
      </trkpt>
      <trkpt lat="46.64577" lon="5.60638">
        <ele>427</ele>
        <time>2018-08-08T14:23:40.000Z</time>
      </trkpt>
      <trkpt lat="46.6458" lon="5.60637">
        <ele>424</ele>
        <time>2018-08-08T14:23:41.000Z</time>
      </trkpt>
      <trkpt lat="46.64585" lon="5.60638">
        <ele>427.7</ele>
        <time>2018-08-08T14:23:51.000Z</time>
      </trkpt>
      <trkpt lat="46.64587" lon="5.6064">
        <ele>428.4</ele>
        <time>2018-08-08T14:24:01.000Z</time>
      </trkpt>
      <trkpt lat="46.6459" lon="5.60639">
        <ele>428</ele>
        <time>2018-08-08T14:24:11.000Z</time>
      </trkpt>
      <trkpt lat="46.64592" lon="5.60642">
        <ele>429</ele>
        <time>2018-08-08T14:24:21.000Z</time>
      </trkpt>
      <trkpt lat="46.64597" lon="5.60646">
        <ele>429</ele>
        <time>2018-08-08T14:23:47.000Z</time>
      </trkpt>
      <trkpt lat="46.646" lon="5.60646">
        <ele>430.3</ele>
        <time>2018-08-08T14:23:57.000Z</time>
      </trkpt>
      <trkpt lat="46.64603" lon="5.60653">
        <ele>432.6</ele>
        <time>2018-08-08T14:24:07.000Z</time>
      </trkpt>
      <trkpt lat="46.64605" lon="5.6066">
        <ele>434.8</ele>
        <time>2018-08-08T14:24:17.000Z</time>
      </trkpt>
      <trkpt lat="46.64605" lon="5.60663">
        <ele>435.8</ele>
        <time>2018-08-08T14:24:27.000Z</time>
      </trkpt>
      <trkpt lat="46.64607" lon="5.60669">
        <ele>437</ele>
        <time>2018-08-08T14:24:17.000Z</time>
      </trkpt>
      <trkpt lat="46.64603" lon="5.60675">
        <ele>440.2</ele>
        <time>2018-08-08T14:24:27.000Z</time>
      </trkpt>
      <trkpt lat="46.64603" lon="5.60678">
        <ele>441.4</ele>
        <time>2018-08-08T14:24:37.000Z</time>
      </trkpt>
      <trkpt lat="46.64599" lon="5.60682">
        <ele>443.4</ele>
        <time>2018-08-08T14:24:47.000Z</time>
      </trkpt>
      <trkpt lat="46.646" lon="5.60684">
        <ele>444.1</ele>
        <time>2018-08-08T14:24:57.000Z</time>
      </trkpt>
      <trkpt lat="46.64597" lon="5.6069">
        <ele>444</ele>
        <time>2018-08-08T14:24:40.000Z</time>
      </trkpt>
      <trkpt lat="46.64594" lon="5.60689">
        <ele>447.2</ele>
        <time>2018-08-08T14:24:50.000Z</time>
      </trkpt>
      <trkpt lat="46.6459" lon="5.60693">
        <ele>449.9</ele>
        <time>2018-08-08T14:25:00.000Z</time>
      </trkpt>
      <trkpt lat="46.64591" lon="5.607">
        <ele>452.6</ele>
        <time>2018-08-08T14:25:10.000Z</time>
      </trkpt>
      <trkpt lat="46.64591" lon="5.60704">
        <ele>454.3</ele>
        <time>2018-08-08T14:25:20.000Z</time>
      </trkpt>
      <trkpt lat="46.6459" lon="5.60706">
        <ele>455.4</ele>
        <time>2018-08-08T14:25:30.000Z</time>
      </trkpt>
      <trkpt lat="46.64589" lon="5.60706">
        <ele>455.6</ele>
        <time>2018-08-08T14:25:40.000Z</time>
      </trkpt>
      <trkpt lat="46.64584" lon="5.60701">
        <ele>454</ele>
        <time>2018-08-08T14:25:27.000Z</time>
      </trkpt>
      <trkpt lat="46.64581" lon="5.60711">
        <ele>459.2</ele>
        <time>2018-08-08T14:25:37.000Z</time>
      </trkpt>
      <trkpt lat="46.64582" lon="5.60717">
        <ele>461.8</ele>
        <time>2018-08-08T14:25:47.000Z</time>
      </trkpt>
      <trkpt lat="46.64583" lon="5.60718">
        <ele>462.2</ele>
        <time>2018-08-08T14:25:57.000Z</time>
      </trkpt>
      <trkpt lat="46.64582" lon="5.6072">
        <ele>463.2</ele>
        <time>2018-08-08T14:26:07.000Z</time>
      </trkpt>
      <trkpt lat="46.64582" lon="5.60726">
        <ele>464</ele>
        <time>2018-08-08T14:26:01.000Z</time>
      </trkpt>
      <trkpt lat="46.6458" lon="5.60727">
        <ele>466.6</ele>
        <time>2018-08-08T14:26:11.000Z</time>
      </trkpt>
      <trkpt lat="46.64579" lon="5.6073">
        <ele>468.2</ele>
        <time>2018-08-08T14:26:21.000Z</time>
      </trkpt>
      <trkpt lat="46.64575" lon="5.6073">
        <ele>468.7</ele>
        <time>2018-08-08T14:26:31.000Z</time>
      </trkpt>
      <trkpt lat="46.64576" lon="5.60731">
        <ele>469.1</ele>
        <time>2018-08-08T14:26:41.000Z</time>
      </trkpt>
      <trkpt lat="46.64589" lon="5.60731">
        <ele>465</ele>
        <time>2018-08-08T14:26:13.000Z</time>
      </trkpt>
      <trkpt lat="46.64591" lon="5.60729">
        <ele>464.8</ele>
        <time>2018-08-08T14:26:23.000Z</time>
      </trkpt>
      <trkpt lat="46.64597" lon="5.60732">
        <ele>464.3</ele>
        <time>2018-08-08T14:26:33.000Z</time>
      </trkpt>
      <trkpt lat="46.64597" lon="5.60734">
        <ele>465.2</ele>
        <time>2018-08-08T14:26:43.000Z</time>
      </trkpt>
      <trkpt lat="46.64599" lon="5.60741">
        <ele>467.5</ele>
        <time>2018-08-08T14:26:53.000Z</time>
      </trkpt>
      <trkpt lat="46.646" lon="5.60744">
        <ele>468.5</ele>
        <time>2018-08-08T14:27:03.000Z</time>
      </trkpt>
      <trkpt lat="46.64602" lon="5.60747">
        <ele>467</ele>
        <time>2018-08-08T14:26:59.000Z</time>
      </trkpt>
      <trkpt lat="46.64601" lon="5.60749">
        <ele>470.2</ele>
        <time>2018-08-08T14:27:09.000Z</time>
      </trkpt>
      <trkpt lat="46.64603" lon="5.60751">
        <ele>470.3</ele>
        <time>2018-08-08T14:27:19.000Z</time>
      </trkpt>
      <trkpt lat="46.64605" lon="5.60761">
        <ele>473</ele>
        <time>2018-08-08T14:27:29.000Z</time>
      </trkpt>
      <trkpt lat="46.64605" lon="5.60763">
        <ele>473.7</ele>
        <time>2018-08-08T14:27:39.000Z</time>
      </trkpt>
      <trkpt lat="46.64608" lon="5.60764">
        <ele>473</ele>
        <time>2018-08-08T14:27:49.000Z</time>
      </trkpt>
      <trkpt lat="46.6461" lon="5.60769">
        <ele>469</ele>
        <time>2018-08-08T14:27:19.000Z</time>
      </trkpt>
      <trkpt lat="46.64617" lon="5.60773">
        <ele>474.5</ele>
        <time>2018-08-08T14:27:29.000Z</time>
      </trkpt>
      <trkpt lat="46.64624" lon="5.60775">
        <ele>474.4</ele>
        <time>2018-08-08T14:27:39.000Z</time>
      </trkpt>
      <trkpt lat="46.6464" lon="5.60776">
        <ele>472</ele>
        <time>2018-08-08T14:28:09.000Z</time>
      </trkpt>
      <trkpt lat="46.64658" lon="5.60779">
        <ele>472.7</ele>
        <time>2018-08-08T14:28:19.000Z</time>
      </trkpt>
      <trkpt lat="46.64682" lon="5.60781">
        <ele>473</ele>
        <time>2018-08-08T14:28:06.000Z</time>
      </trkpt>
      <trkpt lat="46.647" lon="5.60788">
        <ele>473</ele>
        <time>2018-08-08T14:28:13.000Z</time>
      </trkpt>
      <trkpt lat="46.64702" lon="5.60791">
        <ele>471.4</ele>
        <time>2018-08-08T14:28:23.000Z</time>
      </trkpt>
      <trkpt lat="46.64705" lon="5.60806">
        <ele>471.5</ele>
        <time>2018-08-08T14:28:33.000Z</time>
      </trkpt>
      <trkpt lat="46.64704" lon="5.60821">
        <ele>468</ele>
        <time>2018-08-08T14:28:29.000Z</time>
      </trkpt>
      <trkpt lat="46.64704" lon="5.60834">
        <ele>473.7</ele>
        <time>2018-08-08T14:28:39.000Z</time>
      </trkpt>
      <trkpt lat="46.64703" lon="5.60839">
        <ele>474.6</ele>
        <time>2018-08-08T14:28:49.000Z</time>
      </trkpt>
      <trkpt lat="46.64701" lon="5.60841">
        <ele>474</ele>
        <time>2018-08-08T14:28:59.000Z</time>
      </trkpt>
      <trkpt lat="46.647" lon="5.60843">
        <ele>474.1</ele>
        <time>2018-08-08T14:29:09.000Z</time>
      </trkpt>
      <trkpt lat="46.64698" lon="5.60843">
        <ele>467</ele>
        <time>2018-08-08T14:28:44.000Z</time>
      </trkpt>
      <trkpt lat="46.64689" lon="5.6085">
        <ele>473.8</ele>
        <time>2018-08-08T14:28:54.000Z</time>
      </trkpt>
      <trkpt lat="46.64684" lon="5.60851">
        <ele>475</ele>
        <time>2018-08-08T14:29:04.000Z</time>
      </trkpt>
      <trkpt lat="46.64683" lon="5.60845">
        <ele>467</ele>
        <time>2018-08-08T14:28:58.000Z</time>
      </trkpt>
      <trkpt lat="46.64683" lon="5.60838">
        <ele>471.4</ele>
        <time>2018-08-08T14:29:08.000Z</time>
      </trkpt>
      <trkpt lat="46.64687" lon="5.60813">
        <ele>462</ele>
        <time>2018-08-08T14:29:38.000Z</time>
      </trkpt>
      <trkpt lat="46.64687" lon="5.60804">
        <ele>469.5</ele>
        <time>2018-08-08T14:29:48.000Z</time>
      </trkpt>
      <trkpt lat="46.64681" lon="5.60733">
        <ele>442</ele>
        <time>2018-08-08T14:30:08.000Z</time>
      </trkpt>
      <trkpt lat="46.6469" lon="5.60691">
        <ele>428</ele>
        <time>2018-08-08T14:30:28.000Z</time>
      </trkpt>
      <trkpt lat="46.64694" lon="5.60684">
        <ele>430.9</ele>
        <time>2018-08-08T14:30:38.000Z</time>
      </trkpt>
      <trkpt lat="46.64703" lon="5.60664">
        <ele>427</ele>
        <time>2018-08-08T14:30:58.000Z</time>
      </trkpt>
      <trkpt lat="46.64712" lon="5.60658">
        <ele>429.3</ele>
        <time>2018-08-08T14:31:08.000Z</time>
      </trkpt>
      <trkpt lat="46.64731" lon="5.60634">
        <ele>426</ele>
        <time>2018-08-08T14:31:08.000Z</time>
      </trkpt>
      <trkpt lat="46.64743" lon="5.60627">
        <ele>425.6</ele>
        <time>2018-08-08T14:31:18.000Z</time>
      </trkpt>
      <trkpt lat="46.64747" lon="5.60624">
        <ele>425</ele>
        <time>2018-08-08T14:31:28.000Z</time>
      </trkpt>
      <trkpt lat="46.64752" lon="5.60611">
        <ele>420</ele>
        <time>2018-08-08T14:31:48.000Z</time>
      </trkpt>
      <trkpt lat="46.64759" lon="5.60606">
        <ele>418.4</ele>
        <time>2018-08-08T14:31:58.000Z</time>
      </trkpt>
      <trkpt lat="46.64761" lon="5.60595">
        <ele>415.5</ele>
        <time>2018-08-08T14:32:08.000Z</time>
      </trkpt>
      <trkpt lat="46.64767" lon="5.60591">
        <ele>413</ele>
        <time>2018-08-08T14:31:28.000Z</time>
      </trkpt>
      <trkpt lat="46.64772" lon="5.60583">
        <ele>412.1</ele>
        <time>2018-08-08T14:31:38.000Z</time>
      </trkpt>
      <trkpt lat="46.64773" lon="5.60577">
        <ele>410.5</ele>
        <time>2018-08-08T14:31:48.000Z</time>
      </trkpt>
      <trkpt lat="46.64781" lon="5.60566">
        <ele>405</ele>
        <time>2018-08-08T14:31:37.000Z</time>
      </trkpt>
      <trkpt lat="46.64786" lon="5.60565">
        <ele>406.8</ele>
        <time>2018-08-08T14:31:47.000Z</time>
      </trkpt>
      <trkpt lat="46.64796" lon="5.60565">
        <ele>406.1</ele>
        <time>2018-08-08T14:31:57.000Z</time>
      </trkpt>
      <trkpt lat="46.64801" lon="5.60563">
        <ele>404</ele>
        <time>2018-08-08T14:31:44.000Z</time>
      </trkpt>
      <trkpt lat="46.64811" lon="5.60555">
        <ele>403.3</ele>
        <time>2018-08-08T14:31:54.000Z</time>
      </trkpt>
      <trkpt lat="46.64819" lon="5.60543">
        <ele>399</ele>
        <time>2018-08-08T14:32:01.000Z</time>
      </trkpt>
      <trkpt lat="46.6483" lon="5.60535">
        <ele>399</ele>
        <time>2018-08-08T14:32:11.000Z</time>
      </trkpt>
      <trkpt lat="46.64846" lon="5.60522">
        <ele>396</ele>
        <time>2018-08-08T14:32:10.000Z</time>
      </trkpt>
      <trkpt lat="46.64884" lon="5.60502">
        <ele>393</ele>
        <time>2018-08-08T14:32:15.000Z</time>
      </trkpt>
      <trkpt lat="46.64893" lon="5.60492">
        <ele>392.6</ele>
        <time>2018-08-08T14:32:25.000Z</time>
      </trkpt>
      <trkpt lat="46.64913" lon="5.60484">
        <ele>391</ele>
        <time>2018-08-08T14:32:26.000Z</time>
      </trkpt>
      <trkpt lat="46.64918" lon="5.6048">
        <ele>391.7</ele>
        <time>2018-08-08T14:32:36.000Z</time>
      </trkpt>
      <trkpt lat="46.64932" lon="5.60473">
        <ele>390</ele>
        <time>2018-08-08T14:32:33.000Z</time>
      </trkpt>
      <trkpt lat="46.64952" lon="5.60475">
        <ele>390</ele>
        <time>2018-08-08T14:32:39.000Z</time>
      </trkpt>
      <trkpt lat="46.64964" lon="5.60469">
        <ele>391.4</ele>
        <time>2018-08-08T14:32:49.000Z</time>
      </trkpt>
      <trkpt lat="46.64974" lon="5.6047">
        <ele>391</ele>
        <time>2018-08-08T14:32:47.000Z</time>
      </trkpt>
      <trkpt lat="46.64993" lon="5.60467">
        <ele>392</ele>
        <time>2018-08-08T14:32:53.000Z</time>
      </trkpt>
      <trkpt lat="46.65007" lon="5.60467">
        <ele>395.8</ele>
        <time>2018-08-08T14:33:03.000Z</time>
      </trkpt>
      <trkpt lat="46.65024" lon="5.60461">
        <ele>389</ele>
        <time>2018-08-08T14:33:02.000Z</time>
      </trkpt>
      <trkpt lat="46.65032" lon="5.60454">
        <ele>395.6</ele>
        <time>2018-08-08T14:33:12.000Z</time>
      </trkpt>
      <trkpt lat="46.65054" lon="5.60428">
        <ele>388</ele>
        <time>2018-08-08T14:33:12.000Z</time>
      </trkpt>
      <trkpt lat="46.65072" lon="5.60414">
        <ele>388</ele>
        <time>2018-08-08T14:33:18.000Z</time>
      </trkpt>
      <trkpt lat="46.6508" lon="5.60413">
        <ele>388.4</ele>
        <time>2018-08-08T14:33:28.000Z</time>
      </trkpt>
      <trkpt lat="46.65089" lon="5.60406">
        <ele>387.1</ele>
        <time>2018-08-08T14:33:38.000Z</time>
      </trkpt>
      <trkpt lat="46.651" lon="5.604">
        <ele>383</ele>
        <time>2018-08-08T14:33:27.000Z</time>
      </trkpt>
      <trkpt lat="46.65115" lon="5.60384">
        <ele>383</ele>
        <time>2018-08-08T14:33:31.000Z</time>
      </trkpt>
      <trkpt lat="46.65139" lon="5.60373">
        <ele>381</ele>
        <time>2018-08-08T14:33:39.000Z</time>
      </trkpt>
      <trkpt lat="46.65148" lon="5.60366">
        <ele>381.8</ele>
        <time>2018-08-08T14:33:49.000Z</time>
      </trkpt>
      <trkpt lat="46.65157" lon="5.60352">
        <ele>378</ele>
        <time>2018-08-08T14:33:48.000Z</time>
      </trkpt>
      <trkpt lat="46.65166" lon="5.60332">
        <ele>373.6</ele>
        <time>2018-08-08T14:33:58.000Z</time>
      </trkpt>
      <trkpt lat="46.65168" lon="5.60317">
        <ele>367</ele>
        <time>2018-08-08T14:33:56.000Z</time>
      </trkpt>
      <trkpt lat="46.65171" lon="5.60309">
        <ele>368.3</ele>
        <time>2018-08-08T14:34:06.000Z</time>
      </trkpt>
      <trkpt lat="46.65173" lon="5.60297">
        <ele>365.6</ele>
        <time>2018-08-08T14:34:16.000Z</time>
      </trkpt>
      <trkpt lat="46.65177" lon="5.60287">
        <ele>360</ele>
        <time>2018-08-08T14:34:02.000Z</time>
      </trkpt>
      <trkpt lat="46.65183" lon="5.60277">
        <ele>362.1</ele>
        <time>2018-08-08T14:34:12.000Z</time>
      </trkpt>
      <trkpt lat="46.65186" lon="5.60269">
        <ele>359.9</ele>
        <time>2018-08-08T14:34:22.000Z</time>
      </trkpt>
      <trkpt lat="46.65193" lon="5.60258">
        <ele>354</ele>
        <time>2018-08-08T14:34:11.000Z</time>
      </trkpt>
      <trkpt lat="46.65196" lon="5.6025">
        <ele>355.3</ele>
        <time>2018-08-08T14:34:21.000Z</time>
      </trkpt>
      <trkpt lat="46.65203" lon="5.60243">
        <ele>355</ele>
        <time>2018-08-08T14:34:31.000Z</time>
      </trkpt>
      <trkpt lat="46.65204" lon="5.6024">
        <ele>354.4</ele>
        <time>2018-08-08T14:34:41.000Z</time>
      </trkpt>
      <trkpt lat="46.6521" lon="5.60231">
        <ele>352</ele>
        <time>2018-08-08T14:34:21.000Z</time>
      </trkpt>
      <trkpt lat="46.65216" lon="5.6022">
        <ele>350.1</ele>
        <time>2018-08-08T14:34:31.000Z</time>
      </trkpt>
      <trkpt lat="46.6522" lon="5.6021">
        <ele>348.2</ele>
        <time>2018-08-08T14:34:41.000Z</time>
      </trkpt>
      <trkpt lat="46.65228" lon="5.60199">
        <ele>343</ele>
        <time>2018-08-08T14:34:31.000Z</time>
      </trkpt>
      <trkpt lat="46.65236" lon="5.60194">
        <ele>345.9</ele>
        <time>2018-08-08T14:34:41.000Z</time>
      </trkpt>
      <trkpt lat="46.65241" lon="5.60188">
        <ele>344.8</ele>
        <time>2018-08-08T14:34:51.000Z</time>
      </trkpt>
      <trkpt lat="46.65255" lon="5.60176">
        <ele>340</ele>
        <time>2018-08-08T14:34:42.000Z</time>
      </trkpt>
      <trkpt lat="46.65262" lon="5.60168">
        <ele>340.2</ele>
        <time>2018-08-08T14:34:52.000Z</time>
      </trkpt>
      <trkpt lat="46.65275" lon="5.60158">
        <ele>336</ele>
        <time>2018-08-08T14:34:50.000Z</time>
      </trkpt>
      <trkpt lat="46.65283" lon="5.60139">
        <ele>334.6</ele>
        <time>2018-08-08T14:35:00.000Z</time>
      </trkpt>
      <trkpt lat="46.65288" lon="5.60121">
        <ele>332</ele>
        <time>2018-08-08T14:34:56.000Z</time>
      </trkpt>
      <trkpt lat="46.65296" lon="5.60114">
        <ele>331.3</ele>
        <time>2018-08-08T14:35:06.000Z</time>
      </trkpt>
      <trkpt lat="46.65304" lon="5.60115">
        <ele>330.6</ele>
        <time>2018-08-08T14:35:16.000Z</time>
      </trkpt>
      <trkpt lat="46.65324" lon="5.6012">
        <ele>327</ele>
        <time>2018-08-08T14:35:11.000Z</time>
      </trkpt>
      <trkpt lat="46.65334" lon="5.60121">
        <ele>327</ele>
        <time>2018-08-08T14:35:21.000Z</time>
      </trkpt>
      <trkpt lat="46.65351" lon="5.60125">
        <ele>327</ele>
        <time>2018-08-08T14:35:22.000Z</time>
      </trkpt>
      <trkpt lat="46.65356" lon="5.60138">
        <ele>325.7</ele>
        <time>2018-08-08T14:35:32.000Z</time>
      </trkpt>
      <trkpt lat="46.65367" lon="5.60159">
        <ele>327</ele>
        <time>2018-08-08T14:35:33.000Z</time>
      </trkpt>
      <trkpt lat="46.65382" lon="5.60193">
        <ele>327</ele>
        <time>2018-08-08T14:35:45.000Z</time>
      </trkpt>
      <trkpt lat="46.65387" lon="5.60201">
        <ele>328.9</ele>
        <time>2018-08-08T14:35:55.000Z</time>
      </trkpt>
      <trkpt lat="46.65396" lon="5.60212">
        <ele>328</ele>
        <time>2018-08-08T14:35:53.000Z</time>
      </trkpt>
      <trkpt lat="46.65411" lon="5.60236">
        <ele>329</ele>
        <time>2018-08-08T14:36:03.000Z</time>
      </trkpt>
      <trkpt lat="46.65414" lon="5.6024">
        <ele>330.1</ele>
        <time>2018-08-08T14:36:13.000Z</time>
      </trkpt>
      <trkpt lat="46.6545" lon="5.60265">
        <ele>330</ele>
        <time>2018-08-08T14:36:23.000Z</time>
      </trkpt>
      <trkpt lat="46.65477" lon="5.6031">
        <ele>331</ele>
        <time>2018-08-08T14:36:33.000Z</time>
      </trkpt>
      <trkpt lat="46.65494" lon="5.60358">
        <ele>333</ele>
        <time>2018-08-08T14:36:43.000Z</time>
      </trkpt>
      <trkpt lat="46.65512" lon="5.60409">
        <ele>334</ele>
        <time>2018-08-08T14:36:53.000Z</time>
      </trkpt>
      <trkpt lat="46.65532" lon="5.60457">
        <ele>336</ele>
        <time>2018-08-08T14:37:03.000Z</time>
      </trkpt>
      <trkpt lat="46.65548" lon="5.60489">
        <ele>336</ele>
        <time>2018-08-08T14:37:13.000Z</time>
      </trkpt>
      <trkpt lat="46.6556" lon="5.60506">
        <ele>336.5</ele>
        <time>2018-08-08T14:37:23.000Z</time>
      </trkpt>
      <trkpt lat="46.65572" lon="5.60514">
        <ele>336</ele>
        <time>2018-08-08T14:37:33.000Z</time>
      </trkpt>
      <trkpt lat="46.65579" lon="5.60524">
        <ele>337</ele>
        <time>2018-08-08T14:37:43.000Z</time>
      </trkpt>
      <trkpt lat="46.65583" lon="5.60536">
        <ele>336</ele>
        <time>2018-08-08T14:37:53.000Z</time>
      </trkpt>
      <trkpt lat="46.6559" lon="5.60549">
        <ele>338.9</ele>
        <time>2018-08-08T14:38:03.000Z</time>
      </trkpt>
      <trkpt lat="46.656" lon="5.60585">
        <ele>341</ele>
        <time>2018-08-08T14:38:13.000Z</time>
      </trkpt>
      <trkpt lat="46.65608" lon="5.60618">
        <ele>344</ele>
        <time>2018-08-08T14:38:23.000Z</time>
      </trkpt>
      <trkpt lat="46.65619" lon="5.60643">
        <ele>342</ele>
        <time>2018-08-08T14:38:33.000Z</time>
        <extensions>
          <visugpx:TrkExtension xmlns:visugpx="https://www.visugpx.com/editgpx/">
            <visugpx:node>1</visugpx:node>
            </visugpx:TrkExtension>
        </extensions>
      </trkpt>
      <trkpt lat="46.65613" lon="5.6066">
        <ele>348.5</ele>
      </trkpt>
      <trkpt lat="46.65609" lon="5.60682">
        <ele>350.9</ele>
      </trkpt>
      <trkpt lat="46.65604" lon="5.60703">
        <ele>353.9</ele>
      </trkpt>
      <trkpt lat="46.65599" lon="5.60723">
        <ele>356.9</ele>
      </trkpt>
      <trkpt lat="46.65593" lon="5.60745">
        <ele>359.2</ele>
      </trkpt>
      <trkpt lat="46.65588" lon="5.60769">
        <ele>359.4</ele>
      </trkpt>
      <trkpt lat="46.65584" lon="5.60789">
        <ele>361.6</ele>
      </trkpt>
      <trkpt lat="46.65578" lon="5.60811">
        <ele>364.2</ele>
      </trkpt>
      <trkpt lat="46.65581" lon="5.60818">
        <ele>363.9</ele>
      </trkpt>
      <trkpt lat="46.65579" lon="5.60867">
        <ele>370.5</ele>
      </trkpt>
      <trkpt lat="46.65578" lon="5.60924">
        <ele>379.1</ele>
      </trkpt>
      <trkpt lat="46.65567" lon="5.60988">
        <ele>386.1</ele>
      </trkpt>
      <trkpt lat="46.65547" lon="5.61039">
        <ele>393.1</ele>
      </trkpt>
      <trkpt lat="46.6552" lon="5.61122">
        <ele>406.4</ele>
      </trkpt>
      <trkpt lat="46.6551" lon="5.6118">
        <ele>417.5</ele>
      </trkpt>
      <trkpt lat="46.65512" lon="5.61216">
        <ele>425.2</ele>
      </trkpt>
      <trkpt lat="46.65524" lon="5.61236">
        <ele>432.5</ele>
      </trkpt>
      <trkpt lat="46.65522" lon="5.6127">
        <ele>440.1</ele>
      </trkpt>
      <trkpt lat="46.65518" lon="5.6129">
        <ele>443.5</ele>
      </trkpt>
      <trkpt lat="46.65514" lon="5.61297">
        <ele>444.4</ele>
      </trkpt>
      <trkpt lat="46.65516" lon="5.61304">
        <ele>444.9</ele>
      </trkpt>
      <trkpt lat="46.65521" lon="5.61304">
        <ele>444.8</ele>
      </trkpt>
      <trkpt lat="46.65523" lon="5.61306">
        <ele>445</ele>
      </trkpt>
      <trkpt lat="46.65524" lon="5.61313">
        <ele>445.6</ele>
      </trkpt>
      <trkpt lat="46.65514" lon="5.61325">
        <ele>446.7</ele>
      </trkpt>
      <trkpt lat="46.65503" lon="5.6133">
        <ele>447.5</ele>
      </trkpt>
      <trkpt lat="46.65503" lon="5.61341">
        <ele>449.8</ele>
      </trkpt>
      <trkpt lat="46.65497" lon="5.6135">
        <ele>452.9</ele>
      </trkpt>
      <trkpt lat="46.65473" lon="5.61331">
        <ele>457.1</ele>
      </trkpt>
      <trkpt lat="46.65463" lon="5.61339">
        <ele>466.1</ele>
      </trkpt>
      <trkpt lat="46.65471" lon="5.61368">
        <ele>470.3</ele>
      </trkpt>
      <trkpt lat="46.65474" lon="5.61375">
        <ele>471.2</ele>
        <extensions>
          <visugpx:TrkExtension xmlns:visugpx="https://www.visugpx.com/editgpx/">
            <visugpx:node>2</visugpx:node>
            </visugpx:TrkExtension>
        </extensions>
      </trkpt>
      <trkpt lat="46.65488" lon="5.61407">
        <ele>477.4</ele>
      </trkpt>
      <trkpt lat="46.65505" lon="5.61442">
        <ele>483.2</ele>
      </trkpt>
      <trkpt lat="46.6553" lon="5.61468">
        <ele>492.7</ele>
      </trkpt>
      <trkpt lat="46.6555" lon="5.61479">
        <ele>496.7</ele>
      </trkpt>
      <trkpt lat="46.65562" lon="5.61483">
        <ele>499.6</ele>
      </trkpt>
      <trkpt lat="46.65569" lon="5.61486">
        <ele>502.4</ele>
      </trkpt>
      <trkpt lat="46.65576" lon="5.61481">
        <ele>503.6</ele>
      </trkpt>
      <trkpt lat="46.65582" lon="5.6146">
        <ele>507.4</ele>
      </trkpt>
      <trkpt lat="46.65585" lon="5.61458">
        <ele>509.7</ele>
      </trkpt>
      <trkpt lat="46.65602" lon="5.61478">
        <ele>518.8</ele>
      </trkpt>
      <trkpt lat="46.65608" lon="5.61475">
        <ele>522.9</ele>
      </trkpt>
      <trkpt lat="46.65611" lon="5.6145">
        <ele>528.1</ele>
      </trkpt>
      <trkpt lat="46.65614" lon="5.61429">
        <ele>530.3</ele>
      </trkpt>
      <trkpt lat="46.65619" lon="5.61419">
        <ele>531.2</ele>
      </trkpt>
      <trkpt lat="46.65623" lon="5.61404">
        <ele>531.1</ele>
      </trkpt>
      <trkpt lat="46.65628" lon="5.61388">
        <ele>531.4</ele>
      </trkpt>
      <trkpt lat="46.65626" lon="5.61375">
        <ele>530.4</ele>
      </trkpt>
      <trkpt lat="46.65619" lon="5.61367">
        <ele>528.8</ele>
      </trkpt>
      <trkpt lat="46.65618" lon="5.61362">
        <ele>528.3</ele>
      </trkpt>
      <trkpt lat="46.65619" lon="5.61357">
        <ele>527.6</ele>
      </trkpt>
      <trkpt lat="46.65623" lon="5.61355">
        <ele>528.1</ele>
      </trkpt>
      <trkpt lat="46.65637" lon="5.61329">
        <ele>528.9</ele>
      </trkpt>
      <trkpt lat="46.65637" lon="5.61316">
        <ele>527.8</ele>
      </trkpt>
      <trkpt lat="46.65636" lon="5.61305">
        <ele>526.1</ele>
      </trkpt>
      <trkpt lat="46.65644" lon="5.61292">
        <ele>525</ele>
      </trkpt>
      <trkpt lat="46.65654" lon="5.61287">
        <ele>526.7</ele>
      </trkpt>
      <trkpt lat="46.6567" lon="5.61285">
        <ele>530.5</ele>
      </trkpt>
      <trkpt lat="46.65687" lon="5.61256">
        <ele>526</ele>
      </trkpt>
      <trkpt lat="46.65729" lon="5.61225">
        <ele>524.3</ele>
      </trkpt>
      <trkpt lat="46.65752" lon="5.61219">
        <ele>523.2</ele>
      </trkpt>
      <trkpt lat="46.65756" lon="5.61215">
        <ele>522.2</ele>
        <extensions>
          <visugpx:TrkExtension xmlns:visugpx="https://www.visugpx.com/editgpx/">
            <visugpx:node>3</visugpx:node>
            </visugpx:TrkExtension>
        </extensions>
      </trkpt>
      <trkpt lat="46.65769" lon="5.61205">
        <ele>519.6</ele>
      </trkpt>
      <trkpt lat="46.65794" lon="5.61188">
        <ele>512.8</ele>
      </trkpt>
      <trkpt lat="46.65829" lon="5.61189">
        <ele>512.2</ele>
      </trkpt>
      <trkpt lat="46.65858" lon="5.61195">
        <ele>513.5</ele>
      </trkpt>
      <trkpt lat="46.65923" lon="5.61199">
        <ele>510.8</ele>
      </trkpt>
      <trkpt lat="46.65995" lon="5.61199">
        <ele>508.4</ele>
      </trkpt>
      <trkpt lat="46.66018" lon="5.61202">
        <ele>507.9</ele>
      </trkpt>
      <trkpt lat="46.6605" lon="5.61215">
        <ele>509.7</ele>
      </trkpt>
      <trkpt lat="46.66077" lon="5.61233">
        <ele>513.8</ele>
      </trkpt>
      <trkpt lat="46.66088" lon="5.61233">
        <ele>511.3</ele>
      </trkpt>
      <trkpt lat="46.66102" lon="5.61229">
        <ele>506.1</ele>
      </trkpt>
      <trkpt lat="46.66115" lon="5.61237">
        <ele>504.8</ele>
      </trkpt>
      <trkpt lat="46.66119" lon="5.61257">
        <ele>506.7</ele>
      </trkpt>
      <trkpt lat="46.66118" lon="5.61283">
        <ele>507.6</ele>
      </trkpt>
      <trkpt lat="46.66113" lon="5.61298">
        <ele>509.1</ele>
      </trkpt>
      <trkpt lat="46.66122" lon="5.61315">
        <ele>506.1</ele>
      </trkpt>
      <trkpt lat="46.66137" lon="5.61328">
        <ele>504.6</ele>
      </trkpt>
      <trkpt lat="46.66155" lon="5.61331">
        <ele>503.8</ele>
      </trkpt>
      <trkpt lat="46.66196" lon="5.61333">
        <ele>502.6</ele>
      </trkpt>
      <trkpt lat="46.66226" lon="5.61341">
        <ele>504.7</ele>
      </trkpt>
      <trkpt lat="46.66261" lon="5.61364">
        <ele>514.2</ele>
      </trkpt>
      <trkpt lat="46.66301" lon="5.61372">
        <ele>517.3</ele>
      </trkpt>
      <trkpt lat="46.66324" lon="5.61373">
        <ele>517.3</ele>
      </trkpt>
      <trkpt lat="46.66344" lon="5.61368">
        <ele>516</ele>
      </trkpt>
      <trkpt lat="46.66362" lon="5.61358">
        <ele>513</ele>
      </trkpt>
      <trkpt lat="46.66379" lon="5.61345">
        <ele>507.9</ele>
      </trkpt>
      <trkpt lat="46.66399" lon="5.61336">
        <ele>509.6</ele>
      </trkpt>
      <trkpt lat="46.6642" lon="5.61312">
        <ele>510.5</ele>
      </trkpt>
      <trkpt lat="46.66446" lon="5.61281">
        <ele>516</ele>
      </trkpt>
      <trkpt lat="46.66462" lon="5.61256">
        <ele>517.1</ele>
      </trkpt>
      <trkpt lat="46.66468" lon="5.61242">
        <ele>517.1</ele>
      </trkpt>
      <trkpt lat="46.66476" lon="5.61233">
        <ele>519.8</ele>
      </trkpt>
      <trkpt lat="46.66493" lon="5.61223">
        <ele>529.6</ele>
      </trkpt>
      <trkpt lat="46.66509" lon="5.61188">
        <ele>533.8</ele>
      </trkpt>
      <trkpt lat="46.66525" lon="5.61145">
        <ele>530.4</ele>
      </trkpt>
      <trkpt lat="46.6653" lon="5.61124">
        <ele>528.6</ele>
      </trkpt>
      <trkpt lat="46.66536" lon="5.61096">
        <ele>524.1</ele>
      </trkpt>
      <trkpt lat="46.66535" lon="5.61095">
        <ele>523.4</ele>
        <extensions>
          <visugpx:TrkExtension xmlns:visugpx="https://www.visugpx.com/editgpx/">
            <visugpx:node>4</visugpx:node>
            </visugpx:TrkExtension>
        </extensions>
      </trkpt>
      <trkpt lat="46.6653" lon="5.61077">
        <ele>517.8</ele>
      </trkpt>
      <trkpt lat="46.66515" lon="5.61065">
        <ele>510.5</ele>
        <extensions>
          <visugpx:TrkExtension xmlns:visugpx="https://www.visugpx.com/editgpx/">
            <visugpx:node>6</visugpx:node>
            </visugpx:TrkExtension>
        </extensions>
      </trkpt>
      <trkpt lat="46.6651" lon="5.61065">
        <ele>507.5</ele>
        <time>2018-08-08T14:59:51.000Z</time>
      </trkpt>
      <trkpt lat="46.66509" lon="5.61055">
        <ele>497</ele>
        <time>2018-08-08T14:59:14.000Z</time>
      </trkpt>
      <trkpt lat="46.66505" lon="5.61051">
        <ele>506.4</ele>
        <time>2018-08-08T14:59:24.000Z</time>
      </trkpt>
      <trkpt lat="46.66505" lon="5.61053">
        <ele>506.2</ele>
        <time>2018-08-08T14:59:34.000Z</time>
      </trkpt>
      <trkpt lat="46.66501" lon="5.61055">
        <ele>503.6</ele>
        <time>2018-08-08T14:59:44.000Z</time>
      </trkpt>
      <trkpt lat="46.66497" lon="5.61052">
        <ele>500.8</ele>
        <time>2018-08-08T14:59:54.000Z</time>
      </trkpt>
      <trkpt lat="46.66498" lon="5.61023">
        <ele>507</ele>
        <time>2018-08-08T14:59:49.000Z</time>
      </trkpt>
      <trkpt lat="46.665" lon="5.61012">
        <ele>506.1</ele>
        <time>2018-08-08T14:59:59.000Z</time>
      </trkpt>
      <trkpt lat="46.66503" lon="5.61003">
        <ele>509.3</ele>
        <time>2018-08-08T15:00:09.000Z</time>
      </trkpt>
      <trkpt lat="46.66502" lon="5.60975">
        <ele>505</ele>
        <time>2018-08-08T15:00:06.000Z</time>
      </trkpt>
      <trkpt lat="46.66501" lon="5.60971">
        <ele>516.9</ele>
        <time>2018-08-08T15:00:16.000Z</time>
      </trkpt>
      <trkpt lat="46.66501" lon="5.60966">
        <ele>517.8</ele>
        <time>2018-08-08T15:00:26.000Z</time>
      </trkpt>
      <trkpt lat="46.6649" lon="5.60943">
        <ele>504</ele>
        <time>2018-08-08T15:00:17.000Z</time>
      </trkpt>
      <trkpt lat="46.6649" lon="5.60939">
        <ele>514.6</ele>
        <time>2018-08-08T15:00:27.000Z</time>
      </trkpt>
      <trkpt lat="46.66485" lon="5.60929">
        <ele>513.5</ele>
        <time>2018-08-08T15:00:37.000Z</time>
      </trkpt>
      <trkpt lat="46.66481" lon="5.60926">
        <ele>510.8</ele>
        <time>2018-08-08T15:00:47.000Z</time>
      </trkpt>
      <trkpt lat="46.66466" lon="5.60908">
        <ele>506</ele>
        <time>2018-08-08T15:00:32.000Z</time>
      </trkpt>
      <trkpt lat="46.66462" lon="5.60891">
        <ele>507.6</ele>
        <time>2018-08-08T15:00:42.000Z</time>
      </trkpt>
      <trkpt lat="46.66456" lon="5.6086">
        <ele>506</ele>
        <time>2018-08-08T15:00:47.000Z</time>
      </trkpt>
      <trkpt lat="46.66455" lon="5.60848">
        <ele>515.6</ele>
        <time>2018-08-08T15:00:57.000Z</time>
      </trkpt>
      <trkpt lat="46.66449" lon="5.60828">
        <ele>507</ele>
        <time>2018-08-08T15:00:56.000Z</time>
      </trkpt>
      <trkpt lat="46.66445" lon="5.60821">
        <ele>511.7</ele>
        <time>2018-08-08T15:01:06.000Z</time>
      </trkpt>
      <trkpt lat="46.66445" lon="5.6079">
        <ele>507</ele>
        <time>2018-08-08T15:01:10.000Z</time>
      </trkpt>
      <trkpt lat="46.66444" lon="5.60785">
        <ele>516.6</ele>
        <time>2018-08-08T15:01:20.000Z</time>
      </trkpt>
      <trkpt lat="46.66436" lon="5.60765">
        <ele>508</ele>
        <time>2018-08-08T15:01:20.000Z</time>
      </trkpt>
      <trkpt lat="46.66425" lon="5.60723">
        <ele>511</ele>
        <time>2018-08-08T15:01:35.000Z</time>
      </trkpt>
      <trkpt lat="46.66416" lon="5.60697">
        <ele>511</ele>
        <time>2018-08-08T15:01:43.000Z</time>
      </trkpt>
      <trkpt lat="46.66411" lon="5.60692">
        <ele>515.7</ele>
        <time>2018-08-08T15:01:53.000Z</time>
      </trkpt>
      <trkpt lat="46.66396" lon="5.60668">
        <ele>511</ele>
        <time>2018-08-08T15:01:57.000Z</time>
      </trkpt>
      <trkpt lat="46.6638" lon="5.60646">
        <ele>510</ele>
        <time>2018-08-08T15:02:05.000Z</time>
      </trkpt>
      <trkpt lat="46.66364" lon="5.60636">
        <ele>510.2</ele>
        <time>2018-08-08T15:02:15.000Z</time>
      </trkpt>
      <trkpt lat="46.66347" lon="5.60624">
        <ele>510</ele>
        <time>2018-08-08T15:02:14.000Z</time>
      </trkpt>
      <trkpt lat="46.66333" lon="5.60611">
        <ele>506.9</ele>
        <time>2018-08-08T15:02:24.000Z</time>
      </trkpt>
      <trkpt lat="46.66315" lon="5.60598">
        <ele>510</ele>
        <time>2018-08-08T15:02:24.000Z</time>
      </trkpt>
      <trkpt lat="46.66306" lon="5.6059">
        <ele>509.3</ele>
        <time>2018-08-08T15:02:34.000Z</time>
      </trkpt>
      <trkpt lat="46.66303" lon="5.60586">
        <ele>510.7</ele>
        <time>2018-08-08T15:02:44.000Z</time>
      </trkpt>
      <trkpt lat="46.66277" lon="5.60568">
        <ele>512</ele>
        <time>2018-08-08T15:02:43.000Z</time>
      </trkpt>
      <trkpt lat="46.66251" lon="5.60544">
        <ele>510</ele>
        <time>2018-08-08T15:02:56.000Z</time>
      </trkpt>
      <trkpt lat="46.66229" lon="5.60532">
        <ele>509</ele>
        <time>2018-08-08T15:03:05.000Z</time>
      </trkpt>
      <trkpt lat="46.66224" lon="5.60534">
        <ele>508.4</ele>
        <time>2018-08-08T15:03:15.000Z</time>
      </trkpt>
      <trkpt lat="46.66221" lon="5.60532">
        <ele>507.9</ele>
        <time>2018-08-08T15:03:25.000Z</time>
      </trkpt>
      <trkpt lat="46.6621" lon="5.60532">
        <ele>508</ele>
        <time>2018-08-08T15:03:14.000Z</time>
      </trkpt>
      <trkpt lat="46.66201" lon="5.60523">
        <ele>505.3</ele>
        <time>2018-08-08T15:03:24.000Z</time>
      </trkpt>
      <trkpt lat="46.66185" lon="5.60504">
        <ele>508</ele>
        <time>2018-08-08T15:03:28.000Z</time>
      </trkpt>
      <trkpt lat="46.66164" lon="5.60488">
        <ele>508</ele>
        <time>2018-08-08T15:03:39.000Z</time>
      </trkpt>
      <trkpt lat="46.6613" lon="5.60459">
        <ele>503</ele>
        <time>2018-08-08T15:03:53.000Z</time>
      </trkpt>
      <trkpt lat="46.66121" lon="5.60455">
        <ele>503.4</ele>
        <time>2018-08-08T15:04:03.000Z</time>
      </trkpt>
      <trkpt lat="46.66084" lon="5.60426">
        <ele>502</ele>
        <time>2018-08-08T15:04:12.000Z</time>
      </trkpt>
      <trkpt lat="46.66059" lon="5.60412">
        <ele>499</ele>
        <time>2018-08-08T15:04:20.000Z</time>
      </trkpt>
      <trkpt lat="46.66042" lon="5.60393">
        <ele>499</ele>
        <time>2018-08-08T15:04:26.000Z</time>
      </trkpt>
      <trkpt lat="46.66018" lon="5.60342">
        <ele>499</ele>
        <time>2018-08-08T15:04:55.000Z</time>
      </trkpt>
      <trkpt lat="46.66018" lon="5.60314">
        <ele>500</ele>
        <time>2018-08-08T15:04:46.000Z</time>
      </trkpt>
      <trkpt lat="46.66017" lon="5.60293">
        <ele>510.8</ele>
        <time>2018-08-08T15:04:56.000Z</time>
      </trkpt>
      <trkpt lat="46.6601" lon="5.60267">
        <ele>500</ele>
        <time>2018-08-08T15:04:58.000Z</time>
      </trkpt>
      <trkpt lat="46.66005" lon="5.60254">
        <ele>507.8</ele>
        <time>2018-08-08T15:05:08.000Z</time>
      </trkpt>
      <trkpt lat="46.66004" lon="5.60249">
        <ele>507.7</ele>
        <time>2018-08-08T15:05:18.000Z</time>
      </trkpt>
      <trkpt lat="46.66001" lon="5.60245">
        <ele>506.2</ele>
        <time>2018-08-08T15:05:28.000Z</time>
      </trkpt>
      <trkpt lat="46.65999" lon="5.60239">
        <ele>500</ele>
        <time>2018-08-08T15:05:08.000Z</time>
      </trkpt>
      <trkpt lat="46.65996" lon="5.60209">
        <ele>500</ele>
        <time>2018-08-08T15:05:21.000Z</time>
      </trkpt>
      <trkpt lat="46.65993" lon="5.60195">
        <ele>501</ele>
        <time>2018-08-08T15:05:31.000Z</time>
      </trkpt>
      <trkpt lat="46.65992" lon="5.60188">
        <ele>498.1</ele>
        <time>2018-08-08T15:05:41.000Z</time>
      </trkpt>
      <trkpt lat="46.65995" lon="5.60178">
        <ele>499</ele>
        <time>2018-08-08T15:05:39.000Z</time>
      </trkpt>
      <trkpt lat="46.66" lon="5.60175">
        <ele>499.7</ele>
        <time>2018-08-08T15:05:49.000Z</time>
      </trkpt>
      <trkpt lat="46.66007" lon="5.60166">
        <ele>500.1</ele>
        <time>2018-08-08T15:05:59.000Z</time>
      </trkpt>
      <trkpt lat="46.66021" lon="5.60155">
        <ele>498</ele>
        <time>2018-08-08T15:07:27.000Z</time>
      </trkpt>
      <trkpt lat="46.66031" lon="5.60156">
        <ele>506.3</ele>
        <time>2018-08-08T15:07:37.000Z</time>
      </trkpt>
      <trkpt lat="46.66036" lon="5.60153">
        <ele>507</ele>
        <time>2018-08-08T15:07:47.000Z</time>
      </trkpt>
      <trkpt lat="46.66037" lon="5.60151">
        <ele>506.4</ele>
        <time>2018-08-08T15:07:57.000Z</time>
      </trkpt>
      <trkpt lat="46.66037" lon="5.60149">
        <ele>501</ele>
        <time>2018-08-08T15:08:27.000Z</time>
      </trkpt>
      <trkpt lat="46.66041" lon="5.60142">
        <ele>504.1</ele>
        <time>2018-08-08T15:08:37.000Z</time>
      </trkpt>
      <trkpt lat="46.66043" lon="5.60141">
        <ele>504.7</ele>
        <time>2018-08-08T15:08:47.000Z</time>
      </trkpt>
      <trkpt lat="46.66052" lon="5.60131">
        <ele>505</ele>
        <time>2018-08-08T15:09:27.000Z</time>
      </trkpt>
      <trkpt lat="46.66053" lon="5.6013">
        <ele>505</ele>
        <time>2018-08-08T15:09:37.000Z</time>
      </trkpt>
      <trkpt lat="46.66057" lon="5.6013">
        <ele>507</ele>
        <time>2018-08-08T15:09:47.000Z</time>
      </trkpt>
      <trkpt lat="46.66058" lon="5.60129">
        <ele>506.8</ele>
        <time>2018-08-08T15:09:57.000Z</time>
      </trkpt>
      <trkpt lat="46.66061" lon="5.60128">
        <ele>507.4</ele>
        <time>2018-08-08T15:10:07.000Z</time>
      </trkpt>
      <trkpt lat="46.66068" lon="5.60129">
        <ele>510.2</ele>
        <time>2018-08-08T15:10:17.000Z</time>
      </trkpt>
      <trkpt lat="46.66075" lon="5.60135">
        <ele>513</ele>
        <time>2018-08-08T15:10:27.000Z</time>
      </trkpt>
      <trkpt lat="46.66076" lon="5.60137">
        <ele>516.1</ele>
        <time>2018-08-08T15:10:37.000Z</time>
      </trkpt>
      <trkpt lat="46.66079" lon="5.60137">
        <ele>517</ele>
        <time>2018-08-08T15:10:47.000Z</time>
      </trkpt>
      <trkpt lat="46.66079" lon="5.60139">
        <ele>517.8</ele>
        <time>2018-08-08T15:10:57.000Z</time>
      </trkpt>
      <trkpt lat="46.66089" lon="5.60141">
        <ele>521.4</ele>
        <time>2018-08-08T15:11:07.000Z</time>
      </trkpt>
      <trkpt lat="46.66098" lon="5.60135">
        <ele>517</ele>
        <time>2018-08-08T15:11:17.000Z</time>
      </trkpt>
      <trkpt lat="46.66107" lon="5.60132">
        <ele>523.1</ele>
        <time>2018-08-08T15:11:27.000Z</time>
      </trkpt>
      <trkpt lat="46.66112" lon="5.60127">
        <ele>522.4</ele>
        <time>2018-08-08T15:11:37.000Z</time>
      </trkpt>
      <trkpt lat="46.66117" lon="5.60125">
        <ele>518</ele>
        <time>2018-08-08T15:11:47.000Z</time>
      </trkpt>
      <trkpt lat="46.66129" lon="5.60123">
        <ele>522.3</ele>
        <time>2018-08-08T15:11:57.000Z</time>
      </trkpt>
      <trkpt lat="46.66132" lon="5.60123">
        <ele>522.5</ele>
        <time>2018-08-08T15:12:07.000Z</time>
      </trkpt>
      <trkpt lat="46.6615" lon="5.60128">
        <ele>521</ele>
        <time>2018-08-08T15:12:38.000Z</time>
      </trkpt>
      <trkpt lat="46.6617" lon="5.60141">
        <ele>524</ele>
        <time>2018-08-08T15:12:49.000Z</time>
      </trkpt>
      <trkpt lat="46.66174" lon="5.60141">
        <ele>531</ele>
        <time>2018-08-08T15:12:59.000Z</time>
      </trkpt>
      <trkpt lat="46.66195" lon="5.60132">
        <ele>525</ele>
        <time>2018-08-08T15:12:56.000Z</time>
      </trkpt>
      <trkpt lat="46.66203" lon="5.60131">
        <ele>527.6</ele>
        <time>2018-08-08T15:13:06.000Z</time>
      </trkpt>
      <trkpt lat="46.66215" lon="5.60133">
        <ele>525</ele>
        <time>2018-08-08T15:13:01.000Z</time>
      </trkpt>
      <trkpt lat="46.66231" lon="5.60132">
        <ele>527.4</ele>
        <time>2018-08-08T15:13:11.000Z</time>
      </trkpt>
      <trkpt lat="46.66249" lon="5.60133">
        <ele>525</ele>
        <time>2018-08-08T15:13:11.000Z</time>
      </trkpt>
      <trkpt lat="46.66254" lon="5.60128">
        <ele>526.7</ele>
        <time>2018-08-08T15:13:21.000Z</time>
      </trkpt>
      <trkpt lat="46.66267" lon="5.6012">
        <ele>518</ele>
        <time>2018-08-08T15:13:17.000Z</time>
      </trkpt>
      <trkpt lat="46.6628" lon="5.60111">
        <ele>521.3</ele>
        <time>2018-08-08T15:13:27.000Z</time>
      </trkpt>
      <trkpt lat="46.66291" lon="5.60108">
        <ele>517</ele>
        <time>2018-08-08T15:13:24.000Z</time>
      </trkpt>
      <trkpt lat="46.66301" lon="5.60102">
        <ele>520.6</ele>
        <time>2018-08-08T15:13:34.000Z</time>
      </trkpt>
      <trkpt lat="46.66308" lon="5.60094">
        <ele>514</ele>
        <time>2018-08-08T15:13:30.000Z</time>
      </trkpt>
      <trkpt lat="46.66337" lon="5.60072">
        <ele>507</ele>
        <time>2018-08-08T15:13:39.000Z</time>
      </trkpt>
      <trkpt lat="46.66347" lon="5.60067">
        <ele>507.9</ele>
        <time>2018-08-08T15:13:49.000Z</time>
      </trkpt>
      <trkpt lat="46.66367" lon="5.60064">
        <ele>507</ele>
        <time>2018-08-08T15:13:48.000Z</time>
      </trkpt>
      <trkpt lat="46.66399" lon="5.60055">
        <ele>507</ele>
        <time>2018-08-08T15:13:57.000Z</time>
      </trkpt>
      <trkpt lat="46.66405" lon="5.60052">
        <ele>511.1</ele>
        <time>2018-08-08T15:14:07.000Z</time>
      </trkpt>
      <trkpt lat="46.6643" lon="5.60034">
        <ele>502</ele>
        <time>2018-08-08T15:14:07.000Z</time>
      </trkpt>
      <trkpt lat="46.66443" lon="5.60021">
        <ele>501.3</ele>
        <time>2018-08-08T15:14:17.000Z</time>
      </trkpt>
      <trkpt lat="46.66471" lon="5.60005">
        <ele>501</ele>
        <time>2018-08-08T15:14:19.000Z</time>
      </trkpt>
      <trkpt lat="46.66488" lon="5.59993">
        <ele>496</ele>
        <time>2018-08-08T15:14:25.000Z</time>
      </trkpt>
      <trkpt lat="46.66499" lon="5.59989">
        <ele>497.8</ele>
        <time>2018-08-08T15:14:35.000Z</time>
      </trkpt>
      <trkpt lat="46.6651" lon="5.59981">
        <ele>494</ele>
        <time>2018-08-08T15:14:35.000Z</time>
      </trkpt>
      <trkpt lat="46.66525" lon="5.59962">
        <ele>490</ele>
        <time>2018-08-08T15:14:40.000Z</time>
      </trkpt>
      <trkpt lat="46.66538" lon="5.59944">
        <ele>490.1</ele>
        <time>2018-08-08T15:14:50.000Z</time>
      </trkpt>
      <trkpt lat="46.66543" lon="5.59936">
        <ele>485</ele>
        <time>2018-08-08T15:14:47.000Z</time>
      </trkpt>
      <trkpt lat="46.66556" lon="5.59922">
        <ele>487.3</ele>
        <time>2018-08-08T15:14:57.000Z</time>
      </trkpt>
      <trkpt lat="46.66581" lon="5.59891">
        <ele>483</ele>
        <time>2018-08-08T15:15:01.000Z</time>
      </trkpt>
      <trkpt lat="46.66596" lon="5.59857">
        <ele>474</ele>
        <time>2018-08-08T15:15:08.000Z</time>
      </trkpt>
      <trkpt lat="46.66607" lon="5.59837">
        <ele>477.3</ele>
        <time>2018-08-08T15:15:18.000Z</time>
      </trkpt>
      <trkpt lat="46.66609" lon="5.59829">
        <ele>464</ele>
        <time>2018-08-08T15:15:15.000Z</time>
      </trkpt>
      <trkpt lat="46.66612" lon="5.59822">
        <ele>475.4</ele>
        <time>2018-08-08T15:15:25.000Z</time>
      </trkpt>
      <trkpt lat="46.66614" lon="5.59813">
        <ele>473.2</ele>
        <time>2018-08-08T15:15:35.000Z</time>
      </trkpt>
      <trkpt lat="46.66616" lon="5.59811">
        <ele>473.6</ele>
        <time>2018-08-08T15:15:45.000Z</time>
      </trkpt>
      <trkpt lat="46.6662" lon="5.59803">
        <ele>464</ele>
        <time>2018-08-08T15:15:22.000Z</time>
      </trkpt>
      <trkpt lat="46.6662" lon="5.59798">
        <ele>471.3</ele>
        <time>2018-08-08T15:15:32.000Z</time>
      </trkpt>
      <trkpt lat="46.66621" lon="5.59789">
        <ele>469</ele>
        <time>2018-08-08T15:15:42.000Z</time>
      </trkpt>
      <trkpt lat="46.66626" lon="5.59774">
        <ele>463</ele>
        <time>2018-08-08T15:15:52.000Z</time>
      </trkpt>
      <trkpt lat="46.66631" lon="5.59762">
        <ele>468.3</ele>
        <time>2018-08-08T15:16:02.000Z</time>
      </trkpt>
      <trkpt lat="46.66629" lon="5.59759">
        <ele>466.3</ele>
        <time>2018-08-08T15:16:12.000Z</time>
      </trkpt>
      <trkpt lat="46.66634" lon="5.59744">
        <ele>462</ele>
        <time>2018-08-08T15:15:45.000Z</time>
      </trkpt>
      <trkpt lat="46.66637" lon="5.59738">
        <ele>466.2</ele>
        <time>2018-08-08T15:15:55.000Z</time>
      </trkpt>
      <trkpt lat="46.6664" lon="5.59728">
        <ele>465.4</ele>
        <time>2018-08-08T15:16:05.000Z</time>
      </trkpt>
      <trkpt lat="46.66647" lon="5.59713">
        <ele>458</ele>
        <time>2018-08-08T15:15:56.000Z</time>
      </trkpt>
      <trkpt lat="46.66649" lon="5.59696">
        <ele>461.3</ele>
        <time>2018-08-08T15:16:06.000Z</time>
      </trkpt>
      <trkpt lat="46.66652" lon="5.59685">
        <ele>457</ele>
        <time>2018-08-08T15:16:02.000Z</time>
      </trkpt>
      <trkpt lat="46.66652" lon="5.59675">
        <ele>457.9</ele>
        <time>2018-08-08T15:16:12.000Z</time>
      </trkpt>
      <trkpt lat="46.66654" lon="5.59665">
        <ele>456.9</ele>
        <time>2018-08-08T15:16:22.000Z</time>
      </trkpt>
      <trkpt lat="46.66658" lon="5.59658">
        <ele>454</ele>
        <time>2018-08-08T15:16:11.000Z</time>
      </trkpt>
      <trkpt lat="46.66662" lon="5.59645">
        <ele>457.7</ele>
        <time>2018-08-08T15:16:21.000Z</time>
      </trkpt>
      <trkpt lat="46.66663" lon="5.59638">
        <ele>456.9</ele>
        <time>2018-08-08T15:16:31.000Z</time>
      </trkpt>
      <trkpt lat="46.66664" lon="5.59622">
        <ele>452</ele>
        <time>2018-08-08T15:16:20.000Z</time>
      </trkpt>
      <trkpt lat="46.66663" lon="5.59614">
        <ele>452.7</ele>
        <time>2018-08-08T15:16:30.000Z</time>
      </trkpt>
      <trkpt lat="46.66663" lon="5.59596">
        <ele>448.7</ele>
        <time>2018-08-08T15:16:40.000Z</time>
      </trkpt>
      <trkpt lat="46.66661" lon="5.59586">
        <ele>443</ele>
        <time>2018-08-08T15:16:29.000Z</time>
      </trkpt>
      <trkpt lat="46.66663" lon="5.59576">
        <ele>443.9</ele>
        <time>2018-08-08T15:16:39.000Z</time>
      </trkpt>
      <trkpt lat="46.66655" lon="5.59556">
        <ele>434</ele>
        <time>2018-08-08T15:16:37.000Z</time>
      </trkpt>
      <trkpt lat="46.66645" lon="5.59512">
        <ele>427</ele>
        <time>2018-08-08T15:16:56.000Z</time>
      </trkpt>
      <trkpt lat="46.66638" lon="5.59498">
        <ele>426.8</ele>
        <time>2018-08-08T15:17:06.000Z</time>
      </trkpt>
      <trkpt lat="46.66639" lon="5.59491">
        <ele>427.4</ele>
        <time>2018-08-08T15:17:16.000Z</time>
      </trkpt>
      <trkpt lat="46.66636" lon="5.59482">
        <ele>424</ele>
        <time>2018-08-08T15:17:05.000Z</time>
      </trkpt>
      <trkpt lat="46.66632" lon="5.59465">
        <ele>425.8</ele>
        <time>2018-08-08T15:17:15.000Z</time>
      </trkpt>
      <trkpt lat="46.66623" lon="5.59419">
        <ele>422</ele>
        <time>2018-08-08T15:17:11.000Z</time>
      </trkpt>
      <trkpt lat="46.66623" lon="5.59405">
        <ele>422.6</ele>
        <time>2018-08-08T15:17:21.000Z</time>
      </trkpt>
      <trkpt lat="46.66618" lon="5.59393">
        <ele>420</ele>
        <time>2018-08-08T15:17:31.000Z</time>
      </trkpt>
      <trkpt lat="46.66618" lon="5.59381">
        <ele>419.9</ele>
        <time>2018-08-08T15:17:41.000Z</time>
      </trkpt>
      <trkpt lat="46.6662" lon="5.59367">
        <ele>419.6</ele>
        <time>2018-08-08T15:17:51.000Z</time>
      </trkpt>
      <trkpt lat="46.66627" lon="5.59352">
        <ele>418</ele>
        <time>2018-08-08T15:18:01.000Z</time>
      </trkpt>
      <trkpt lat="46.66629" lon="5.59342">
        <ele>419</ele>
        <time>2018-08-08T15:18:11.000Z</time>
      </trkpt>
      <trkpt lat="46.66629" lon="5.59313">
        <ele>412</ele>
        <time>2018-08-08T15:17:35.000Z</time>
      </trkpt>
      <trkpt lat="46.66628" lon="5.59303">
        <ele>414</ele>
        <time>2018-08-08T15:17:45.000Z</time>
      </trkpt>
      <trkpt lat="46.66628" lon="5.59295">
        <ele>413.1</ele>
        <time>2018-08-08T15:17:55.000Z</time>
      </trkpt>
      <trkpt lat="46.66626" lon="5.59285">
        <ele>409</ele>
        <time>2018-08-08T15:17:42.000Z</time>
      </trkpt>
      <trkpt lat="46.66625" lon="5.59261">
        <ele>408.4</ele>
        <time>2018-08-08T15:17:52.000Z</time>
      </trkpt>
      <trkpt lat="46.66627" lon="5.59217">
        <ele>402</ele>
        <time>2018-08-08T15:17:54.000Z</time>
      </trkpt>
      <trkpt lat="46.66631" lon="5.59194">
        <ele>401.6</ele>
        <time>2018-08-08T15:18:04.000Z</time>
      </trkpt>
      <trkpt lat="46.66639" lon="5.59173">
        <ele>398</ele>
        <time>2018-08-08T15:18:05.000Z</time>
      </trkpt>
      <trkpt lat="46.66646" lon="5.59167">
        <ele>397.8</ele>
        <time>2018-08-08T15:18:15.000Z</time>
      </trkpt>
      <trkpt lat="46.66652" lon="5.5916">
        <ele>397</ele>
        <time>2018-08-08T15:18:25.000Z</time>
      </trkpt>
      <trkpt lat="46.66655" lon="5.5915">
        <ele>393</ele>
        <time>2018-08-08T15:18:15.000Z</time>
      </trkpt>
      <trkpt lat="46.66656" lon="5.59139">
        <ele>392.9</ele>
        <time>2018-08-08T15:18:25.000Z</time>
      </trkpt>
      <trkpt lat="46.6666" lon="5.59121">
        <ele>388</ele>
        <time>2018-08-08T15:18:21.000Z</time>
      </trkpt>
      <trkpt lat="46.66664" lon="5.5911">
        <ele>388.4</ele>
        <time>2018-08-08T15:18:31.000Z</time>
      </trkpt>
      <trkpt lat="46.6668" lon="5.59085">
        <ele>386</ele>
        <time>2018-08-08T15:18:30.000Z</time>
      </trkpt>
      <trkpt lat="46.66684" lon="5.59073">
        <ele>386</ele>
        <time>2018-08-08T15:18:40.000Z</time>
      </trkpt>
      <trkpt lat="46.66691" lon="5.59048">
        <ele>382</ele>
        <time>2018-08-08T15:18:37.000Z</time>
      </trkpt>
      <trkpt lat="46.66694" lon="5.59039">
        <ele>383.2</ele>
        <time>2018-08-08T15:18:47.000Z</time>
      </trkpt>
      <trkpt lat="46.66701" lon="5.59003">
        <ele>378</ele>
        <time>2018-08-08T15:18:47.000Z</time>
      </trkpt>
      <trkpt lat="46.66704" lon="5.58991">
        <ele>377.8</ele>
        <time>2018-08-08T15:18:57.000Z</time>
      </trkpt>
      <trkpt lat="46.667" lon="5.58986">
        <ele>377</ele>
        <time>2018-08-08T15:19:07.000Z</time>
      </trkpt>
      <trkpt lat="46.667" lon="5.58982">
        <ele>376.3</ele>
        <time>2018-08-08T15:19:17.000Z</time>
      </trkpt>
      <trkpt lat="46.66701" lon="5.58977">
        <ele>375</ele>
        <time>2018-08-08T15:19:02.000Z</time>
      </trkpt>
      <trkpt lat="46.667" lon="5.58976">
        <ele>375.4</ele>
        <time>2018-08-08T15:19:12.000Z</time>
      </trkpt>
      <trkpt lat="46.66701" lon="5.58968">
        <ele>374.2</ele>
        <time>2018-08-08T15:19:22.000Z</time>
      </trkpt>
      <trkpt lat="46.66705" lon="5.58965">
        <ele>373.8</ele>
        <time>2018-08-08T15:19:32.000Z</time>
      </trkpt>
      <trkpt lat="46.6671" lon="5.58959">
        <ele>373.1</ele>
        <time>2018-08-08T15:19:42.000Z</time>
      </trkpt>
      <trkpt lat="46.6671" lon="5.58954">
        <ele>371</ele>
        <time>2018-08-08T15:19:52.000Z</time>
      </trkpt>
      <trkpt lat="46.66708" lon="5.58951">
        <ele>372.2</ele>
        <time>2018-08-08T15:20:02.000Z</time>
      </trkpt>
      <trkpt lat="46.66699" lon="5.58941">
        <ele>370.8</ele>
        <time>2018-08-08T15:20:12.000Z</time>
      </trkpt>
      <trkpt lat="46.66701" lon="5.58923">
        <ele>368</ele>
        <time>2018-08-08T15:20:32.000Z</time>
      </trkpt>
      <trkpt lat="46.66701" lon="5.58916">
        <ele>367.6</ele>
        <time>2018-08-08T15:20:42.000Z</time>
      </trkpt>
      <trkpt lat="46.66694" lon="5.58892">
        <ele>363</ele>
        <time>2018-08-08T15:20:54.000Z</time>
      </trkpt>
      <trkpt lat="46.66693" lon="5.58883">
        <ele>362.2</ele>
        <time>2018-08-08T15:21:04.000Z</time>
      </trkpt>
      <trkpt lat="46.66692" lon="5.58854">
        <ele>358</ele>
        <time>2018-08-08T15:21:02.000Z</time>
      </trkpt>
      <trkpt lat="46.66693" lon="5.58841">
        <ele>356.9</ele>
        <time>2018-08-08T15:21:12.000Z</time>
      </trkpt>
      <trkpt lat="46.66695" lon="5.5883">
        <ele>355.5</ele>
        <time>2018-08-08T15:21:22.000Z</time>
      </trkpt>
      <trkpt lat="46.66697" lon="5.5882">
        <ele>353</ele>
        <time>2018-08-08T15:21:11.000Z</time>
      </trkpt>
      <trkpt lat="46.66702" lon="5.588">
        <ele>351.3</ele>
        <time>2018-08-08T15:21:21.000Z</time>
      </trkpt>
      <trkpt lat="46.66706" lon="5.5878">
        <ele>346</ele>
        <time>2018-08-08T15:21:29.000Z</time>
      </trkpt>
      <trkpt lat="46.66714" lon="5.58767">
        <ele>346.6</ele>
        <time>2018-08-08T15:21:39.000Z</time>
      </trkpt>
      <trkpt lat="46.66729" lon="5.58724">
        <ele>340</ele>
        <time>2018-08-08T15:21:43.000Z</time>
      </trkpt>
      <trkpt lat="46.66731" lon="5.5871">
        <ele>339.2</ele>
        <time>2018-08-08T15:21:53.000Z</time>
      </trkpt>
      <trkpt lat="46.66732" lon="5.5869">
        <ele>334</ele>
        <time>2018-08-08T15:21:42.000Z</time>
      </trkpt>
      <trkpt lat="46.66732" lon="5.58681">
        <ele>335.1</ele>
        <time>2018-08-08T15:21:52.000Z</time>
      </trkpt>
      <trkpt lat="46.66729" lon="5.58662">
        <ele>331</ele>
        <time>2018-08-08T15:21:48.000Z</time>
      </trkpt>
      <trkpt lat="46.6673" lon="5.58647">
        <ele>330.6</ele>
        <time>2018-08-08T15:21:58.000Z</time>
      </trkpt>
      <trkpt lat="46.66736" lon="5.5863">
        <ele>325</ele>
        <time>2018-08-08T15:21:55.000Z</time>
      </trkpt>
      <trkpt lat="46.66741" lon="5.58619">
        <ele>327.3</ele>
        <time>2018-08-08T15:22:05.000Z</time>
      </trkpt>
      <trkpt lat="46.66749" lon="5.58611">
        <ele>325</ele>
        <time>2018-08-08T15:22:01.000Z</time>
      </trkpt>
      <trkpt lat="46.66755" lon="5.58595">
        <ele>325.1</ele>
        <time>2018-08-08T15:22:11.000Z</time>
      </trkpt>
      <trkpt lat="46.66768" lon="5.58588">
        <ele>323</ele>
        <time>2018-08-08T15:22:21.000Z</time>
      </trkpt>
      <trkpt lat="46.66772" lon="5.58581">
        <ele>325</ele>
        <time>2018-08-08T15:22:31.000Z</time>
      </trkpt>
      <trkpt lat="46.66777" lon="5.58575">
        <ele>324.4</ele>
        <time>2018-08-08T15:22:41.000Z</time>
      </trkpt>
      <trkpt lat="46.66782" lon="5.58563">
        <ele>321</ele>
        <time>2018-08-08T15:22:51.000Z</time>
      </trkpt>
      <trkpt lat="46.66788" lon="5.58546">
        <ele>321.9</ele>
        <time>2018-08-08T15:23:01.000Z</time>
      </trkpt>
      <trkpt lat="46.66796" lon="5.58532">
        <ele>320</ele>
        <time>2018-08-08T15:23:21.000Z</time>
      </trkpt>
      <trkpt lat="46.66806" lon="5.58518">
        <ele>320.6</ele>
        <time>2018-08-08T15:23:31.000Z</time>
      </trkpt>
      <trkpt lat="46.66824" lon="5.58508">
        <ele>317</ele>
        <time>2018-08-08T15:22:37.000Z</time>
      </trkpt>
      <trkpt lat="46.66843" lon="5.58492">
        <ele>315</ele>
        <time>2018-08-08T15:22:47.000Z</time>
      </trkpt>
      <trkpt lat="46.6686" lon="5.58471">
        <ele>314</ele>
        <time>2018-08-08T15:22:53.000Z</time>
      </trkpt>
      <trkpt lat="46.66873" lon="5.58456">
        <ele>313.9</ele>
        <time>2018-08-08T15:23:03.000Z</time>
      </trkpt>
      <trkpt lat="46.66883" lon="5.58446">
        <ele>313</ele>
        <time>2018-08-08T15:23:09.000Z</time>
      </trkpt>
      <trkpt lat="46.66875" lon="5.5843">
        <ele>312.7</ele>
        <time>2018-08-08T15:23:19.000Z</time>
      </trkpt>
      <trkpt lat="46.66864" lon="5.58405">
        <ele>311</ele>
        <time>2018-08-08T15:23:29.000Z</time>
      </trkpt>
      <trkpt lat="46.66831" lon="5.58368">
        <ele>309</ele>
        <time>2018-08-08T15:23:26.000Z</time>
      </trkpt>
      <trkpt lat="46.66818" lon="5.58352">
        <ele>308</ele>
        <time>2018-08-08T15:23:36.000Z</time>
      </trkpt>
      <trkpt lat="46.66829" lon="5.58349">
        <ele>307</ele>
        <time>2018-08-08T15:23:46.000Z</time>
      </trkpt>
      <trkpt lat="46.66841" lon="5.58316">
        <ele>306</ele>
        <time>2018-08-08T15:23:56.000Z</time>
      </trkpt>
      <trkpt lat="46.66855" lon="5.58256">
        <ele>306</ele>
        <time>2018-08-08T15:24:06.000Z</time>
      </trkpt>
      <trkpt lat="46.66859" lon="5.58243">
        <ele>306.2</ele>
        <time>2018-08-08T15:24:16.000Z</time>
      </trkpt>
      <trkpt lat="46.66868" lon="5.58249">
        <ele>306</ele>
        <time>2018-08-08T15:24:26.000Z</time>
      </trkpt>
      <trkpt lat="46.66877" lon="5.58251">
        <ele>306.6</ele>
        <time>2018-08-08T15:24:36.000Z</time>
      </trkpt>
      <trkpt lat="46.66884" lon="5.58248">
        <ele>306.8</ele>
        <time>2018-08-08T15:24:46.000Z</time>
      </trkpt>
      <trkpt lat="46.66895" lon="5.58234">
        <ele>307</ele>
        <time>2018-08-08T15:24:21.000Z</time>
      </trkpt>
      <trkpt lat="46.669" lon="5.58225">
        <ele>307.4</ele>
        <time>2018-08-08T15:24:31.000Z</time>
      </trkpt>
      <trkpt lat="46.66904" lon="5.58214">
        <ele>307.8</ele>
        <time>2018-08-08T15:24:41.000Z</time>
      </trkpt>
      <trkpt lat="46.66919" lon="5.5821">
        <ele>308</ele>
        <time>2018-08-08T15:24:34.000Z</time>
      </trkpt>
      <trkpt lat="46.66949" lon="5.58204">
        <ele>308</ele>
        <time>2018-08-08T15:24:44.000Z</time>
      </trkpt>
      <trkpt lat="46.66951" lon="5.58179">
        <ele>309.2</ele>
        <time>2018-08-08T15:24:54.000Z</time>
      </trkpt>
      <trkpt lat="46.66951" lon="5.58153">
        <ele>309</ele>
        <time>2018-08-08T15:25:14.000Z</time>
      </trkpt>
      <trkpt lat="46.66955" lon="5.58122">
        <ele>309</ele>
        <time>2018-08-08T15:25:13.000Z</time>
      </trkpt>
      <trkpt lat="46.66953" lon="5.58077">
        <ele>307</ele>
        <time>2018-08-08T15:25:24.000Z</time>
      </trkpt>
      <trkpt lat="46.66951" lon="5.58059">
        <ele>307.3</ele>
        <time>2018-08-08T15:25:34.000Z</time>
      </trkpt>
      <trkpt lat="46.66933" lon="5.58049">
        <ele>307</ele>
        <time>2018-08-08T15:25:38.000Z</time>
      </trkpt>
      <trkpt lat="46.6692" lon="5.58038">
        <ele>306.6</ele>
        <time>2018-08-08T15:25:48.000Z</time>
      </trkpt>
      <trkpt lat="46.66907" lon="5.58011">
        <ele>307</ele>
        <time>2018-08-08T15:25:55.000Z</time>
      </trkpt>
      <trkpt lat="46.66904" lon="5.57984">
        <ele>306</ele>
        <time>2018-08-08T15:25:59.000Z</time>
      </trkpt>
      <trkpt lat="46.66901" lon="5.57934">
        <ele>304</ele>
        <time>2018-08-08T15:26:12.000Z</time>
      </trkpt>
      <trkpt lat="46.66899" lon="5.57927">
        <ele>303.6</ele>
        <time>2018-08-08T15:26:22.000Z</time>
      </trkpt>
      <trkpt lat="46.66896" lon="5.57909">
        <ele>302.2</ele>
        <time>2018-08-08T15:26:32.000Z</time>
      </trkpt>
      <trkpt lat="46.66896" lon="5.57851">
        <ele>296</ele>
        <time>2018-08-08T15:26:32.000Z</time>
      </trkpt>
      <trkpt lat="46.66894" lon="5.57838">
        <ele>295.4</ele>
        <time>2018-08-08T15:26:42.000Z</time>
      </trkpt>
      <trkpt lat="46.66886" lon="5.57813">
        <ele>294</ele>
        <time>2018-08-08T15:26:41.000Z</time>
      </trkpt>
      <trkpt lat="46.66884" lon="5.578">
        <ele>291.8</ele>
        <time>2018-08-08T15:26:51.000Z</time>
      </trkpt>
      <trkpt lat="46.66886" lon="5.57792">
        <ele>290.8</ele>
        <time>2018-08-08T15:27:01.000Z</time>
      </trkpt>
      <trkpt lat="46.66891" lon="5.57781">
        <ele>291</ele>
        <time>2018-08-08T15:26:49.000Z</time>
      </trkpt>
      <trkpt lat="46.669" lon="5.57758">
        <ele>287.9</ele>
        <time>2018-08-08T15:26:59.000Z</time>
      </trkpt>
      <trkpt lat="46.669" lon="5.57741">
        <ele>285</ele>
        <time>2018-08-08T15:27:05.000Z</time>
      </trkpt>
      <trkpt lat="46.66886" lon="5.57692">
        <ele>281</ele>
        <time>2018-08-08T15:27:16.000Z</time>
      </trkpt>
      <trkpt lat="46.66875" lon="5.57675">
        <ele>281.3</ele>
        <time>2018-08-08T15:27:26.000Z</time>
      </trkpt>
      <trkpt lat="46.66845" lon="5.57645">
        <ele>280</ele>
        <time>2018-08-08T15:27:28.000Z</time>
      </trkpt>
      <trkpt lat="46.66839" lon="5.57635">
        <ele>280.8</ele>
        <time>2018-08-08T15:27:38.000Z</time>
      </trkpt>
      <trkpt lat="46.66838" lon="5.57619">
        <ele>280</ele>
        <time>2018-08-08T15:27:36.000Z</time>
      </trkpt>
      <trkpt lat="46.66841" lon="5.57609">
        <ele>280.6</ele>
        <time>2018-08-08T15:27:46.000Z</time>
      </trkpt>
      <trkpt lat="46.66841" lon="5.57603">
        <ele>280.3</ele>
        <time>2018-08-08T15:27:56.000Z</time>
      </trkpt>
      <trkpt lat="46.66821" lon="5.57578">
        <ele>279</ele>
        <time>2018-08-08T15:27:58.000Z</time>
      </trkpt>
      <trkpt lat="46.66802" lon="5.57566">
        <ele>279</ele>
        <time>2018-08-08T15:27:56.000Z</time>
      </trkpt>
      <trkpt lat="46.6677" lon="5.57533">
        <ele>278</ele>
        <time>2018-08-08T15:28:10.000Z</time>
      </trkpt>
      <trkpt lat="46.66753" lon="5.57519">
        <ele>277</ele>
        <time>2018-08-08T15:28:17.000Z</time>
      </trkpt>
      <trkpt lat="46.66746" lon="5.57512">
        <ele>276.1</ele>
        <time>2018-08-08T15:28:27.000Z</time>
      </trkpt>
      <trkpt lat="46.66742" lon="5.57503">
        <ele>275.5</ele>
        <time>2018-08-08T15:28:37.000Z</time>
      </trkpt>
      <trkpt lat="46.66744" lon="5.57488">
        <ele>275</ele>
        <time>2018-08-08T15:28:28.000Z</time>
      </trkpt>
      <trkpt lat="46.66748" lon="5.57472">
        <ele>275.9</ele>
        <time>2018-08-08T15:28:38.000Z</time>
      </trkpt>
      <trkpt lat="46.66754" lon="5.57456">
        <ele>275</ele>
        <time>2018-08-08T15:28:39.000Z</time>
      </trkpt>
      <trkpt lat="46.66764" lon="5.5741">
        <ele>274</ele>
        <time>2018-08-08T15:28:50.000Z</time>
      </trkpt>
      <trkpt lat="46.66765" lon="5.57382">
        <ele>273</ele>
        <time>2018-08-08T15:29:00.000Z</time>
      </trkpt>
      <trkpt lat="46.66769" lon="5.57361">
        <ele>274.4</ele>
        <time>2018-08-08T15:29:10.000Z</time>
      </trkpt>
      <trkpt lat="46.66778" lon="5.5733">
        <ele>273</ele>
        <time>2018-08-08T15:29:20.000Z</time>
      </trkpt>
      <trkpt lat="46.66787" lon="5.57295">
        <ele>271</ele>
        <time>2018-08-08T15:29:30.000Z</time>
      </trkpt>
      <trkpt lat="46.668" lon="5.57277">
        <ele>273.7</ele>
        <time>2018-08-08T15:29:40.000Z</time>
      </trkpt>
      <trkpt lat="46.66814" lon="5.57259">
        <ele>271</ele>
        <time>2018-08-08T15:29:50.000Z</time>
      </trkpt>
      <trkpt lat="46.66825" lon="5.57231">
        <ele>271</ele>
        <time>2018-08-08T15:30:10.000Z</time>
      </trkpt>
      <trkpt lat="46.66825" lon="5.57219">
        <ele>273.6</ele>
        <time>2018-08-08T15:30:20.000Z</time>
      </trkpt>
      <trkpt lat="46.66807" lon="5.57214">
        <ele>273</ele>
        <time>2018-08-08T15:30:30.000Z</time>
      </trkpt>
      <trkpt lat="46.66789" lon="5.57206">
        <ele>274</ele>
        <time>2018-08-08T15:30:40.000Z</time>
      </trkpt>
      <trkpt lat="46.66769" lon="5.57201">
        <ele>274</ele>
        <time>2018-08-08T15:30:50.000Z</time>
      </trkpt>
      <trkpt lat="46.66744" lon="5.57215">
        <ele>275</ele>
        <time>2018-08-08T15:31:00.000Z</time>
      </trkpt>
      <trkpt lat="46.66727" lon="5.57227">
        <ele>275</ele>
        <time>2018-08-08T15:31:10.000Z</time>
      </trkpt>
      <trkpt lat="46.6671" lon="5.57212">
        <ele>278</ele>
        <time>2018-08-08T15:30:32.000Z</time>
      </trkpt>
      <trkpt lat="46.667" lon="5.57183">
        <ele>277</ele>
        <time>2018-08-08T15:30:42.000Z</time>
      </trkpt>
      <trkpt lat="46.66692" lon="5.57138">
        <ele>277</ele>
        <time>2018-08-08T15:30:52.000Z</time>
      </trkpt>
      <trkpt lat="46.66704" lon="5.5709">
        <ele>277</ele>
        <time>2018-08-08T15:31:02.000Z</time>
      </trkpt>
      <trkpt lat="46.66713" lon="5.57064">
        <ele>277</ele>
        <time>2018-08-08T15:31:12.000Z</time>
      </trkpt>
      <trkpt lat="46.66727" lon="5.57048">
        <ele>277.2</ele>
        <time>2018-08-08T15:31:22.000Z</time>
      </trkpt>
      <trkpt lat="46.66729" lon="5.57041">
        <ele>277</ele>
        <time>2018-08-08T15:31:32.000Z</time>
      </trkpt>
      <trkpt lat="46.66747" lon="5.57028">
        <ele>277</ele>
        <time>2018-08-08T15:31:33.000Z</time>
      </trkpt>
      <trkpt lat="46.66758" lon="5.57022">
        <ele>275.8</ele>
        <time>2018-08-08T15:31:43.000Z</time>
      </trkpt>
      <trkpt lat="46.66763" lon="5.5702">
        <ele>275.5</ele>
        <time>2018-08-08T15:31:53.000Z</time>
      </trkpt>
      <trkpt lat="46.66767" lon="5.57016">
        <ele>276</ele>
        <time>2018-08-08T15:31:43.000Z</time>
      </trkpt>
      <trkpt lat="46.6677" lon="5.57005">
        <ele>275.6</ele>
        <time>2018-08-08T15:31:53.000Z</time>
      </trkpt>
      <trkpt lat="46.66774" lon="5.56985">
        <ele>276</ele>
        <time>2018-08-08T15:32:03.000Z</time>
      </trkpt>
      <trkpt lat="46.66775" lon="5.56978">
        <ele>276.2</ele>
        <time>2018-08-08T15:32:13.000Z</time>
      </trkpt>
      <trkpt lat="46.66771" lon="5.5697">
        <ele>277.4</ele>
        <time>2018-08-08T15:32:23.000Z</time>
      </trkpt>
      <trkpt lat="46.66771" lon="5.56968">
        <ele>277.8</ele>
        <time>2018-08-08T15:32:33.000Z</time>
      </trkpt>
      <trkpt lat="46.66769" lon="5.56959">
        <ele>280</ele>
        <time>2018-08-08T15:32:43.000Z</time>
      </trkpt>
      <trkpt lat="46.66767" lon="5.56939">
        <ele>283.8</ele>
        <time>2018-08-08T15:32:53.000Z</time>
      </trkpt>
      <trkpt lat="46.66762" lon="5.56922">
        <ele>287</ele>
        <time>2018-08-08T15:33:03.000Z</time>
      </trkpt>
      <trkpt lat="46.66763" lon="5.56906">
        <ele>288.8</ele>
        <time>2018-08-08T15:33:13.000Z</time>
      </trkpt>
      <trkpt lat="46.66764" lon="5.56903">
        <ele>289</ele>
        <time>2018-08-08T15:33:23.000Z</time>
      </trkpt>
      <trkpt lat="46.66767" lon="5.569">
        <ele>289.1</ele>
        <time>2018-08-08T15:33:33.000Z</time>
      </trkpt>
      <trkpt lat="46.66772" lon="5.5689">
        <ele>289</ele>
        <time>2018-08-08T15:33:53.000Z</time>
      </trkpt>
      <trkpt lat="46.66768" lon="5.56872">
        <ele>289.7</ele>
        <time>2018-08-08T15:34:03.000Z</time>
      </trkpt>
      <trkpt lat="46.66765" lon="5.56865">
        <ele>288</ele>
        <time>2018-08-08T15:34:50.000Z</time>
      </trkpt>
      <trkpt lat="46.66765" lon="5.56848">
        <ele>289.2</ele>
        <time>2018-08-08T15:35:00.000Z</time>
      </trkpt>
      <trkpt lat="46.66763" lon="5.5683">
        <ele>287</ele>
        <time>2018-08-08T15:34:59.000Z</time>
      </trkpt>
      <trkpt lat="46.66757" lon="5.56821">
        <ele>287.5</ele>
        <time>2018-08-08T15:35:09.000Z</time>
      </trkpt>
      <trkpt lat="46.66755" lon="5.56816">
        <ele>287</ele>
        <time>2018-08-08T15:35:19.000Z</time>
      </trkpt>
      <trkpt lat="46.66756" lon="5.56802">
        <ele>286</ele>
        <time>2018-08-08T15:35:13.000Z</time>
      </trkpt>
      <trkpt lat="46.66757" lon="5.56796">
        <ele>284.1</ele>
        <time>2018-08-08T15:35:23.000Z</time>
      </trkpt>
      <trkpt lat="46.66762" lon="5.56787">
        <ele>282.4</ele>
        <time>2018-08-08T15:35:33.000Z</time>
      </trkpt>
      <trkpt lat="46.66764" lon="5.56785">
        <ele>281.9</ele>
        <time>2018-08-08T15:35:43.000Z</time>
      </trkpt>
      <trkpt lat="46.66773" lon="5.56781">
        <ele>280</ele>
        <time>2018-08-08T15:35:26.000Z</time>
      </trkpt>
      <trkpt lat="46.66782" lon="5.56784">
        <ele>279.7</ele>
        <time>2018-08-08T15:35:36.000Z</time>
      </trkpt>
      <trkpt lat="46.66797" lon="5.56779">
        <ele>277</ele>
        <time>2018-08-08T15:35:38.000Z</time>
      </trkpt>
      <trkpt lat="46.66808" lon="5.56767">
        <ele>276.3</ele>
        <time>2018-08-08T15:35:48.000Z</time>
      </trkpt>
      <trkpt lat="46.66812" lon="5.56752">
        <ele>274</ele>
        <time>2018-08-08T15:35:47.000Z</time>
      </trkpt>
      <trkpt lat="46.66823" lon="5.56729">
        <ele>273</ele>
        <time>2018-08-08T15:35:52.000Z</time>
      </trkpt>
      <trkpt lat="46.66825" lon="5.56727">
        <ele>272.8</ele>
        <time>2018-08-08T15:36:02.000Z</time>
      </trkpt>
      <trkpt lat="46.66841" lon="5.56722">
        <ele>273</ele>
        <time>2018-08-08T15:35:57.000Z</time>
      </trkpt>
      <trkpt lat="46.66876" lon="5.56691">
        <ele>270</ele>
        <time>2018-08-08T15:36:09.000Z</time>
      </trkpt>
      <trkpt lat="46.66892" lon="5.56716">
        <ele>269</ele>
        <time>2018-08-08T15:36:17.000Z</time>
      </trkpt>
      <trkpt lat="46.66897" lon="5.56729">
        <ele>270.9</ele>
        <time>2018-08-08T15:36:27.000Z</time>
      </trkpt>
      <trkpt lat="46.66904" lon="5.56733">
        <ele>270.7</ele>
        <time>2018-08-08T15:36:37.000Z</time>
      </trkpt>
      <trkpt lat="46.66944" lon="5.56732">
        <ele>269</ele>
        <time>2018-08-08T15:36:38.000Z</time>
      </trkpt>
      <trkpt lat="46.66952" lon="5.56731">
        <ele>268.7</ele>
        <time>2018-08-08T15:36:48.000Z</time>
      </trkpt>
      <trkpt lat="46.6697" lon="5.56738">
        <ele>268</ele>
        <time>2018-08-08T15:36:49.000Z</time>
      </trkpt>
      <trkpt lat="46.66975" lon="5.56751">
        <ele>268</ele>
        <time>2018-08-08T15:36:59.000Z</time>
      </trkpt>
      <trkpt lat="46.66983" lon="5.56778">
        <ele>268</ele>
        <time>2018-08-08T15:36:59.000Z</time>
      </trkpt>
      <trkpt lat="46.66994" lon="5.56799">
        <ele>268.8</ele>
        <time>2018-08-08T15:37:09.000Z</time>
      </trkpt>
      <trkpt lat="46.67006" lon="5.56811">
        <ele>267</ele>
        <time>2018-08-08T15:37:16.000Z</time>
      </trkpt>
      <trkpt lat="46.67023" lon="5.56796">
        <ele>267</ele>
        <time>2018-08-08T15:37:19.000Z</time>
      </trkpt>
      <trkpt lat="46.67044" lon="5.56774">
        <ele>267</ele>
        <time>2018-08-08T15:37:29.000Z</time>
      </trkpt>
      <trkpt lat="46.67073" lon="5.56746">
        <ele>266</ele>
        <time>2018-08-08T15:37:39.000Z</time>
      </trkpt>
      <trkpt lat="46.6709" lon="5.56723">
        <ele>266</ele>
        <time>2018-08-08T15:37:49.000Z</time>
      </trkpt>
      <trkpt lat="46.67098" lon="5.567">
        <ele>266.2</ele>
        <time>2018-08-08T15:37:59.000Z</time>
      </trkpt>
      <trkpt lat="46.67107" lon="5.5667">
        <ele>266</ele>
        <time>2018-08-08T15:38:09.000Z</time>
      </trkpt>
      <trkpt lat="46.67112" lon="5.56642">
        <ele>266</ele>
        <time>2018-08-08T15:38:19.000Z</time>
      </trkpt>
      <trkpt lat="46.67124" lon="5.56615">
        <ele>265</ele>
        <time>2018-08-08T15:38:29.000Z</time>
      </trkpt>
      <trkpt lat="46.67131" lon="5.56581">
        <ele>265</ele>
        <time>2018-08-08T15:38:39.000Z</time>
      </trkpt>
      <trkpt lat="46.6714" lon="5.56542">
        <ele>265</ele>
        <time>2018-08-08T15:38:49.000Z</time>
      </trkpt>
      <trkpt lat="46.67156" lon="5.56515">
        <ele>264</ele>
        <time>2018-08-08T15:38:59.000Z</time>
      </trkpt>
      <trkpt lat="46.6717" lon="5.56497">
        <ele>264</ele>
        <time>2018-08-08T15:39:09.000Z</time>
      </trkpt>
      <trkpt lat="46.67196" lon="5.56475">
        <ele>264</ele>
        <time>2018-08-08T15:39:19.000Z</time>
      </trkpt>
      <trkpt lat="46.67211" lon="5.56451">
        <ele>264</ele>
        <time>2018-08-08T15:39:29.000Z</time>
      </trkpt>
      <trkpt lat="46.67218" lon="5.56441">
        <ele>264</ele>
        <time>2018-08-08T15:39:39.000Z</time>
      </trkpt>
      <trkpt lat="46.67217" lon="5.56443">
        <ele>264</ele>
        <time>2018-08-08T15:39:49.000Z</time>
      </trkpt>
      <trkpt lat="46.67223" lon="5.56431">
        <ele>263</ele>
        <time>2018-08-08T15:39:44.000Z</time>
      </trkpt>
      <trkpt lat="46.67237" lon="5.56398">
        <ele>263</ele>
        <time>2018-08-08T15:40:00.000Z</time>
      </trkpt>
      <trkpt lat="46.67242" lon="5.56355">
        <ele>262</ele>
        <time>2018-08-08T15:40:20.000Z</time>
      </trkpt>
      <trkpt lat="46.67249" lon="5.56304">
        <ele>262</ele>
        <time>2018-08-08T15:40:30.000Z</time>
      </trkpt>
      <trkpt lat="46.67247" lon="5.56289">
        <ele>261.6</ele>
        <time>2018-08-08T15:40:40.000Z</time>
      </trkpt>
      <trkpt lat="46.67255" lon="5.56212">
        <ele>261</ele>
        <time>2018-08-08T15:41:00.000Z</time>
      </trkpt>
      <trkpt lat="46.67259" lon="5.56182">
        <ele>261</ele>
        <time>2018-08-08T15:41:10.000Z</time>
      </trkpt>
      <trkpt lat="46.67261" lon="5.56151">
        <ele>260</ele>
        <time>2018-08-08T15:41:20.000Z</time>
      </trkpt>
      <trkpt lat="46.67268" lon="5.56119">
        <ele>260</ele>
        <time>2018-08-08T15:41:30.000Z</time>
      </trkpt>
      <trkpt lat="46.67271" lon="5.56093">
        <ele>260.1</ele>
        <time>2018-08-08T15:41:40.000Z</time>
      </trkpt>
      <trkpt lat="46.67271" lon="5.56071">
        <ele>260</ele>
        <time>2018-08-08T15:41:50.000Z</time>
      </trkpt>
      <trkpt lat="46.67278" lon="5.56033">
        <ele>259</ele>
        <time>2018-08-08T15:42:00.000Z</time>
      </trkpt>
      <trkpt lat="46.67286" lon="5.55978">
        <ele>259</ele>
        <time>2018-08-08T15:42:20.000Z</time>
      </trkpt>
      <trkpt lat="46.67294" lon="5.55949">
        <ele>259</ele>
        <time>2018-08-08T15:42:01.000Z</time>
      </trkpt>
      <trkpt lat="46.67289" lon="5.55909">
        <ele>259</ele>
        <time>2018-08-08T15:42:21.000Z</time>
      </trkpt>
      <trkpt lat="46.67284" lon="5.55896">
        <ele>259.8</ele>
        <time>2018-08-08T15:42:31.000Z</time>
      </trkpt>
      <trkpt lat="46.67285" lon="5.55874">
        <ele>259</ele>
        <time>2018-08-08T15:42:33.000Z</time>
      </trkpt>
      <trkpt lat="46.67281" lon="5.55843">
        <ele>258</ele>
        <time>2018-08-08T15:42:43.000Z</time>
      </trkpt>
      <trkpt lat="46.67283" lon="5.558">
        <ele>257</ele>
        <time>2018-08-08T15:42:53.000Z</time>
      </trkpt>
      <trkpt lat="46.67282" lon="5.55749">
        <ele>257</ele>
        <time>2018-08-08T15:43:10.000Z</time>
      </trkpt>
      <trkpt lat="46.67283" lon="5.55725">
        <ele>257.2</ele>
        <time>2018-08-08T15:43:20.000Z</time>
      </trkpt>
      <trkpt lat="46.67281" lon="5.55705">
        <ele>257</ele>
        <time>2018-08-08T15:43:22.000Z</time>
      </trkpt>
      <trkpt lat="46.67284" lon="5.55682">
        <ele>257.2</ele>
        <time>2018-08-08T15:43:32.000Z</time>
      </trkpt>
      <trkpt lat="46.67296" lon="5.55681">
        <ele>257</ele>
        <time>2018-08-08T15:43:33.000Z</time>
      </trkpt>
      <trkpt lat="46.6731" lon="5.55669">
        <ele>258</ele>
        <time>2018-08-08T15:43:43.000Z</time>
      </trkpt>
      <trkpt lat="46.67311" lon="5.55654">
        <ele>257</ele>
        <time>2018-08-08T15:43:53.000Z</time>
      </trkpt>
      <trkpt lat="46.67311" lon="5.55607">
        <ele>257</ele>
        <time>2018-08-08T15:43:59.000Z</time>
      </trkpt>
      <trkpt lat="46.6731" lon="5.55573">
        <ele>256</ele>
        <time>2018-08-08T15:44:09.000Z</time>
      </trkpt>
      <trkpt lat="46.67315" lon="5.55518">
        <ele>256</ele>
        <time>2018-08-08T15:44:28.000Z</time>
      </trkpt>
      <trkpt lat="46.67348" lon="5.5549">
        <ele>256</ele>
        <time>2018-08-08T15:44:37.000Z</time>
      </trkpt>
      <trkpt lat="46.67361" lon="5.55484">
        <ele>256.4</ele>
        <time>2018-08-08T15:44:47.000Z</time>
      </trkpt>
      <trkpt lat="46.67377" lon="5.55487">
        <ele>256</ele>
        <time>2018-08-08T15:44:57.000Z</time>
      </trkpt>
      <trkpt lat="46.6741" lon="5.55503">
        <ele>256</ele>
        <time>2018-08-08T15:45:17.000Z</time>
      </trkpt>
      <trkpt lat="46.6742" lon="5.55468">
        <ele>255</ele>
        <time>2018-08-08T15:45:27.000Z</time>
      </trkpt>
      <trkpt lat="46.67423" lon="5.55453">
        <ele>255.3</ele>
        <time>2018-08-08T15:45:37.000Z</time>
      </trkpt>
      <trkpt lat="46.67435" lon="5.55441">
        <ele>255</ele>
        <time>2018-08-08T15:45:47.000Z</time>
      </trkpt>
      <trkpt lat="46.67442" lon="5.55432">
        <ele>255</ele>
        <time>2018-08-08T15:45:57.000Z</time>
      </trkpt>
      <trkpt lat="46.67452" lon="5.55414">
        <ele>255</ele>
        <time>2018-08-08T15:46:07.000Z</time>
      </trkpt>
      <trkpt lat="46.67457" lon="5.55398">
        <ele>255</ele>
        <time>2018-08-08T15:46:17.000Z</time>
      </trkpt>
      <trkpt lat="46.67464" lon="5.55379">
        <ele>254</ele>
        <time>2018-08-08T15:46:27.000Z</time>
      </trkpt>
      <trkpt lat="46.67473" lon="5.55349">
        <ele>254</ele>
        <time>2018-08-08T15:46:37.000Z</time>
      </trkpt>
      <trkpt lat="46.67469" lon="5.55343">
        <ele>254.9</ele>
        <time>2018-08-08T15:46:47.000Z</time>
      </trkpt>
      <trkpt lat="46.67452" lon="5.55328">
        <ele>254</ele>
        <time>2018-08-08T15:46:57.000Z</time>
      </trkpt>
      <trkpt lat="46.67436" lon="5.5531">
        <ele>254</ele>
        <time>2018-08-08T15:47:07.000Z</time>
      </trkpt>
      <trkpt lat="46.6742" lon="5.55284">
        <ele>254</ele>
        <time>2018-08-08T15:47:17.000Z</time>
      </trkpt>
      <trkpt lat="46.67405" lon="5.55257">
        <ele>254</ele>
        <time>2018-08-08T15:47:27.000Z</time>
        <extensions>
          <visugpx:TrkExtension xmlns:visugpx="https://www.visugpx.com/editgpx/">
            <visugpx:node>7</visugpx:node>
            </visugpx:TrkExtension>
        </extensions>
      </trkpt>
    </trkseg>
  </trk>
</gpx>